<?xml version="1.0" encoding="UTF-8" standalone="no" ?>
<gpx xmlns="http://www.topografix.com/GPX/1/1" xmlns:xsi="http://www.w3.org/2001/XMLSchema-instance" xsi:schemaLocation="http://www.topografix.com/GPX/1/1 http://www.topografix.com/GPX/1/1/gpx.xsd" version="1.1" creator="VisuGPX - https://www.visugpx.com">
  <metadata>
    <name>Gravel J2</name>
  </metadata>
  <trk>
    <name><![CDATA[Gravel J2 - Trail Running Portes du Soleil]]></name>
    <extensions>
      <line xmlns="http://www.topografix.com/GPX/gpx_style/0/2">
        <color>0000FF</color>
        <width>4</width>
      </line>
    </extensions>
    <trkseg>
      <trkpt lat="46.26779" lon="6.84092">
        <ele>1183</ele>
        <time>2000-01-01T02:29:44.000Z</time>
      </trkpt>
      <trkpt lat="46.26748" lon="6.84099">
        <ele>1182</ele>
        <time>2000-01-01T02:29:54.000Z</time>
      </trkpt>
      <trkpt lat="46.2674" lon="6.841">
        <ele>1185.6</ele>
        <time>2000-01-01T02:30:04.000Z</time>
      </trkpt>
      <trkpt lat="46.26737" lon="6.84088">
        <ele>1184.8</ele>
        <time>2000-01-01T02:30:14.000Z</time>
      </trkpt>
      <trkpt lat="46.26733" lon="6.8408">
        <ele>1182</ele>
        <time>2000-01-01T02:30:24.000Z</time>
      </trkpt>
      <trkpt lat="46.26727" lon="6.84075">
        <ele>1184</ele>
        <time>2000-01-01T02:30:34.000Z</time>
      </trkpt>
      <trkpt lat="46.2672" lon="6.84072">
        <ele>1183.6</ele>
        <time>2000-01-01T02:30:44.000Z</time>
      </trkpt>
      <trkpt lat="46.26703" lon="6.8407">
        <ele>1180</ele>
        <time>2000-01-01T02:30:54.000Z</time>
      </trkpt>
      <trkpt lat="46.26696" lon="6.84071">
        <ele>1181.4</ele>
        <time>2000-01-01T02:31:04.000Z</time>
      </trkpt>
      <trkpt lat="46.26691" lon="6.84067">
        <ele>1180.6</ele>
        <time>2000-01-01T02:31:14.000Z</time>
      </trkpt>
      <trkpt lat="46.26678" lon="6.8405">
        <ele>1174</ele>
        <time>2000-01-01T02:31:24.000Z</time>
      </trkpt>
      <trkpt lat="46.26669" lon="6.84042">
        <ele>1175.6</ele>
        <time>2000-01-01T02:31:34.000Z</time>
      </trkpt>
      <trkpt lat="46.26674" lon="6.84035">
        <ele>1174.6</ele>
        <time>2000-01-01T02:31:44.000Z</time>
      </trkpt>
      <trkpt lat="46.2668" lon="6.8403">
        <ele>1172</ele>
        <time>2000-01-01T02:31:54.000Z</time>
      </trkpt>
      <trkpt lat="46.26687" lon="6.84026">
        <ele>1173.1</ele>
        <time>2000-01-01T02:32:04.000Z</time>
      </trkpt>
      <trkpt lat="46.26693" lon="6.84025">
        <ele>1172.8</ele>
        <time>2000-01-01T02:32:14.000Z</time>
      </trkpt>
      <trkpt lat="46.26702" lon="6.84022">
        <ele>1172</ele>
        <time>2000-01-01T02:32:24.000Z</time>
      </trkpt>
      <trkpt lat="46.26726" lon="6.8401">
        <ele>1169</ele>
        <time>2000-01-01T02:32:34.000Z</time>
      </trkpt>
      <trkpt lat="46.26746" lon="6.83999">
        <ele>1168</ele>
        <time>2000-01-01T02:32:44.000Z</time>
      </trkpt>
      <trkpt lat="46.26756" lon="6.83996">
        <ele>1167.4</ele>
        <time>2000-01-01T02:32:54.000Z</time>
      </trkpt>
      <trkpt lat="46.2677" lon="6.83995">
        <ele>1167</ele>
        <time>2000-01-01T02:33:04.000Z</time>
      </trkpt>
      <trkpt lat="46.26794" lon="6.83992">
        <ele>1165</ele>
        <time>2000-01-01T02:33:14.000Z</time>
      </trkpt>
      <trkpt lat="46.26795" lon="6.83987">
        <ele>1164.1</ele>
        <time>2000-01-01T02:33:24.000Z</time>
      </trkpt>
      <trkpt lat="46.26797" lon="6.83982">
        <ele>1163</ele>
        <time>2000-01-01T02:33:34.000Z</time>
      </trkpt>
      <trkpt lat="46.26803" lon="6.8398">
        <ele>1162.5</ele>
        <time>2000-01-01T02:33:44.000Z</time>
      </trkpt>
      <trkpt lat="46.26844" lon="6.83975">
        <ele>1161</ele>
        <time>2000-01-01T02:33:54.000Z</time>
      </trkpt>
      <trkpt lat="46.26858" lon="6.83972">
        <ele>1159.3</ele>
        <time>2000-01-01T02:34:04.000Z</time>
      </trkpt>
      <trkpt lat="46.26873" lon="6.83966">
        <ele>1157</ele>
        <time>2000-01-01T02:34:14.000Z</time>
      </trkpt>
      <trkpt lat="46.26894" lon="6.83952">
        <ele>1155</ele>
        <time>2000-01-01T02:34:24.000Z</time>
      </trkpt>
      <trkpt lat="46.26916" lon="6.83938">
        <ele>1153</ele>
        <time>2000-01-01T02:34:34.000Z</time>
      </trkpt>
      <trkpt lat="46.26951" lon="6.83912">
        <ele>1149</ele>
        <time>2000-01-01T02:34:44.000Z</time>
      </trkpt>
      <trkpt lat="46.2698" lon="6.83892">
        <ele>1145</ele>
        <time>2000-01-01T02:34:54.000Z</time>
      </trkpt>
      <trkpt lat="46.26999" lon="6.83881">
        <ele>1144</ele>
        <time>2000-01-01T02:35:04.000Z</time>
      </trkpt>
      <trkpt lat="46.27016" lon="6.83873">
        <ele>1142.4</ele>
        <time>2000-01-01T02:35:14.000Z</time>
      </trkpt>
      <trkpt lat="46.27037" lon="6.83865">
        <ele>1139</ele>
        <time>2000-01-01T02:35:24.000Z</time>
      </trkpt>
      <trkpt lat="46.27051" lon="6.83858">
        <ele>1138.6</ele>
        <time>2000-01-01T02:35:34.000Z</time>
      </trkpt>
      <trkpt lat="46.2706" lon="6.83852">
        <ele>1137</ele>
        <time>2000-01-01T02:35:44.000Z</time>
      </trkpt>
      <trkpt lat="46.27064" lon="6.83847">
        <ele>1136.6</ele>
        <time>2000-01-01T02:35:54.000Z</time>
      </trkpt>
      <trkpt lat="46.27077" lon="6.83834">
        <ele>1135</ele>
        <time>2000-01-01T02:36:04.000Z</time>
      </trkpt>
      <trkpt lat="46.27102" lon="6.8381">
        <ele>1133</ele>
        <time>2000-01-01T02:36:14.000Z</time>
      </trkpt>
      <trkpt lat="46.27108" lon="6.83801">
        <ele>1133.4</ele>
        <time>2000-01-01T02:36:24.000Z</time>
      </trkpt>
      <trkpt lat="46.2711" lon="6.83793">
        <ele>1133</ele>
        <time>2000-01-01T02:36:34.000Z</time>
      </trkpt>
      <trkpt lat="46.27109" lon="6.83789">
        <ele>1132.6</ele>
        <time>2000-01-01T02:36:44.000Z</time>
      </trkpt>
      <trkpt lat="46.27109" lon="6.83787">
        <ele>1131</ele>
        <time>2000-01-01T02:36:54.000Z</time>
      </trkpt>
      <trkpt lat="46.27105" lon="6.83783">
        <ele>1131.8</ele>
        <time>2000-01-01T02:37:04.000Z</time>
      </trkpt>
      <trkpt lat="46.27099" lon="6.83784">
        <ele>1131.2</ele>
        <time>2000-01-01T02:37:14.000Z</time>
      </trkpt>
      <trkpt lat="46.27091" lon="6.83787">
        <ele>1131</ele>
        <time>2000-01-01T02:37:24.000Z</time>
      </trkpt>
      <trkpt lat="46.27083" lon="6.83791">
        <ele>1130.4</ele>
        <time>2000-01-01T02:37:34.000Z</time>
      </trkpt>
      <trkpt lat="46.27073" lon="6.83794">
        <ele>1129</ele>
        <time>2000-01-01T02:37:44.000Z</time>
      </trkpt>
      <trkpt lat="46.27063" lon="6.83795">
        <ele>1127.8</ele>
        <time>2000-01-01T02:37:54.000Z</time>
      </trkpt>
      <trkpt lat="46.27061" lon="6.83794">
        <ele>1127.3</ele>
        <time>2000-01-01T02:38:04.000Z</time>
      </trkpt>
      <trkpt lat="46.27056" lon="6.83794">
        <ele>1126.6</ele>
        <time>2000-01-01T02:38:14.000Z</time>
      </trkpt>
      <trkpt lat="46.27041" lon="6.83791">
        <ele>1127</ele>
        <time>2000-01-01T02:38:24.000Z</time>
      </trkpt>
      <trkpt lat="46.27017" lon="6.83783">
        <ele>1124</ele>
        <time>2000-01-01T02:38:34.000Z</time>
      </trkpt>
      <trkpt lat="46.26991" lon="6.83775">
        <ele>1122</ele>
        <time>2000-01-01T02:38:44.000Z</time>
      </trkpt>
      <trkpt lat="46.26963" lon="6.83768">
        <ele>1120</ele>
        <time>2000-01-01T02:38:54.000Z</time>
      </trkpt>
      <trkpt lat="46.26943" lon="6.83764">
        <ele>1119</ele>
        <time>2000-01-01T02:39:04.000Z</time>
      </trkpt>
      <trkpt lat="46.2692" lon="6.83763">
        <ele>1117</ele>
        <time>2000-01-01T02:39:14.000Z</time>
      </trkpt>
      <trkpt lat="46.26894" lon="6.83763">
        <ele>1115</ele>
        <time>2000-01-01T02:39:24.000Z</time>
      </trkpt>
      <trkpt lat="46.26863" lon="6.83763">
        <ele>1112</ele>
        <time>2000-01-01T02:39:34.000Z</time>
      </trkpt>
      <trkpt lat="46.26851" lon="6.83764">
        <ele>1111.6</ele>
        <time>2000-01-01T02:39:44.000Z</time>
      </trkpt>
      <trkpt lat="46.26842" lon="6.83769">
        <ele>1110</ele>
        <time>2000-01-01T02:39:54.000Z</time>
      </trkpt>
      <trkpt lat="46.26834" lon="6.83771">
        <ele>1110.6</ele>
        <time>2000-01-01T02:40:04.000Z</time>
      </trkpt>
      <trkpt lat="46.26828" lon="6.83771">
        <ele>1110.4</ele>
        <time>2000-01-01T02:40:14.000Z</time>
      </trkpt>
      <trkpt lat="46.26824" lon="6.83765">
        <ele>1109</ele>
        <time>2000-01-01T02:40:24.000Z</time>
      </trkpt>
      <trkpt lat="46.26824" lon="6.83762">
        <ele>1109.5</ele>
        <time>2000-01-01T02:40:34.000Z</time>
      </trkpt>
      <trkpt lat="46.26825" lon="6.83756">
        <ele>1109</ele>
        <time>2000-01-01T02:40:44.000Z</time>
      </trkpt>
      <trkpt lat="46.26831" lon="6.83746">
        <ele>1108.2</ele>
        <time>2000-01-01T02:40:54.000Z</time>
      </trkpt>
      <trkpt lat="46.26847" lon="6.83724">
        <ele>1104</ele>
        <time>2000-01-01T02:41:04.000Z</time>
      </trkpt>
      <trkpt lat="46.26862" lon="6.837">
        <ele>1104</ele>
        <time>2000-01-01T02:41:14.000Z</time>
      </trkpt>
      <trkpt lat="46.2689" lon="6.83648">
        <ele>1098</ele>
        <time>2000-01-01T02:41:24.000Z</time>
      </trkpt>
      <trkpt lat="46.26906" lon="6.83621">
        <ele>1098</ele>
        <time>2000-01-01T02:41:34.000Z</time>
      </trkpt>
      <trkpt lat="46.26923" lon="6.83592">
        <ele>1097</ele>
        <time>2000-01-01T02:41:44.000Z</time>
      </trkpt>
      <trkpt lat="46.2693" lon="6.83583">
        <ele>1096.5</ele>
        <time>2000-01-01T02:41:54.000Z</time>
      </trkpt>
      <trkpt lat="46.2694" lon="6.83575">
        <ele>1095</ele>
        <time>2000-01-01T02:42:04.000Z</time>
      </trkpt>
      <trkpt lat="46.26947" lon="6.83566">
        <ele>1094.4</ele>
        <time>2000-01-01T02:42:14.000Z</time>
      </trkpt>
      <trkpt lat="46.26946" lon="6.83565">
        <ele>1094.4</ele>
        <time>2000-01-01T02:42:24.000Z</time>
      </trkpt>
      <trkpt lat="46.26946" lon="6.8356">
        <ele>1094.1</ele>
        <time>2000-01-01T02:42:34.000Z</time>
      </trkpt>
      <trkpt lat="46.26944" lon="6.83555">
        <ele>1093.9</ele>
        <time>2000-01-01T02:42:44.000Z</time>
      </trkpt>
      <trkpt lat="46.26941" lon="6.83552">
        <ele>1093</ele>
        <time>2000-01-01T02:42:54.000Z</time>
      </trkpt>
      <trkpt lat="46.26933" lon="6.8355">
        <ele>1092.9</ele>
        <time>2000-01-01T02:43:04.000Z</time>
      </trkpt>
      <trkpt lat="46.26919" lon="6.83551">
        <ele>1092</ele>
        <time>2000-01-01T02:43:14.000Z</time>
      </trkpt>
      <trkpt lat="46.26909" lon="6.83553">
        <ele>1091.8</ele>
        <time>2000-01-01T02:43:24.000Z</time>
      </trkpt>
      <trkpt lat="46.26898" lon="6.83558">
        <ele>1088</ele>
        <time>2000-01-01T02:43:34.000Z</time>
      </trkpt>
      <trkpt lat="46.26875" lon="6.83572">
        <ele>1087</ele>
        <time>2000-01-01T02:43:44.000Z</time>
      </trkpt>
      <trkpt lat="46.2685" lon="6.83587">
        <ele>1084</ele>
        <time>2000-01-01T02:43:54.000Z</time>
      </trkpt>
      <trkpt lat="46.26837" lon="6.83592">
        <ele>1084.2</ele>
        <time>2000-01-01T02:44:04.000Z</time>
      </trkpt>
      <trkpt lat="46.26826" lon="6.83594">
        <ele>1082</ele>
        <time>2000-01-01T02:44:14.000Z</time>
      </trkpt>
      <trkpt lat="46.26816" lon="6.83592">
        <ele>1082.7</ele>
        <time>2000-01-01T02:44:24.000Z</time>
      </trkpt>
      <trkpt lat="46.26803" lon="6.83584">
        <ele>1079</ele>
        <time>2000-01-01T02:44:34.000Z</time>
      </trkpt>
      <trkpt lat="46.26795" lon="6.83577">
        <ele>1081.7</ele>
        <time>2000-01-01T02:44:44.000Z</time>
      </trkpt>
      <trkpt lat="46.26783" lon="6.83561">
        <ele>1077</ele>
        <time>2000-01-01T02:44:54.000Z</time>
      </trkpt>
      <trkpt lat="46.26765" lon="6.83531">
        <ele>1076</ele>
        <time>2000-01-01T02:45:04.000Z</time>
      </trkpt>
      <trkpt lat="46.2676" lon="6.83517">
        <ele>1076.5</ele>
        <time>2000-01-01T02:45:14.000Z</time>
      </trkpt>
      <trkpt lat="46.26754" lon="6.83497">
        <ele>1073</ele>
        <time>2000-01-01T02:45:24.000Z</time>
      </trkpt>
      <trkpt lat="46.26744" lon="6.83441">
        <ele>1073</ele>
        <time>2000-01-01T02:45:34.000Z</time>
      </trkpt>
      <trkpt lat="46.2674" lon="6.83443">
        <ele>1073.6</ele>
        <time>2000-01-01T02:45:44.000Z</time>
      </trkpt>
      <trkpt lat="46.26723" lon="6.83446">
        <ele>1073</ele>
        <time>2000-01-01T02:45:54.000Z</time>
      </trkpt>
      <trkpt lat="46.26699" lon="6.83451">
        <ele>1074</ele>
        <time>2000-01-01T02:46:04.000Z</time>
      </trkpt>
      <trkpt lat="46.26675" lon="6.83457">
        <ele>1074</ele>
        <time>2000-01-01T02:46:14.000Z</time>
      </trkpt>
      <trkpt lat="46.2664" lon="6.83467">
        <ele>1075</ele>
        <time>2000-01-01T02:46:24.000Z</time>
      </trkpt>
      <trkpt lat="46.26609" lon="6.83474">
        <ele>1076</ele>
        <time>2000-01-01T02:46:34.000Z</time>
      </trkpt>
      <trkpt lat="46.26591" lon="6.83477">
        <ele>1076.6</ele>
        <time>2000-01-01T02:46:44.000Z</time>
      </trkpt>
      <trkpt lat="46.26579" lon="6.83477">
        <ele>1077</ele>
        <time>2000-01-01T02:46:54.000Z</time>
      </trkpt>
      <trkpt lat="46.26568" lon="6.83475">
        <ele>1077.5</ele>
        <time>2000-01-01T02:47:04.000Z</time>
      </trkpt>
      <trkpt lat="46.26522" lon="6.83462">
        <ele>1079</ele>
        <time>2000-01-01T02:47:14.000Z</time>
      </trkpt>
      <trkpt lat="46.26489" lon="6.83451">
        <ele>1081</ele>
        <time>2000-01-01T02:47:24.000Z</time>
      </trkpt>
      <trkpt lat="46.26457" lon="6.8344">
        <ele>1083</ele>
        <time>2000-01-01T02:47:34.000Z</time>
      </trkpt>
      <trkpt lat="46.26433" lon="6.83431">
        <ele>1083</ele>
        <time>2000-01-01T02:47:44.000Z</time>
      </trkpt>
      <trkpt lat="46.26406" lon="6.83422">
        <ele>1084</ele>
        <time>2000-01-01T02:47:54.000Z</time>
      </trkpt>
      <trkpt lat="46.26385" lon="6.83413">
        <ele>1085</ele>
        <time>2000-01-01T02:48:04.000Z</time>
      </trkpt>
      <trkpt lat="46.26361" lon="6.83402">
        <ele>1086</ele>
        <time>2000-01-01T02:48:14.000Z</time>
      </trkpt>
      <trkpt lat="46.26333" lon="6.83389">
        <ele>1087</ele>
        <time>2000-01-01T02:48:24.000Z</time>
      </trkpt>
      <trkpt lat="46.26309" lon="6.83377">
        <ele>1088</ele>
        <time>2000-01-01T02:48:34.000Z</time>
      </trkpt>
      <trkpt lat="46.26299" lon="6.83373">
        <ele>1088.6</ele>
        <time>2000-01-01T02:48:44.000Z</time>
      </trkpt>
      <trkpt lat="46.26291" lon="6.83372">
        <ele>1089.1</ele>
        <time>2000-01-01T02:48:54.000Z</time>
      </trkpt>
      <trkpt lat="46.26268" lon="6.83374">
        <ele>1089</ele>
        <time>2000-01-01T02:49:04.000Z</time>
      </trkpt>
      <trkpt lat="46.26257" lon="6.83371">
        <ele>1089.9</ele>
        <time>2000-01-01T02:49:14.000Z</time>
      </trkpt>
      <trkpt lat="46.2624" lon="6.83365">
        <ele>1090</ele>
        <time>2000-01-01T02:49:24.000Z</time>
      </trkpt>
      <trkpt lat="46.26216" lon="6.83351">
        <ele>1091</ele>
        <time>2000-01-01T02:49:34.000Z</time>
      </trkpt>
      <trkpt lat="46.2619" lon="6.83333">
        <ele>1092</ele>
        <time>2000-01-01T02:49:44.000Z</time>
      </trkpt>
      <trkpt lat="46.26168" lon="6.83318">
        <ele>1092</ele>
        <time>2000-01-01T02:49:54.000Z</time>
      </trkpt>
      <trkpt lat="46.26146" lon="6.83303">
        <ele>1092</ele>
        <time>2000-01-01T02:50:04.000Z</time>
      </trkpt>
      <trkpt lat="46.26121" lon="6.83278">
        <ele>1093</ele>
        <time>2000-01-01T02:50:14.000Z</time>
      </trkpt>
      <trkpt lat="46.26099" lon="6.83254">
        <ele>1093</ele>
        <time>2000-01-01T02:50:24.000Z</time>
      </trkpt>
      <trkpt lat="46.26069" lon="6.8322">
        <ele>1094</ele>
        <time>2000-01-01T02:50:34.000Z</time>
      </trkpt>
      <trkpt lat="46.26039" lon="6.83199">
        <ele>1095</ele>
        <time>2000-01-01T02:50:44.000Z</time>
      </trkpt>
      <trkpt lat="46.26008" lon="6.83177">
        <ele>1096</ele>
        <time>2000-01-01T02:50:54.000Z</time>
      </trkpt>
      <trkpt lat="46.25986" lon="6.83162">
        <ele>1097</ele>
        <time>2000-01-01T02:51:04.000Z</time>
      </trkpt>
      <trkpt lat="46.25959" lon="6.83143">
        <ele>1099</ele>
        <time>2000-01-01T02:51:14.000Z</time>
      </trkpt>
      <trkpt lat="46.25949" lon="6.83132">
        <ele>1099.8</ele>
        <time>2000-01-01T02:51:24.000Z</time>
      </trkpt>
      <trkpt lat="46.25907" lon="6.83067">
        <ele>1101</ele>
        <time>2000-01-01T02:51:34.000Z</time>
      </trkpt>
      <trkpt lat="46.25879" lon="6.83018">
        <ele>1101</ele>
        <time>2000-01-01T02:51:44.000Z</time>
      </trkpt>
      <trkpt lat="46.25872" lon="6.83001">
        <ele>1101.9</ele>
        <time>2000-01-01T02:51:54.000Z</time>
      </trkpt>
      <trkpt lat="46.25865" lon="6.82958">
        <ele>1102</ele>
        <time>2000-01-01T02:52:04.000Z</time>
      </trkpt>
      <trkpt lat="46.25855" lon="6.82948">
        <ele>1101.7</ele>
        <time>2000-01-01T02:52:14.000Z</time>
      </trkpt>
      <trkpt lat="46.25852" lon="6.82941">
        <ele>1102</ele>
        <time>2000-01-01T02:52:24.000Z</time>
      </trkpt>
      <trkpt lat="46.25853" lon="6.82921">
        <ele>1103</ele>
        <time>2000-01-01T02:52:34.000Z</time>
      </trkpt>
      <trkpt lat="46.25831" lon="6.82888">
        <ele>1104</ele>
        <time>2000-01-01T02:52:44.000Z</time>
      </trkpt>
      <trkpt lat="46.25813" lon="6.8286">
        <ele>1105</ele>
        <time>2000-01-01T02:52:54.000Z</time>
      </trkpt>
      <trkpt lat="46.25789" lon="6.82822">
        <ele>1106</ele>
        <time>2000-01-01T02:53:04.000Z</time>
      </trkpt>
      <trkpt lat="46.25781" lon="6.82806">
        <ele>1106.5</ele>
        <time>2000-01-01T02:53:14.000Z</time>
      </trkpt>
      <trkpt lat="46.25758" lon="6.82713">
        <ele>1106</ele>
        <time>2000-01-01T02:53:24.000Z</time>
      </trkpt>
      <trkpt lat="46.25749" lon="6.82686">
        <ele>1107</ele>
        <time>2000-01-01T02:53:34.000Z</time>
      </trkpt>
      <trkpt lat="46.25734" lon="6.82663">
        <ele>1109</ele>
        <time>2000-01-01T02:53:44.000Z</time>
      </trkpt>
      <trkpt lat="46.25708" lon="6.82639">
        <ele>1110</ele>
        <time>2000-01-01T02:53:54.000Z</time>
      </trkpt>
      <trkpt lat="46.25682" lon="6.82615">
        <ele>1110</ele>
        <time>2000-01-01T02:54:04.000Z</time>
      </trkpt>
      <trkpt lat="46.25655" lon="6.8259">
        <ele>1111</ele>
        <time>2000-01-01T02:54:14.000Z</time>
      </trkpt>
      <trkpt lat="46.25646" lon="6.82586">
        <ele>1111</ele>
        <time>2000-01-01T02:54:24.000Z</time>
      </trkpt>
      <trkpt lat="46.25643" lon="6.8257">
        <ele>1111</ele>
        <time>2000-01-01T02:54:34.000Z</time>
      </trkpt>
      <trkpt lat="46.25628" lon="6.82524">
        <ele>1112</ele>
        <time>2000-01-01T02:54:44.000Z</time>
      </trkpt>
      <trkpt lat="46.25614" lon="6.82477">
        <ele>1112</ele>
        <time>2000-01-01T02:54:54.000Z</time>
      </trkpt>
      <trkpt lat="46.25602" lon="6.82439">
        <ele>1113</ele>
        <time>2000-01-01T02:55:04.000Z</time>
      </trkpt>
      <trkpt lat="46.25592" lon="6.82408">
        <ele>1114</ele>
        <time>2000-01-01T02:55:14.000Z</time>
      </trkpt>
      <trkpt lat="46.25582" lon="6.82376">
        <ele>1114</ele>
        <time>2000-01-01T02:55:24.000Z</time>
      </trkpt>
      <trkpt lat="46.25567" lon="6.82332">
        <ele>1115</ele>
        <time>2000-01-01T02:55:34.000Z</time>
      </trkpt>
      <trkpt lat="46.25553" lon="6.82287">
        <ele>1116</ele>
        <time>2000-01-01T02:55:44.000Z</time>
      </trkpt>
      <trkpt lat="46.25542" lon="6.82253">
        <ele>1117</ele>
        <time>2000-01-01T02:55:54.000Z</time>
      </trkpt>
      <trkpt lat="46.25529" lon="6.82213">
        <ele>1116</ele>
        <time>2000-01-01T02:56:04.000Z</time>
      </trkpt>
      <trkpt lat="46.25505" lon="6.82229">
        <ele>1116</ele>
        <time>2000-01-01T02:56:14.000Z</time>
      </trkpt>
      <trkpt lat="46.25498" lon="6.82237">
        <ele>1117.5</ele>
        <time>2000-01-01T02:56:24.000Z</time>
      </trkpt>
      <trkpt lat="46.25486" lon="6.82258">
        <ele>1123</ele>
        <time>2000-01-01T02:56:34.000Z</time>
      </trkpt>
      <trkpt lat="46.25478" lon="6.82263">
        <ele>1121.7</ele>
        <time>2000-01-01T02:56:44.000Z</time>
      </trkpt>
      <trkpt lat="46.25472" lon="6.82262">
        <ele>1122.6</ele>
        <time>2000-01-01T02:56:54.000Z</time>
      </trkpt>
      <trkpt lat="46.2547" lon="6.82259">
        <ele>1123</ele>
        <time>2000-01-01T02:57:04.000Z</time>
      </trkpt>
      <trkpt lat="46.25454" lon="6.82267">
        <ele>1126</ele>
        <time>2000-01-01T02:57:14.000Z</time>
      </trkpt>
      <trkpt lat="46.25428" lon="6.82233">
        <ele>1128</ele>
        <time>2000-01-01T02:57:24.000Z</time>
      </trkpt>
      <trkpt lat="46.25412" lon="6.82177">
        <ele>1128</ele>
        <time>2000-01-01T02:57:34.000Z</time>
      </trkpt>
      <trkpt lat="46.25396" lon="6.82165">
        <ele>1130.1</ele>
        <time>2000-01-01T02:57:44.000Z</time>
      </trkpt>
      <trkpt lat="46.2538" lon="6.82111">
        <ele>1135</ele>
        <time>2000-01-01T02:57:54.000Z</time>
      </trkpt>
      <trkpt lat="46.25372" lon="6.821">
        <ele>1133.9</ele>
        <time>2000-01-01T02:58:04.000Z</time>
      </trkpt>
      <trkpt lat="46.25333" lon="6.82095">
        <ele>1139</ele>
        <time>2000-01-01T02:58:14.000Z</time>
      </trkpt>
      <trkpt lat="46.25317" lon="6.82096">
        <ele>1144.8</ele>
        <time>2000-01-01T02:58:24.000Z</time>
      </trkpt>
      <trkpt lat="46.25311" lon="6.8209">
        <ele>1143</ele>
        <time>2000-01-01T02:58:34.000Z</time>
      </trkpt>
      <trkpt lat="46.25294" lon="6.82064">
        <ele>1145</ele>
        <time>2000-01-01T02:58:44.000Z</time>
      </trkpt>
      <trkpt lat="46.25274" lon="6.82034">
        <ele>1148</ele>
        <time>2000-01-01T02:58:54.000Z</time>
      </trkpt>
      <trkpt lat="46.25268" lon="6.82002">
        <ele>1147</ele>
        <time>2000-01-01T02:59:04.000Z</time>
      </trkpt>
      <trkpt lat="46.2527" lon="6.81964">
        <ele>1147</ele>
        <time>2000-01-01T02:59:14.000Z</time>
      </trkpt>
      <trkpt lat="46.25274" lon="6.81924">
        <ele>1144</ele>
        <time>2000-01-01T02:59:24.000Z</time>
      </trkpt>
      <trkpt lat="46.25273" lon="6.81903">
        <ele>1137.6</ele>
        <time>2000-01-01T02:59:34.000Z</time>
      </trkpt>
      <trkpt lat="46.2526" lon="6.81883">
        <ele>1141</ele>
        <time>2000-01-01T02:59:44.000Z</time>
      </trkpt>
      <trkpt lat="46.25252" lon="6.81845">
        <ele>1140</ele>
        <time>2000-01-01T02:59:54.000Z</time>
      </trkpt>
      <trkpt lat="46.25239" lon="6.81791">
        <ele>1140</ele>
        <time>2000-01-01T03:00:04.000Z</time>
      </trkpt>
      <trkpt lat="46.25222" lon="6.81761">
        <ele>1138</ele>
        <time>2000-01-01T03:00:14.000Z</time>
      </trkpt>
      <trkpt lat="46.25217" lon="6.81724">
        <ele>1137</ele>
        <time>2000-01-01T03:00:24.000Z</time>
      </trkpt>
      <trkpt lat="46.25211" lon="6.81679">
        <ele>1137</ele>
        <time>2000-01-01T03:00:34.000Z</time>
      </trkpt>
      <trkpt lat="46.25185" lon="6.81654">
        <ele>1138</ele>
        <time>2000-01-01T03:00:44.000Z</time>
      </trkpt>
      <trkpt lat="46.25165" lon="6.81642">
        <ele>1140</ele>
        <time>2000-01-01T03:00:54.000Z</time>
      </trkpt>
      <trkpt lat="46.25145" lon="6.81609">
        <ele>1144</ele>
        <time>2000-01-01T03:01:04.000Z</time>
      </trkpt>
      <trkpt lat="46.25126" lon="6.81588">
        <ele>1147</ele>
        <time>2000-01-01T03:01:14.000Z</time>
      </trkpt>
      <trkpt lat="46.25107" lon="6.81565">
        <ele>1152</ele>
        <time>2000-01-01T03:01:24.000Z</time>
      </trkpt>
      <trkpt lat="46.25095" lon="6.81535">
        <ele>1155</ele>
        <time>2000-01-01T03:01:34.000Z</time>
      </trkpt>
      <trkpt lat="46.25081" lon="6.81514">
        <ele>1158</ele>
        <time>2000-01-01T03:01:44.000Z</time>
      </trkpt>
      <trkpt lat="46.25072" lon="6.81479">
        <ele>1161</ele>
        <time>2000-01-01T03:01:54.000Z</time>
      </trkpt>
      <trkpt lat="46.25061" lon="6.81437">
        <ele>1166</ele>
        <time>2000-01-01T03:02:04.000Z</time>
      </trkpt>
      <trkpt lat="46.25042" lon="6.81405">
        <ele>1167</ele>
        <time>2000-01-01T03:02:14.000Z</time>
      </trkpt>
      <trkpt lat="46.25036" lon="6.81379">
        <ele>1169</ele>
        <time>2000-01-01T03:02:24.000Z</time>
      </trkpt>
      <trkpt lat="46.25025" lon="6.81355">
        <ele>1168</ele>
        <time>2000-01-01T03:02:34.000Z</time>
      </trkpt>
      <trkpt lat="46.25025" lon="6.81307">
        <ele>1168</ele>
        <time>2000-01-01T03:02:44.000Z</time>
      </trkpt>
      <trkpt lat="46.25019" lon="6.81252">
        <ele>1164</ele>
        <time>2000-01-01T03:02:54.000Z</time>
      </trkpt>
      <trkpt lat="46.25025" lon="6.81198">
        <ele>1158</ele>
        <time>2000-01-01T03:03:04.000Z</time>
      </trkpt>
      <trkpt lat="46.2502" lon="6.81177">
        <ele>1156</ele>
        <time>2000-01-01T03:03:14.000Z</time>
      </trkpt>
      <trkpt lat="46.25012" lon="6.81161">
        <ele>1158</ele>
        <time>2000-01-01T03:03:24.000Z</time>
      </trkpt>
      <trkpt lat="46.25007" lon="6.81143">
        <ele>1156.4</ele>
        <time>2000-01-01T03:03:34.000Z</time>
      </trkpt>
      <trkpt lat="46.25007" lon="6.81104">
        <ele>1159</ele>
        <time>2000-01-01T03:03:44.000Z</time>
      </trkpt>
      <trkpt lat="46.24996" lon="6.81072">
        <ele>1159</ele>
        <time>2000-01-01T03:03:54.000Z</time>
      </trkpt>
      <trkpt lat="46.24982" lon="6.81035">
        <ele>1160</ele>
        <time>2000-01-01T03:04:04.000Z</time>
      </trkpt>
      <trkpt lat="46.24986" lon="6.81016">
        <ele>1159.9</ele>
        <time>2000-01-01T03:04:14.000Z</time>
      </trkpt>
      <trkpt lat="46.24973" lon="6.80996">
        <ele>1160</ele>
        <time>2000-01-01T03:04:24.000Z</time>
      </trkpt>
      <trkpt lat="46.24966" lon="6.80996">
        <ele>1161</ele>
        <time>2000-01-01T03:04:34.000Z</time>
      </trkpt>
      <trkpt lat="46.24945" lon="6.80986">
        <ele>1160</ele>
        <time>2000-01-01T03:04:44.000Z</time>
      </trkpt>
      <trkpt lat="46.24921" lon="6.80966">
        <ele>1162</ele>
        <time>2000-01-01T03:04:54.000Z</time>
      </trkpt>
      <trkpt lat="46.24887" lon="6.80938">
        <ele>1167</ele>
        <time>2000-01-01T03:05:04.000Z</time>
      </trkpt>
      <trkpt lat="46.24863" lon="6.80921">
        <ele>1169</ele>
        <time>2000-01-01T03:05:14.000Z</time>
      </trkpt>
      <trkpt lat="46.24833" lon="6.80899">
        <ele>1174</ele>
        <time>2000-01-01T03:05:24.000Z</time>
      </trkpt>
      <trkpt lat="46.24806" lon="6.80873">
        <ele>1180</ele>
        <time>2000-01-01T03:05:34.000Z</time>
      </trkpt>
      <trkpt lat="46.24783" lon="6.80842">
        <ele>1183</ele>
        <time>2000-01-01T03:05:44.000Z</time>
      </trkpt>
      <trkpt lat="46.24778" lon="6.8084">
        <ele>1183.2</ele>
        <time>2000-01-01T03:05:54.000Z</time>
      </trkpt>
      <trkpt lat="46.24775" lon="6.80845">
        <ele>1184.4</ele>
        <time>2000-01-01T03:06:04.000Z</time>
      </trkpt>
      <trkpt lat="46.2468" lon="6.8068">
        <ele>1192</ele>
        <time>2000-01-01T03:06:14.000Z</time>
      </trkpt>
      <trkpt lat="46.24662" lon="6.80658">
        <ele>1192</ele>
        <time>2000-01-01T03:06:24.000Z</time>
      </trkpt>
      <trkpt lat="46.24642" lon="6.80635">
        <ele>1194</ele>
        <time>2000-01-01T03:06:34.000Z</time>
      </trkpt>
      <trkpt lat="46.2462" lon="6.80586">
        <ele>1199</ele>
        <time>2000-01-01T03:06:44.000Z</time>
      </trkpt>
      <trkpt lat="46.24605" lon="6.8056">
        <ele>1201</ele>
        <time>2000-01-01T03:06:54.000Z</time>
      </trkpt>
      <trkpt lat="46.24582" lon="6.80533">
        <ele>1203</ele>
        <time>2000-01-01T03:07:04.000Z</time>
      </trkpt>
      <trkpt lat="46.24562" lon="6.8051">
        <ele>1203</ele>
        <time>2000-01-01T03:07:14.000Z</time>
      </trkpt>
      <trkpt lat="46.24539" lon="6.80483">
        <ele>1211</ele>
        <time>2000-01-01T03:07:24.000Z</time>
      </trkpt>
      <trkpt lat="46.2452" lon="6.80456">
        <ele>1215</ele>
        <time>2000-01-01T03:07:34.000Z</time>
      </trkpt>
      <trkpt lat="46.24493" lon="6.80418">
        <ele>1216</ele>
        <time>2000-01-01T03:07:44.000Z</time>
      </trkpt>
      <trkpt lat="46.24473" lon="6.80391">
        <ele>1219</ele>
        <time>2000-01-01T03:07:54.000Z</time>
      </trkpt>
      <trkpt lat="46.24442" lon="6.80352">
        <ele>1222</ele>
        <time>2000-01-01T03:08:04.000Z</time>
      </trkpt>
      <trkpt lat="46.24427" lon="6.80325">
        <ele>1223</ele>
        <time>2000-01-01T03:08:14.000Z</time>
      </trkpt>
      <trkpt lat="46.24411" lon="6.80296">
        <ele>1225</ele>
        <time>2000-01-01T03:08:24.000Z</time>
      </trkpt>
      <trkpt lat="46.24382" lon="6.80267">
        <ele>1229</ele>
        <time>2000-01-01T03:08:34.000Z</time>
      </trkpt>
      <trkpt lat="46.24353" lon="6.80238">
        <ele>1234</ele>
        <time>2000-01-01T03:08:44.000Z</time>
      </trkpt>
      <trkpt lat="46.24325" lon="6.80209">
        <ele>1237</ele>
        <time>2000-01-01T03:08:54.000Z</time>
      </trkpt>
      <trkpt lat="46.24294" lon="6.80178">
        <ele>1242</ele>
        <time>2000-01-01T03:09:04.000Z</time>
      </trkpt>
      <trkpt lat="46.24267" lon="6.80155">
        <ele>1246</ele>
        <time>2000-01-01T03:09:14.000Z</time>
      </trkpt>
      <trkpt lat="46.24248" lon="6.80131">
        <ele>1248</ele>
        <time>2000-01-01T03:09:24.000Z</time>
      </trkpt>
      <trkpt lat="46.24227" lon="6.80103">
        <ele>1251</ele>
        <time>2000-01-01T03:09:34.000Z</time>
      </trkpt>
      <trkpt lat="46.24197" lon="6.8007">
        <ele>1252</ele>
        <time>2000-01-01T03:09:44.000Z</time>
      </trkpt>
      <trkpt lat="46.24182" lon="6.80035">
        <ele>1251</ele>
        <time>2000-01-01T03:09:54.000Z</time>
      </trkpt>
      <trkpt lat="46.24159" lon="6.79982">
        <ele>1250</ele>
        <time>2000-01-01T03:10:04.000Z</time>
      </trkpt>
      <trkpt lat="46.2415" lon="6.79948">
        <ele>1245</ele>
        <time>2000-01-01T03:10:14.000Z</time>
      </trkpt>
      <trkpt lat="46.24139" lon="6.79907">
        <ele>1238</ele>
        <time>2000-01-01T03:10:24.000Z</time>
      </trkpt>
      <trkpt lat="46.24129" lon="6.79867">
        <ele>1235</ele>
        <time>2000-01-01T03:10:34.000Z</time>
      </trkpt>
      <trkpt lat="46.24109" lon="6.79814">
        <ele>1233</ele>
        <time>2000-01-01T03:10:44.000Z</time>
      </trkpt>
      <trkpt lat="46.24105" lon="6.79779">
        <ele>1230</ele>
        <time>2000-01-01T03:10:54.000Z</time>
      </trkpt>
      <trkpt lat="46.24101" lon="6.7974">
        <ele>1231</ele>
        <time>2000-01-01T03:11:04.000Z</time>
      </trkpt>
      <trkpt lat="46.24072" lon="6.79696">
        <ele>1232</ele>
        <time>2000-01-01T03:11:14.000Z</time>
      </trkpt>
      <trkpt lat="46.24067" lon="6.79682">
        <ele>1235.9</ele>
        <time>2000-01-01T03:11:24.000Z</time>
      </trkpt>
      <trkpt lat="46.24059" lon="6.79645">
        <ele>1234</ele>
        <time>2000-01-01T03:11:34.000Z</time>
      </trkpt>
      <trkpt lat="46.24045" lon="6.79624">
        <ele>1236</ele>
        <time>2000-01-01T03:11:44.000Z</time>
      </trkpt>
      <trkpt lat="46.2402" lon="6.79607">
        <ele>1244</ele>
        <time>2000-01-01T03:11:54.000Z</time>
      </trkpt>
      <trkpt lat="46.24015" lon="6.79598">
        <ele>1244.8</ele>
        <time>2000-01-01T03:12:04.000Z</time>
      </trkpt>
      <trkpt lat="46.23996" lon="6.79549">
        <ele>1248</ele>
        <time>2000-01-01T03:12:14.000Z</time>
      </trkpt>
      <trkpt lat="46.23991" lon="6.79503">
        <ele>1250</ele>
        <time>2000-01-01T03:12:24.000Z</time>
      </trkpt>
      <trkpt lat="46.23977" lon="6.79472">
        <ele>1256</ele>
        <time>2000-01-01T03:12:34.000Z</time>
      </trkpt>
      <trkpt lat="46.23961" lon="6.79435">
        <ele>1256</ele>
        <time>2000-01-01T03:12:44.000Z</time>
      </trkpt>
      <trkpt lat="46.23937" lon="6.79412">
        <ele>1256</ele>
        <time>2000-01-01T03:12:54.000Z</time>
      </trkpt>
      <trkpt lat="46.23915" lon="6.7938">
        <ele>1257</ele>
        <time>2000-01-01T03:13:04.000Z</time>
      </trkpt>
      <trkpt lat="46.2388" lon="6.79372">
        <ele>1261</ele>
        <time>2000-01-01T03:13:14.000Z</time>
      </trkpt>
      <trkpt lat="46.23852" lon="6.79367">
        <ele>1262</ele>
        <time>2000-01-01T03:13:24.000Z</time>
      </trkpt>
      <trkpt lat="46.23836" lon="6.79363">
        <ele>1262.9</ele>
        <time>2000-01-01T03:13:34.000Z</time>
      </trkpt>
      <trkpt lat="46.23815" lon="6.79345">
        <ele>1261</ele>
        <time>2000-01-01T03:13:44.000Z</time>
      </trkpt>
      <trkpt lat="46.23808" lon="6.79335">
        <ele>1263.8</ele>
        <time>2000-01-01T03:13:54.000Z</time>
      </trkpt>
      <trkpt lat="46.23797" lon="6.79303">
        <ele>1261</ele>
        <time>2000-01-01T03:14:04.000Z</time>
      </trkpt>
      <trkpt lat="46.23791" lon="6.79289">
        <ele>1262.3</ele>
        <time>2000-01-01T03:14:14.000Z</time>
      </trkpt>
      <trkpt lat="46.2378" lon="6.79278">
        <ele>1262</ele>
        <time>2000-01-01T03:14:24.000Z</time>
      </trkpt>
      <trkpt lat="46.23739" lon="6.79275">
        <ele>1267</ele>
        <time>2000-01-01T03:14:34.000Z</time>
      </trkpt>
      <trkpt lat="46.23724" lon="6.79259">
        <ele>1267.7</ele>
        <time>2000-01-01T03:14:44.000Z</time>
      </trkpt>
      <trkpt lat="46.23692" lon="6.79246">
        <ele>1268</ele>
        <time>2000-01-01T03:14:54.000Z</time>
      </trkpt>
      <trkpt lat="46.23661" lon="6.79233">
        <ele>1271</ele>
        <time>2000-01-01T03:15:04.000Z</time>
      </trkpt>
      <trkpt lat="46.23617" lon="6.79215">
        <ele>1274</ele>
        <time>2000-01-01T03:15:14.000Z</time>
      </trkpt>
      <trkpt lat="46.23607" lon="6.79205">
        <ele>1275.4</ele>
        <time>2000-01-01T03:15:24.000Z</time>
      </trkpt>
      <trkpt lat="46.23601" lon="6.79194">
        <ele>1275</ele>
        <time>2000-01-01T03:15:34.000Z</time>
      </trkpt>
      <trkpt lat="46.23595" lon="6.79187">
        <ele>1275.5</ele>
        <time>2000-01-01T03:15:44.000Z</time>
      </trkpt>
      <trkpt lat="46.23576" lon="6.7918">
        <ele>1278</ele>
        <time>2000-01-01T03:15:54.000Z</time>
      </trkpt>
      <trkpt lat="46.23566" lon="6.79172">
        <ele>1278.8</ele>
        <time>2000-01-01T03:16:04.000Z</time>
      </trkpt>
      <trkpt lat="46.2354" lon="6.79139">
        <ele>1278</ele>
        <time>2000-01-01T03:16:14.000Z</time>
      </trkpt>
      <trkpt lat="46.23535" lon="6.7913">
        <ele>1279.5</ele>
        <time>2000-01-01T03:16:24.000Z</time>
      </trkpt>
      <trkpt lat="46.23529" lon="6.79109">
        <ele>1278</ele>
        <time>2000-01-01T03:16:34.000Z</time>
      </trkpt>
      <trkpt lat="46.23495" lon="6.79118">
        <ele>1280</ele>
        <time>2000-01-01T03:16:44.000Z</time>
      </trkpt>
      <trkpt lat="46.23467" lon="6.79107">
        <ele>1282</ele>
        <time>2000-01-01T03:16:54.000Z</time>
      </trkpt>
      <trkpt lat="46.23424" lon="6.79091">
        <ele>1284</ele>
        <time>2000-01-01T03:17:04.000Z</time>
      </trkpt>
      <trkpt lat="46.23414" lon="6.79084">
        <ele>1285.2</ele>
        <time>2000-01-01T03:17:14.000Z</time>
      </trkpt>
      <trkpt lat="46.23377" lon="6.79043">
        <ele>1288</ele>
        <time>2000-01-01T03:17:24.000Z</time>
      </trkpt>
      <trkpt lat="46.23351" lon="6.79029">
        <ele>1289</ele>
        <time>2000-01-01T03:17:34.000Z</time>
      </trkpt>
      <trkpt lat="46.23314" lon="6.7901">
        <ele>1292</ele>
        <time>2000-01-01T03:17:44.000Z</time>
      </trkpt>
      <trkpt lat="46.23289" lon="6.78995">
        <ele>1294</ele>
        <time>2000-01-01T03:17:54.000Z</time>
      </trkpt>
      <trkpt lat="46.23253" lon="6.78974">
        <ele>1296</ele>
        <time>2000-01-01T03:18:04.000Z</time>
      </trkpt>
      <trkpt lat="46.23227" lon="6.78956">
        <ele>1299</ele>
        <time>2000-01-01T03:18:14.000Z</time>
      </trkpt>
      <trkpt lat="46.23186" lon="6.78926">
        <ele>1299</ele>
        <time>2000-01-01T03:18:24.000Z</time>
      </trkpt>
      <trkpt lat="46.23156" lon="6.7889">
        <ele>1299</ele>
        <time>2000-01-01T03:18:34.000Z</time>
      </trkpt>
      <trkpt lat="46.23135" lon="6.78867">
        <ele>1302</ele>
        <time>2000-01-01T03:18:44.000Z</time>
      </trkpt>
      <trkpt lat="46.23107" lon="6.78837">
        <ele>1307</ele>
        <time>2000-01-01T03:18:54.000Z</time>
      </trkpt>
      <trkpt lat="46.23089" lon="6.78823">
        <ele>1312</ele>
        <time>2000-01-01T03:19:04.000Z</time>
      </trkpt>
      <trkpt lat="46.23065" lon="6.78817">
        <ele>1315</ele>
        <time>2000-01-01T03:19:14.000Z</time>
      </trkpt>
      <trkpt lat="46.23043" lon="6.78799">
        <ele>1318</ele>
        <time>2000-01-01T03:19:24.000Z</time>
      </trkpt>
      <trkpt lat="46.2303" lon="6.78793">
        <ele>1321.1</ele>
        <time>2000-01-01T03:19:34.000Z</time>
      </trkpt>
      <trkpt lat="46.23001" lon="6.78794">
        <ele>1327</ele>
        <time>2000-01-01T03:19:44.000Z</time>
      </trkpt>
      <trkpt lat="46.22995" lon="6.78797">
        <ele>1330.3</ele>
        <time>2000-01-01T03:19:54.000Z</time>
      </trkpt>
      <trkpt lat="46.22991" lon="6.78804">
        <ele>1332.1</ele>
        <time>2000-01-01T03:20:04.000Z</time>
      </trkpt>
      <trkpt lat="46.22992" lon="6.78814">
        <ele>1328</ele>
        <time>2000-01-01T03:20:14.000Z</time>
      </trkpt>
      <trkpt lat="46.22998" lon="6.7882">
        <ele>1333.7</ele>
        <time>2000-01-01T03:20:24.000Z</time>
      </trkpt>
      <trkpt lat="46.2302" lon="6.78824">
        <ele>1330</ele>
        <time>2000-01-01T03:20:34.000Z</time>
      </trkpt>
      <trkpt lat="46.23024" lon="6.78828">
        <ele>1328.1</ele>
        <time>2000-01-01T03:20:44.000Z</time>
      </trkpt>
      <trkpt lat="46.23025" lon="6.78836">
        <ele>1329.4</ele>
        <time>2000-01-01T03:20:54.000Z</time>
      </trkpt>
      <trkpt lat="46.23021" lon="6.78869">
        <ele>1336</ele>
        <time>2000-01-01T03:21:04.000Z</time>
      </trkpt>
      <trkpt lat="46.23026" lon="6.78909">
        <ele>1343</ele>
        <time>2000-01-01T03:21:14.000Z</time>
      </trkpt>
      <trkpt lat="46.23024" lon="6.78939">
        <ele>1344</ele>
        <time>2000-01-01T03:21:24.000Z</time>
      </trkpt>
      <trkpt lat="46.23026" lon="6.78959">
        <ele>1343.4</ele>
        <time>2000-01-01T03:21:34.000Z</time>
      </trkpt>
      <trkpt lat="46.23036" lon="6.79">
        <ele>1345</ele>
        <time>2000-01-01T03:21:44.000Z</time>
      </trkpt>
      <trkpt lat="46.23046" lon="6.79019">
        <ele>1348.4</ele>
        <time>2000-01-01T03:21:54.000Z</time>
      </trkpt>
      <trkpt lat="46.2306" lon="6.79039">
        <ele>1348</ele>
        <time>2000-01-01T03:22:04.000Z</time>
      </trkpt>
      <trkpt lat="46.2306" lon="6.79047">
        <ele>1347.9</ele>
        <time>2000-01-01T03:22:14.000Z</time>
      </trkpt>
      <trkpt lat="46.23056" lon="6.79053">
        <ele>1349.7</ele>
        <time>2000-01-01T03:22:24.000Z</time>
      </trkpt>
      <trkpt lat="46.23048" lon="6.7905">
        <ele>1351</ele>
        <time>2000-01-01T03:22:34.000Z</time>
      </trkpt>
      <trkpt lat="46.23035" lon="6.79026">
        <ele>1353</ele>
        <time>2000-01-01T03:22:44.000Z</time>
      </trkpt>
      <trkpt lat="46.23014" lon="6.78998">
        <ele>1355</ele>
        <time>2000-01-01T03:22:54.000Z</time>
      </trkpt>
      <trkpt lat="46.22993" lon="6.78947">
        <ele>1358</ele>
        <time>2000-01-01T03:23:04.000Z</time>
      </trkpt>
      <trkpt lat="46.22975" lon="6.78913">
        <ele>1362</ele>
        <time>2000-01-01T03:23:14.000Z</time>
      </trkpt>
      <trkpt lat="46.22947" lon="6.78887">
        <ele>1365</ele>
        <time>2000-01-01T03:23:24.000Z</time>
      </trkpt>
      <trkpt lat="46.22937" lon="6.78889">
        <ele>1368.6</ele>
        <time>2000-01-01T03:23:34.000Z</time>
      </trkpt>
      <trkpt lat="46.22936" lon="6.78901">
        <ele>1371.1</ele>
        <time>2000-01-01T03:23:44.000Z</time>
      </trkpt>
      <trkpt lat="46.22954" lon="6.78917">
        <ele>1369</ele>
        <time>2000-01-01T03:23:54.000Z</time>
      </trkpt>
      <trkpt lat="46.22962" lon="6.78936">
        <ele>1368.4</ele>
        <time>2000-01-01T03:24:04.000Z</time>
      </trkpt>
      <trkpt lat="46.22962" lon="6.78949">
        <ele>1370</ele>
        <time>2000-01-01T03:24:14.000Z</time>
      </trkpt>
      <trkpt lat="46.22958" lon="6.78979">
        <ele>1375</ele>
        <time>2000-01-01T03:24:24.000Z</time>
      </trkpt>
      <trkpt lat="46.22966" lon="6.79015">
        <ele>1376</ele>
        <time>2000-01-01T03:24:34.000Z</time>
      </trkpt>
      <trkpt lat="46.22958" lon="6.79036">
        <ele>1380</ele>
        <time>2000-01-01T03:24:44.000Z</time>
      </trkpt>
      <trkpt lat="46.22958" lon="6.79053">
        <ele>1382</ele>
        <time>2000-01-01T03:24:54.000Z</time>
      </trkpt>
      <trkpt lat="46.22967" lon="6.79068">
        <ele>1383.3</ele>
        <time>2000-01-01T03:25:04.000Z</time>
      </trkpt>
      <trkpt lat="46.22989" lon="6.79084">
        <ele>1383</ele>
        <time>2000-01-01T03:25:14.000Z</time>
      </trkpt>
      <trkpt lat="46.22992" lon="6.79095">
        <ele>1385.6</ele>
        <time>2000-01-01T03:25:24.000Z</time>
      </trkpt>
      <trkpt lat="46.22988" lon="6.79102">
        <ele>1388</ele>
        <time>2000-01-01T03:25:34.000Z</time>
      </trkpt>
      <trkpt lat="46.22981" lon="6.79101">
        <ele>1385</ele>
        <time>2000-01-01T03:25:44.000Z</time>
      </trkpt>
      <trkpt lat="46.22966" lon="6.79083">
        <ele>1388</ele>
        <time>2000-01-01T03:25:54.000Z</time>
      </trkpt>
      <trkpt lat="46.22928" lon="6.79072">
        <ele>1392</ele>
        <time>2000-01-01T03:26:04.000Z</time>
      </trkpt>
      <trkpt lat="46.22915" lon="6.79066">
        <ele>1394.6</ele>
        <time>2000-01-01T03:26:14.000Z</time>
      </trkpt>
      <trkpt lat="46.22903" lon="6.79054">
        <ele>1398</ele>
        <time>2000-01-01T03:26:24.000Z</time>
      </trkpt>
      <trkpt lat="46.22883" lon="6.79028">
        <ele>1401</ele>
        <time>2000-01-01T03:26:34.000Z</time>
      </trkpt>
      <trkpt lat="46.22855" lon="6.78992">
        <ele>1405</ele>
        <time>2000-01-01T03:26:44.000Z</time>
      </trkpt>
      <trkpt lat="46.22841" lon="6.78981">
        <ele>1406.2</ele>
        <time>2000-01-01T03:26:54.000Z</time>
      </trkpt>
      <trkpt lat="46.22818" lon="6.78968">
        <ele>1406</ele>
        <time>2000-01-01T03:27:04.000Z</time>
      </trkpt>
      <trkpt lat="46.22792" lon="6.78945">
        <ele>1407</ele>
        <time>2000-01-01T03:27:14.000Z</time>
      </trkpt>
      <trkpt lat="46.22786" lon="6.7895">
        <ele>1410.5</ele>
        <time>2000-01-01T03:27:24.000Z</time>
      </trkpt>
      <trkpt lat="46.22785" lon="6.78961">
        <ele>1414</ele>
        <time>2000-01-01T03:27:34.000Z</time>
      </trkpt>
      <trkpt lat="46.22803" lon="6.78981">
        <ele>1415</ele>
        <time>2000-01-01T03:27:44.000Z</time>
      </trkpt>
      <trkpt lat="46.22817" lon="6.79021">
        <ele>1418</ele>
        <time>2000-01-01T03:27:54.000Z</time>
      </trkpt>
      <trkpt lat="46.22827" lon="6.79041">
        <ele>1426.8</ele>
        <time>2000-01-01T03:28:04.000Z</time>
      </trkpt>
      <trkpt lat="46.22861" lon="6.79085">
        <ele>1421</ele>
        <time>2000-01-01T03:28:14.000Z</time>
      </trkpt>
      <trkpt lat="46.22863" lon="6.79097">
        <ele>1420.6</ele>
        <time>2000-01-01T03:28:24.000Z</time>
      </trkpt>
      <trkpt lat="46.22859" lon="6.79103">
        <ele>1422.3</ele>
        <time>2000-01-01T03:28:34.000Z</time>
      </trkpt>
      <trkpt lat="46.2285" lon="6.791">
        <ele>1428</ele>
        <time>2000-01-01T03:28:44.000Z</time>
      </trkpt>
      <trkpt lat="46.22841" lon="6.79085">
        <ele>1428.2</ele>
        <time>2000-01-01T03:28:54.000Z</time>
      </trkpt>
      <trkpt lat="46.22821" lon="6.79069">
        <ele>1433</ele>
        <time>2000-01-01T03:29:04.000Z</time>
      </trkpt>
      <trkpt lat="46.22803" lon="6.79061">
        <ele>1439</ele>
        <time>2000-01-01T03:29:14.000Z</time>
      </trkpt>
      <trkpt lat="46.22784" lon="6.79058">
        <ele>1442</ele>
        <time>2000-01-01T03:29:24.000Z</time>
      </trkpt>
      <trkpt lat="46.22754" lon="6.79058">
        <ele>1447</ele>
        <time>2000-01-01T03:29:34.000Z</time>
      </trkpt>
      <trkpt lat="46.2273" lon="6.79058">
        <ele>1449</ele>
        <time>2000-01-01T03:29:44.000Z</time>
      </trkpt>
      <trkpt lat="46.22702" lon="6.79058">
        <ele>1449</ele>
        <time>2000-01-01T03:29:54.000Z</time>
      </trkpt>
      <trkpt lat="46.22686" lon="6.79063">
        <ele>1450.5</ele>
        <time>2000-01-01T03:30:04.000Z</time>
      </trkpt>
      <trkpt lat="46.22643" lon="6.79085">
        <ele>1451</ele>
        <time>2000-01-01T03:30:14.000Z</time>
      </trkpt>
      <trkpt lat="46.22619" lon="6.79096">
        <ele>1451</ele>
        <time>2000-01-01T03:30:24.000Z</time>
      </trkpt>
      <trkpt lat="46.22579" lon="6.79126">
        <ele>1455</ele>
        <time>2000-01-01T03:30:34.000Z</time>
      </trkpt>
      <trkpt lat="46.22552" lon="6.79149">
        <ele>1460</ele>
        <time>2000-01-01T03:30:44.000Z</time>
      </trkpt>
      <trkpt lat="46.2253" lon="6.79168">
        <ele>1462</ele>
        <time>2000-01-01T03:30:54.000Z</time>
      </trkpt>
      <trkpt lat="46.225" lon="6.79194">
        <ele>1467</ele>
        <time>2000-01-01T03:31:04.000Z</time>
      </trkpt>
      <trkpt lat="46.22476" lon="6.79213">
        <ele>1471</ele>
        <time>2000-01-01T03:31:14.000Z</time>
      </trkpt>
      <trkpt lat="46.2244" lon="6.79242">
        <ele>1474</ele>
        <time>2000-01-01T03:31:24.000Z</time>
      </trkpt>
      <trkpt lat="46.22415" lon="6.79255">
        <ele>1474</ele>
        <time>2000-01-01T03:31:34.000Z</time>
      </trkpt>
      <trkpt lat="46.22383" lon="6.79273">
        <ele>1479</ele>
        <time>2000-01-01T03:31:44.000Z</time>
      </trkpt>
      <trkpt lat="46.22359" lon="6.7928">
        <ele>1480</ele>
        <time>2000-01-01T03:31:54.000Z</time>
      </trkpt>
      <trkpt lat="46.22331" lon="6.79288">
        <ele>1483</ele>
        <time>2000-01-01T03:32:04.000Z</time>
      </trkpt>
      <trkpt lat="46.22305" lon="6.793">
        <ele>1488</ele>
        <time>2000-01-01T03:32:14.000Z</time>
      </trkpt>
      <trkpt lat="46.22269" lon="6.79318">
        <ele>1494</ele>
        <time>2000-01-01T03:32:24.000Z</time>
      </trkpt>
      <trkpt lat="46.22244" lon="6.79323">
        <ele>1498</ele>
        <time>2000-01-01T03:32:34.000Z</time>
      </trkpt>
      <trkpt lat="46.22217" lon="6.79328">
        <ele>1499</ele>
        <time>2000-01-01T03:32:44.000Z</time>
      </trkpt>
      <trkpt lat="46.222" lon="6.79337">
        <ele>1503.8</ele>
        <time>2000-01-01T03:32:54.000Z</time>
      </trkpt>
      <trkpt lat="46.2218" lon="6.79341">
        <ele>1505</ele>
        <time>2000-01-01T03:33:04.000Z</time>
      </trkpt>
      <trkpt lat="46.22165" lon="6.79339">
        <ele>1505.4</ele>
        <time>2000-01-01T03:33:14.000Z</time>
      </trkpt>
      <trkpt lat="46.22139" lon="6.79323">
        <ele>1506</ele>
        <time>2000-01-01T03:33:24.000Z</time>
      </trkpt>
      <trkpt lat="46.22132" lon="6.79325">
        <ele>1507</ele>
        <time>2000-01-01T03:33:34.000Z</time>
      </trkpt>
      <trkpt lat="46.2213" lon="6.79329">
        <ele>1507.6</ele>
        <time>2000-01-01T03:33:44.000Z</time>
      </trkpt>
      <trkpt lat="46.22129" lon="6.79339">
        <ele>1509</ele>
        <time>2000-01-01T03:33:54.000Z</time>
      </trkpt>
      <trkpt lat="46.22136" lon="6.79349">
        <ele>1508</ele>
        <time>2000-01-01T03:34:04.000Z</time>
      </trkpt>
      <trkpt lat="46.22165" lon="6.7937">
        <ele>1510</ele>
        <time>2000-01-01T03:34:14.000Z</time>
      </trkpt>
      <trkpt lat="46.22181" lon="6.79376">
        <ele>1515.4</ele>
        <time>2000-01-01T03:34:24.000Z</time>
      </trkpt>
      <trkpt lat="46.22228" lon="6.79378">
        <ele>1514</ele>
        <time>2000-01-01T03:34:34.000Z</time>
      </trkpt>
      <trkpt lat="46.22255" lon="6.79382">
        <ele>1521</ele>
        <time>2000-01-01T03:34:44.000Z</time>
      </trkpt>
      <trkpt lat="46.2229" lon="6.79386">
        <ele>1522</ele>
        <time>2000-01-01T03:34:54.000Z</time>
      </trkpt>
      <trkpt lat="46.22319" lon="6.79384">
        <ele>1525</ele>
        <time>2000-01-01T03:35:04.000Z</time>
      </trkpt>
      <trkpt lat="46.22344" lon="6.79382">
        <ele>1524</ele>
        <time>2000-01-01T03:35:14.000Z</time>
      </trkpt>
      <trkpt lat="46.2237" lon="6.7938">
        <ele>1526</ele>
        <time>2000-01-01T03:35:24.000Z</time>
      </trkpt>
      <trkpt lat="46.22394" lon="6.79376">
        <ele>1528</ele>
        <time>2000-01-01T03:35:34.000Z</time>
      </trkpt>
      <trkpt lat="46.22422" lon="6.79371">
        <ele>1533</ele>
        <time>2000-01-01T03:35:44.000Z</time>
      </trkpt>
      <trkpt lat="46.22446" lon="6.79373">
        <ele>1535</ele>
        <time>2000-01-01T03:35:54.000Z</time>
      </trkpt>
      <trkpt lat="46.22473" lon="6.79376">
        <ele>1538</ele>
        <time>2000-01-01T03:36:04.000Z</time>
      </trkpt>
      <trkpt lat="46.22503" lon="6.79375">
        <ele>1541</ele>
        <time>2000-01-01T03:36:14.000Z</time>
      </trkpt>
      <trkpt lat="46.22529" lon="6.79375">
        <ele>1543</ele>
        <time>2000-01-01T03:36:24.000Z</time>
      </trkpt>
      <trkpt lat="46.22561" lon="6.79374">
        <ele>1548</ele>
        <time>2000-01-01T03:36:34.000Z</time>
      </trkpt>
      <trkpt lat="46.22584" lon="6.79381">
        <ele>1552</ele>
        <time>2000-01-01T03:36:44.000Z</time>
      </trkpt>
      <trkpt lat="46.22607" lon="6.79388">
        <ele>1553</ele>
        <time>2000-01-01T03:36:54.000Z</time>
      </trkpt>
      <trkpt lat="46.22634" lon="6.79399">
        <ele>1555</ele>
        <time>2000-01-01T03:37:04.000Z</time>
      </trkpt>
      <trkpt lat="46.22644" lon="6.7941">
        <ele>1555.6</ele>
        <time>2000-01-01T03:37:14.000Z</time>
      </trkpt>
      <trkpt lat="46.22645" lon="6.79421">
        <ele>1558</ele>
        <time>2000-01-01T03:37:24.000Z</time>
      </trkpt>
      <trkpt lat="46.22642" lon="6.79427">
        <ele>1559.2</ele>
        <time>2000-01-01T03:37:34.000Z</time>
      </trkpt>
      <trkpt lat="46.22634" lon="6.7943">
        <ele>1561.4</ele>
        <time>2000-01-01T03:37:44.000Z</time>
      </trkpt>
      <trkpt lat="46.22607" lon="6.79416">
        <ele>1562</ele>
        <time>2000-01-01T03:37:54.000Z</time>
      </trkpt>
      <trkpt lat="46.22595" lon="6.79414">
        <ele>1562.4</ele>
        <time>2000-01-01T03:38:04.000Z</time>
      </trkpt>
      <trkpt lat="46.22518" lon="6.79423">
        <ele>1564</ele>
        <time>2000-01-01T03:38:14.000Z</time>
      </trkpt>
      <trkpt lat="46.22474" lon="6.79445">
        <ele>1570</ele>
        <time>2000-01-01T03:38:24.000Z</time>
      </trkpt>
      <trkpt lat="46.22444" lon="6.79446">
        <ele>1571</ele>
        <time>2000-01-01T03:38:34.000Z</time>
      </trkpt>
      <trkpt lat="46.22426" lon="6.7945">
        <ele>1576.1</ele>
        <time>2000-01-01T03:38:44.000Z</time>
      </trkpt>
      <trkpt lat="46.22345" lon="6.79487">
        <ele>1577</ele>
        <time>2000-01-01T03:38:54.000Z</time>
      </trkpt>
      <trkpt lat="46.22307" lon="6.7949">
        <ele>1583</ele>
        <time>2000-01-01T03:39:04.000Z</time>
      </trkpt>
      <trkpt lat="46.2228" lon="6.79498">
        <ele>1584</ele>
        <time>2000-01-01T03:39:14.000Z</time>
      </trkpt>
      <trkpt lat="46.22257" lon="6.79509">
        <ele>1587</ele>
        <time>2000-01-01T03:39:24.000Z</time>
      </trkpt>
      <trkpt lat="46.22233" lon="6.79521">
        <ele>1590</ele>
        <time>2000-01-01T03:39:34.000Z</time>
      </trkpt>
      <trkpt lat="46.22198" lon="6.79531">
        <ele>1593</ele>
        <time>2000-01-01T03:39:44.000Z</time>
      </trkpt>
      <trkpt lat="46.22159" lon="6.79554">
        <ele>1599</ele>
        <time>2000-01-01T03:39:54.000Z</time>
      </trkpt>
      <trkpt lat="46.22116" lon="6.79572">
        <ele>1604</ele>
        <time>2000-01-01T03:40:04.000Z</time>
      </trkpt>
      <trkpt lat="46.22075" lon="6.79581">
        <ele>1604</ele>
        <time>2000-01-01T03:40:14.000Z</time>
      </trkpt>
      <trkpt lat="46.2203" lon="6.79597">
        <ele>1609</ele>
        <time>2000-01-01T03:40:24.000Z</time>
      </trkpt>
      <trkpt lat="46.22008" lon="6.796">
        <ele>1610</ele>
        <time>2000-01-01T03:40:34.000Z</time>
      </trkpt>
      <trkpt lat="46.21988" lon="6.79598">
        <ele>1611</ele>
        <time>2000-01-01T03:40:44.000Z</time>
      </trkpt>
      <trkpt lat="46.21965" lon="6.79589">
        <ele>1612</ele>
        <time>2000-01-01T03:40:54.000Z</time>
      </trkpt>
      <trkpt lat="46.2194" lon="6.7958">
        <ele>1615</ele>
        <time>2000-01-01T03:41:04.000Z</time>
      </trkpt>
      <trkpt lat="46.21915" lon="6.79573">
        <ele>1619</ele>
        <time>2000-01-01T03:41:14.000Z</time>
      </trkpt>
      <trkpt lat="46.21897" lon="6.79566">
        <ele>1621.5</ele>
        <time>2000-01-01T03:41:24.000Z</time>
      </trkpt>
      <trkpt lat="46.21875" lon="6.79551">
        <ele>1624</ele>
        <time>2000-01-01T03:41:34.000Z</time>
      </trkpt>
      <trkpt lat="46.21863" lon="6.79533">
        <ele>1626.5</ele>
        <time>2000-01-01T03:41:44.000Z</time>
      </trkpt>
      <trkpt lat="46.21847" lon="6.79467">
        <ele>1631</ele>
        <time>2000-01-01T03:41:54.000Z</time>
      </trkpt>
      <trkpt lat="46.21825" lon="6.79414">
        <ele>1633</ele>
        <time>2000-01-01T03:42:04.000Z</time>
      </trkpt>
      <trkpt lat="46.21813" lon="6.79382">
        <ele>1634</ele>
        <time>2000-01-01T03:42:14.000Z</time>
      </trkpt>
      <trkpt lat="46.218" lon="6.79347">
        <ele>1635</ele>
        <time>2000-01-01T03:42:24.000Z</time>
      </trkpt>
      <trkpt lat="46.21779" lon="6.79319">
        <ele>1637</ele>
        <time>2000-01-01T03:42:34.000Z</time>
      </trkpt>
      <trkpt lat="46.2177" lon="6.79334">
        <ele>1637.3</ele>
        <time>2000-01-01T03:42:44.000Z</time>
      </trkpt>
      <trkpt lat="46.21767" lon="6.79345">
        <ele>1637</ele>
        <time>2000-01-01T03:42:54.000Z</time>
      </trkpt>
      <trkpt lat="46.21763" lon="6.79377">
        <ele>1639</ele>
        <time>2000-01-01T03:43:04.000Z</time>
      </trkpt>
      <trkpt lat="46.21763" lon="6.79408">
        <ele>1641</ele>
        <time>2000-01-01T03:43:14.000Z</time>
      </trkpt>
      <trkpt lat="46.21754" lon="6.79443">
        <ele>1641</ele>
        <time>2000-01-01T03:43:24.000Z</time>
      </trkpt>
      <trkpt lat="46.21763" lon="6.79408">
        <ele>1641</ele>
        <time>2000-01-01T03:43:34.000Z</time>
      </trkpt>
      <trkpt lat="46.21763" lon="6.79377">
        <ele>1639</ele>
        <time>2000-01-01T03:43:44.000Z</time>
      </trkpt>
      <trkpt lat="46.21767" lon="6.79345">
        <ele>1637</ele>
        <time>2000-01-01T03:43:54.000Z</time>
      </trkpt>
      <trkpt lat="46.2177" lon="6.79334">
        <ele>1637.3</ele>
        <time>2000-01-01T03:44:04.000Z</time>
      </trkpt>
      <trkpt lat="46.21779" lon="6.79319">
        <ele>1637</ele>
        <time>2000-01-01T03:44:14.000Z</time>
      </trkpt>
      <trkpt lat="46.21779" lon="6.79302">
        <ele>1638.2</ele>
        <time>2000-01-01T03:44:24.000Z</time>
      </trkpt>
      <trkpt lat="46.21783" lon="6.79289">
        <ele>1640</ele>
        <time>2000-01-01T03:44:34.000Z</time>
      </trkpt>
      <trkpt lat="46.21801" lon="6.79251">
        <ele>1642</ele>
        <time>2000-01-01T03:44:44.000Z</time>
      </trkpt>
      <trkpt lat="46.21802" lon="6.79239">
        <ele>1643.6</ele>
        <time>2000-01-01T03:44:54.000Z</time>
      </trkpt>
      <trkpt lat="46.21801" lon="6.79206">
        <ele>1647</ele>
        <time>2000-01-01T03:45:04.000Z</time>
      </trkpt>
      <trkpt lat="46.21803" lon="6.79194">
        <ele>1648.4</ele>
        <time>2000-01-01T03:45:14.000Z</time>
      </trkpt>
      <trkpt lat="46.21809" lon="6.79178">
        <ele>1650</ele>
        <time>2000-01-01T03:45:24.000Z</time>
      </trkpt>
      <trkpt lat="46.21821" lon="6.79166">
        <ele>1652.4</ele>
        <time>2000-01-01T03:45:34.000Z</time>
      </trkpt>
      <trkpt lat="46.21856" lon="6.79141">
        <ele>1653</ele>
        <time>2000-01-01T03:45:44.000Z</time>
      </trkpt>
      <trkpt lat="46.21862" lon="6.79129">
        <ele>1653.9</ele>
        <time>2000-01-01T03:45:54.000Z</time>
      </trkpt>
      <trkpt lat="46.21865" lon="6.79115">
        <ele>1656</ele>
        <time>2000-01-01T03:46:04.000Z</time>
      </trkpt>
      <trkpt lat="46.21862" lon="6.79052">
        <ele>1660</ele>
        <time>2000-01-01T03:46:14.000Z</time>
      </trkpt>
      <trkpt lat="46.21866" lon="6.79005">
        <ele>1664</ele>
        <time>2000-01-01T03:46:24.000Z</time>
      </trkpt>
      <trkpt lat="46.2186" lon="6.78944">
        <ele>1667</ele>
        <time>2000-01-01T03:46:34.000Z</time>
      </trkpt>
      <trkpt lat="46.21871" lon="6.78894">
        <ele>1668</ele>
        <time>2000-01-01T03:46:44.000Z</time>
      </trkpt>
      <trkpt lat="46.21869" lon="6.78883">
        <ele>1668.5</ele>
        <time>2000-01-01T03:46:54.000Z</time>
      </trkpt>
      <trkpt lat="46.21857" lon="6.78866">
        <ele>1672</ele>
        <time>2000-01-01T03:47:04.000Z</time>
      </trkpt>
      <trkpt lat="46.21855" lon="6.78852">
        <ele>1672.7</ele>
        <time>2000-01-01T03:47:14.000Z</time>
      </trkpt>
      <trkpt lat="46.21858" lon="6.78841">
        <ele>1673</ele>
        <time>2000-01-01T03:47:24.000Z</time>
      </trkpt>
      <trkpt lat="46.21884" lon="6.78799">
        <ele>1677</ele>
        <time>2000-01-01T03:47:34.000Z</time>
      </trkpt>
      <trkpt lat="46.21895" lon="6.78764">
        <ele>1678</ele>
        <time>2000-01-01T03:47:44.000Z</time>
      </trkpt>
      <trkpt lat="46.21909" lon="6.78718">
        <ele>1679</ele>
        <time>2000-01-01T03:47:54.000Z</time>
      </trkpt>
      <trkpt lat="46.21931" lon="6.78691">
        <ele>1680</ele>
        <time>2000-01-01T03:48:04.000Z</time>
      </trkpt>
      <trkpt lat="46.2196" lon="6.78663">
        <ele>1684</ele>
        <time>2000-01-01T03:48:14.000Z</time>
      </trkpt>
      <trkpt lat="46.21987" lon="6.78638">
        <ele>1688</ele>
        <time>2000-01-01T03:48:24.000Z</time>
      </trkpt>
      <trkpt lat="46.22014" lon="6.78612">
        <ele>1688</ele>
        <time>2000-01-01T03:48:34.000Z</time>
      </trkpt>
      <trkpt lat="46.22048" lon="6.78581">
        <ele>1691</ele>
        <time>2000-01-01T03:48:44.000Z</time>
      </trkpt>
      <trkpt lat="46.22064" lon="6.78552">
        <ele>1693</ele>
        <time>2000-01-01T03:48:54.000Z</time>
      </trkpt>
      <trkpt lat="46.22081" lon="6.78493">
        <ele>1698</ele>
        <time>2000-01-01T03:49:04.000Z</time>
      </trkpt>
      <trkpt lat="46.22088" lon="6.78476">
        <ele>1698.5</ele>
        <time>2000-01-01T03:49:14.000Z</time>
      </trkpt>
      <trkpt lat="46.22131" lon="6.78416">
        <ele>1708</ele>
        <time>2000-01-01T03:49:24.000Z</time>
      </trkpt>
      <trkpt lat="46.22145" lon="6.78389">
        <ele>1710</ele>
        <time>2000-01-01T03:49:34.000Z</time>
      </trkpt>
      <trkpt lat="46.22151" lon="6.78373">
        <ele>1706.6</ele>
        <time>2000-01-01T03:49:44.000Z</time>
      </trkpt>
      <trkpt lat="46.2216" lon="6.78321">
        <ele>1712</ele>
        <time>2000-01-01T03:49:54.000Z</time>
      </trkpt>
      <trkpt lat="46.22166" lon="6.78303">
        <ele>1711</ele>
        <time>2000-01-01T03:50:04.000Z</time>
      </trkpt>
      <trkpt lat="46.22183" lon="6.78275">
        <ele>1714</ele>
        <time>2000-01-01T03:50:14.000Z</time>
      </trkpt>
      <trkpt lat="46.2221" lon="6.78249">
        <ele>1715</ele>
        <time>2000-01-01T03:50:24.000Z</time>
      </trkpt>
      <trkpt lat="46.22235" lon="6.78228">
        <ele>1716</ele>
        <time>2000-01-01T03:50:34.000Z</time>
      </trkpt>
      <trkpt lat="46.22272" lon="6.78203">
        <ele>1719</ele>
        <time>2000-01-01T03:50:44.000Z</time>
      </trkpt>
      <trkpt lat="46.22297" lon="6.78165">
        <ele>1724</ele>
        <time>2000-01-01T03:50:54.000Z</time>
      </trkpt>
      <trkpt lat="46.2233" lon="6.78127">
        <ele>1731</ele>
        <time>2000-01-01T03:51:04.000Z</time>
      </trkpt>
      <trkpt lat="46.22356" lon="6.78085">
        <ele>1733</ele>
        <time>2000-01-01T03:51:14.000Z</time>
      </trkpt>
      <trkpt lat="46.22358" lon="6.78071">
        <ele>1732.5</ele>
        <time>2000-01-01T03:51:24.000Z</time>
      </trkpt>
      <trkpt lat="46.22359" lon="6.78042">
        <ele>1733</ele>
        <time>2000-01-01T03:51:34.000Z</time>
      </trkpt>
      <trkpt lat="46.22372" lon="6.78025">
        <ele>1735.1</ele>
        <time>2000-01-01T03:51:44.000Z</time>
      </trkpt>
      <trkpt lat="46.22381" lon="6.7802">
        <ele>1731</ele>
        <time>2000-01-01T03:51:54.000Z</time>
      </trkpt>
      <trkpt lat="46.22402" lon="6.78016">
        <ele>1730</ele>
        <time>2000-01-01T03:52:04.000Z</time>
      </trkpt>
      <trkpt lat="46.22426" lon="6.78001">
        <ele>1727</ele>
        <time>2000-01-01T03:52:14.000Z</time>
      </trkpt>
      <trkpt lat="46.22455" lon="6.77984">
        <ele>1720</ele>
        <time>2000-01-01T03:52:24.000Z</time>
      </trkpt>
      <trkpt lat="46.22462" lon="6.77973">
        <ele>1715.9</ele>
        <time>2000-01-01T03:52:34.000Z</time>
      </trkpt>
      <trkpt lat="46.22462" lon="6.77963">
        <ele>1714.9</ele>
        <time>2000-01-01T03:52:44.000Z</time>
      </trkpt>
      <trkpt lat="46.22457" lon="6.77956">
        <ele>1716</ele>
        <time>2000-01-01T03:52:54.000Z</time>
      </trkpt>
      <trkpt lat="46.22435" lon="6.77937">
        <ele>1714</ele>
        <time>2000-01-01T03:53:04.000Z</time>
      </trkpt>
      <trkpt lat="46.22408" lon="6.77913">
        <ele>1714</ele>
        <time>2000-01-01T03:53:14.000Z</time>
      </trkpt>
      <trkpt lat="46.22401" lon="6.77896">
        <ele>1712.5</ele>
        <time>2000-01-01T03:53:24.000Z</time>
      </trkpt>
      <trkpt lat="46.22402" lon="6.77864">
        <ele>1705</ele>
        <time>2000-01-01T03:53:34.000Z</time>
      </trkpt>
      <trkpt lat="46.22406" lon="6.77849">
        <ele>1703.6</ele>
        <time>2000-01-01T03:53:44.000Z</time>
      </trkpt>
      <trkpt lat="46.22413" lon="6.77826">
        <ele>1700</ele>
        <time>2000-01-01T03:53:54.000Z</time>
      </trkpt>
      <trkpt lat="46.22424" lon="6.77804">
        <ele>1696</ele>
        <time>2000-01-01T03:54:04.000Z</time>
      </trkpt>
      <trkpt lat="46.22438" lon="6.77787">
        <ele>1690.6</ele>
        <time>2000-01-01T03:54:14.000Z</time>
      </trkpt>
      <trkpt lat="46.22462" lon="6.77775">
        <ele>1683</ele>
        <time>2000-01-01T03:54:24.000Z</time>
      </trkpt>
      <trkpt lat="46.22469" lon="6.77755">
        <ele>1680.7</ele>
        <time>2000-01-01T03:54:34.000Z</time>
      </trkpt>
      <trkpt lat="46.22467" lon="6.77737">
        <ele>1681</ele>
        <time>2000-01-01T03:54:44.000Z</time>
      </trkpt>
      <trkpt lat="46.22441" lon="6.77702">
        <ele>1681</ele>
        <time>2000-01-01T03:54:54.000Z</time>
      </trkpt>
      <trkpt lat="46.2243" lon="6.77692">
        <ele>1681.7</ele>
        <time>2000-01-01T03:55:04.000Z</time>
      </trkpt>
      <trkpt lat="46.2243" lon="6.77684">
        <ele>1680.6</ele>
        <time>2000-01-01T03:55:14.000Z</time>
      </trkpt>
      <trkpt lat="46.22434" lon="6.77679">
        <ele>1678</ele>
        <time>2000-01-01T03:55:24.000Z</time>
      </trkpt>
      <trkpt lat="46.2246" lon="6.77675">
        <ele>1676</ele>
        <time>2000-01-01T03:55:34.000Z</time>
      </trkpt>
      <trkpt lat="46.22488" lon="6.77682">
        <ele>1673</ele>
        <time>2000-01-01T03:55:44.000Z</time>
      </trkpt>
      <trkpt lat="46.22515" lon="6.77717">
        <ele>1669</ele>
        <time>2000-01-01T03:55:54.000Z</time>
      </trkpt>
      <trkpt lat="46.22517" lon="6.77729">
        <ele>1667.7</ele>
        <time>2000-01-01T03:56:04.000Z</time>
      </trkpt>
      <trkpt lat="46.22516" lon="6.77763">
        <ele>1669</ele>
        <time>2000-01-01T03:56:14.000Z</time>
      </trkpt>
      <trkpt lat="46.22519" lon="6.77769">
        <ele>1667.7</ele>
        <time>2000-01-01T03:56:24.000Z</time>
      </trkpt>
      <trkpt lat="46.22525" lon="6.77769">
        <ele>1666.3</ele>
        <time>2000-01-01T03:56:34.000Z</time>
      </trkpt>
      <trkpt lat="46.22554" lon="6.77727">
        <ele>1660</ele>
        <time>2000-01-01T03:56:44.000Z</time>
      </trkpt>
      <trkpt lat="46.22574" lon="6.77692">
        <ele>1658</ele>
        <time>2000-01-01T03:56:54.000Z</time>
      </trkpt>
      <trkpt lat="46.22595" lon="6.7767">
        <ele>1654</ele>
        <time>2000-01-01T03:57:04.000Z</time>
      </trkpt>
      <trkpt lat="46.22604" lon="6.77651">
        <ele>1653.6</ele>
        <time>2000-01-01T03:57:14.000Z</time>
      </trkpt>
      <trkpt lat="46.22611" lon="6.77625">
        <ele>1653</ele>
        <time>2000-01-01T03:57:24.000Z</time>
      </trkpt>
      <trkpt lat="46.22617" lon="6.77617">
        <ele>1652.1</ele>
        <time>2000-01-01T03:57:34.000Z</time>
      </trkpt>
      <trkpt lat="46.2264" lon="6.77613">
        <ele>1652</ele>
        <time>2000-01-01T03:57:44.000Z</time>
      </trkpt>
      <trkpt lat="46.22665" lon="6.77616">
        <ele>1652</ele>
        <time>2000-01-01T03:57:54.000Z</time>
      </trkpt>
      <trkpt lat="46.22682" lon="6.7761">
        <ele>1649.4</ele>
        <time>2000-01-01T03:58:04.000Z</time>
      </trkpt>
      <trkpt lat="46.22725" lon="6.7758">
        <ele>1648</ele>
        <time>2000-01-01T03:58:14.000Z</time>
      </trkpt>
      <trkpt lat="46.22738" lon="6.77566">
        <ele>1644.1</ele>
        <time>2000-01-01T03:58:24.000Z</time>
      </trkpt>
      <trkpt lat="46.22761" lon="6.77524">
        <ele>1642</ele>
        <time>2000-01-01T03:58:34.000Z</time>
      </trkpt>
      <trkpt lat="46.22781" lon="6.77528">
        <ele>1642</ele>
        <time>2000-01-01T03:58:44.000Z</time>
      </trkpt>
      <trkpt lat="46.22814" lon="6.77525">
        <ele>1642</ele>
        <time>2000-01-01T03:58:54.000Z</time>
      </trkpt>
      <trkpt lat="46.22834" lon="6.77513">
        <ele>1642</ele>
        <time>2000-01-01T03:59:04.000Z</time>
      </trkpt>
      <trkpt lat="46.22865" lon="6.77504">
        <ele>1641</ele>
        <time>2000-01-01T03:59:14.000Z</time>
      </trkpt>
      <trkpt lat="46.2287" lon="6.77499">
        <ele>1639.1</ele>
        <time>2000-01-01T03:59:24.000Z</time>
      </trkpt>
      <trkpt lat="46.22884" lon="6.7747">
        <ele>1641</ele>
        <time>2000-01-01T03:59:34.000Z</time>
      </trkpt>
      <trkpt lat="46.22895" lon="6.77459">
        <ele>1641</ele>
        <time>2000-01-01T03:59:44.000Z</time>
      </trkpt>
      <trkpt lat="46.22908" lon="6.77451">
        <ele>1641</ele>
        <time>2000-01-01T03:59:54.000Z</time>
      </trkpt>
      <trkpt lat="46.22923" lon="6.77426">
        <ele>1649</ele>
        <time>2000-01-01T04:00:04.000Z</time>
      </trkpt>
      <trkpt lat="46.22906" lon="6.77391">
        <ele>1652</ele>
        <time>2000-01-01T04:00:14.000Z</time>
      </trkpt>
      <trkpt lat="46.22905" lon="6.77383">
        <ele>1654.6</ele>
        <time>2000-01-01T04:00:24.000Z</time>
      </trkpt>
      <trkpt lat="46.22909" lon="6.77378">
        <ele>1655.7</ele>
        <time>2000-01-01T04:00:34.000Z</time>
      </trkpt>
      <trkpt lat="46.22945" lon="6.77385">
        <ele>1660</ele>
        <time>2000-01-01T04:00:44.000Z</time>
      </trkpt>
      <trkpt lat="46.22957" lon="6.77378">
        <ele>1662.5</ele>
        <time>2000-01-01T04:00:54.000Z</time>
      </trkpt>
      <trkpt lat="46.22965" lon="6.77365">
        <ele>1663</ele>
        <time>2000-01-01T04:01:04.000Z</time>
      </trkpt>
      <trkpt lat="46.22975" lon="6.77374">
        <ele>1664.8</ele>
        <time>2000-01-01T04:01:14.000Z</time>
      </trkpt>
      <trkpt lat="46.22988" lon="6.77395">
        <ele>1663</ele>
        <time>2000-01-01T04:01:24.000Z</time>
      </trkpt>
      <trkpt lat="46.22975" lon="6.77374">
        <ele>1663</ele>
        <time>2000-01-01T04:01:34.000Z</time>
      </trkpt>
      <trkpt lat="46.22969" lon="6.77368">
        <ele>1663.9</ele>
        <time>2000-01-01T04:01:44.000Z</time>
      </trkpt>
      <trkpt lat="46.22965" lon="6.77357">
        <ele>1663.3</ele>
        <time>2000-01-01T04:01:54.000Z</time>
      </trkpt>
      <trkpt lat="46.22953" lon="6.77336">
        <ele>1663</ele>
        <time>2000-01-01T04:02:04.000Z</time>
      </trkpt>
      <trkpt lat="46.22951" lon="6.77321">
        <ele>1663.1</ele>
        <time>2000-01-01T04:02:14.000Z</time>
      </trkpt>
      <trkpt lat="46.22955" lon="6.77271">
        <ele>1662</ele>
        <time>2000-01-01T04:02:24.000Z</time>
      </trkpt>
      <trkpt lat="46.22954" lon="6.77238">
        <ele>1660</ele>
        <time>2000-01-01T04:02:34.000Z</time>
      </trkpt>
      <trkpt lat="46.22961" lon="6.77204">
        <ele>1657</ele>
        <time>2000-01-01T04:02:44.000Z</time>
      </trkpt>
      <trkpt lat="46.22967" lon="6.77192">
        <ele>1656</ele>
        <time>2000-01-01T04:02:54.000Z</time>
      </trkpt>
      <trkpt lat="46.22975" lon="6.77185">
        <ele>1656</ele>
        <time>2000-01-01T04:03:04.000Z</time>
      </trkpt>
      <trkpt lat="46.23" lon="6.77173">
        <ele>1651</ele>
        <time>2000-01-01T04:03:14.000Z</time>
      </trkpt>
      <trkpt lat="46.23034" lon="6.77157">
        <ele>1649</ele>
        <time>2000-01-01T04:03:24.000Z</time>
      </trkpt>
      <trkpt lat="46.23052" lon="6.77143">
        <ele>1647</ele>
        <time>2000-01-01T04:03:34.000Z</time>
      </trkpt>
      <trkpt lat="46.23072" lon="6.77112">
        <ele>1647</ele>
        <time>2000-01-01T04:03:44.000Z</time>
      </trkpt>
      <trkpt lat="46.23115" lon="6.77088">
        <ele>1645</ele>
        <time>2000-01-01T04:03:54.000Z</time>
      </trkpt>
      <trkpt lat="46.23145" lon="6.77054">
        <ele>1640</ele>
        <time>2000-01-01T04:04:04.000Z</time>
      </trkpt>
      <trkpt lat="46.23149" lon="6.77044">
        <ele>1635</ele>
        <time>2000-01-01T04:04:14.000Z</time>
      </trkpt>
      <trkpt lat="46.23149" lon="6.77025">
        <ele>1636</ele>
        <time>2000-01-01T04:04:24.000Z</time>
      </trkpt>
      <trkpt lat="46.23137" lon="6.76997">
        <ele>1632</ele>
        <time>2000-01-01T04:04:34.000Z</time>
      </trkpt>
      <trkpt lat="46.23131" lon="6.7699">
        <ele>1631</ele>
        <time>2000-01-01T04:04:44.000Z</time>
      </trkpt>
      <trkpt lat="46.23114" lon="6.76984">
        <ele>1633</ele>
        <time>2000-01-01T04:04:54.000Z</time>
      </trkpt>
      <trkpt lat="46.23111" lon="6.76977">
        <ele>1633.4</ele>
        <time>2000-01-01T04:05:04.000Z</time>
      </trkpt>
      <trkpt lat="46.23113" lon="6.76969">
        <ele>1633.2</ele>
        <time>2000-01-01T04:05:14.000Z</time>
      </trkpt>
      <trkpt lat="46.23128" lon="6.76944">
        <ele>1632</ele>
        <time>2000-01-01T04:05:24.000Z</time>
      </trkpt>
      <trkpt lat="46.23138" lon="6.76911">
        <ele>1632</ele>
        <time>2000-01-01T04:05:34.000Z</time>
      </trkpt>
      <trkpt lat="46.2314" lon="6.76896">
        <ele>1625.1</ele>
        <time>2000-01-01T04:05:44.000Z</time>
      </trkpt>
      <trkpt lat="46.23138" lon="6.76873">
        <ele>1628</ele>
        <time>2000-01-01T04:05:54.000Z</time>
      </trkpt>
      <trkpt lat="46.23132" lon="6.76846">
        <ele>1620</ele>
        <time>2000-01-01T04:06:04.000Z</time>
      </trkpt>
      <trkpt lat="46.23112" lon="6.76813">
        <ele>1620</ele>
        <time>2000-01-01T04:06:14.000Z</time>
      </trkpt>
      <trkpt lat="46.23115" lon="6.76768">
        <ele>1616</ele>
        <time>2000-01-01T04:06:24.000Z</time>
      </trkpt>
      <trkpt lat="46.23118" lon="6.7673">
        <ele>1613</ele>
        <time>2000-01-01T04:06:34.000Z</time>
      </trkpt>
      <trkpt lat="46.23122" lon="6.7668">
        <ele>1607</ele>
        <time>2000-01-01T04:06:44.000Z</time>
      </trkpt>
      <trkpt lat="46.2312" lon="6.76627">
        <ele>1602</ele>
        <time>2000-01-01T04:06:54.000Z</time>
      </trkpt>
      <trkpt lat="46.23123" lon="6.766">
        <ele>1600</ele>
        <time>2000-01-01T04:07:04.000Z</time>
      </trkpt>
      <trkpt lat="46.23129" lon="6.76571">
        <ele>1599</ele>
        <time>2000-01-01T04:07:14.000Z</time>
      </trkpt>
      <trkpt lat="46.23142" lon="6.76536">
        <ele>1590</ele>
        <time>2000-01-01T04:07:24.000Z</time>
      </trkpt>
      <trkpt lat="46.2316" lon="6.76487">
        <ele>1585</ele>
        <time>2000-01-01T04:07:34.000Z</time>
      </trkpt>
      <trkpt lat="46.23167" lon="6.76422">
        <ele>1580</ele>
        <time>2000-01-01T04:07:44.000Z</time>
      </trkpt>
      <trkpt lat="46.23169" lon="6.76411">
        <ele>1575.9</ele>
        <time>2000-01-01T04:07:54.000Z</time>
      </trkpt>
      <trkpt lat="46.23179" lon="6.76405">
        <ele>1576</ele>
        <time>2000-01-01T04:08:04.000Z</time>
      </trkpt>
      <trkpt lat="46.23195" lon="6.76408">
        <ele>1572.9</ele>
        <time>2000-01-01T04:08:14.000Z</time>
      </trkpt>
      <trkpt lat="46.23221" lon="6.76389">
        <ele>1574</ele>
        <time>2000-01-01T04:08:24.000Z</time>
      </trkpt>
      <trkpt lat="46.23228" lon="6.76419">
        <ele>1573</ele>
        <time>2000-01-01T04:08:34.000Z</time>
      </trkpt>
      <trkpt lat="46.23233" lon="6.76429">
        <ele>1571.7</ele>
        <time>2000-01-01T04:08:44.000Z</time>
      </trkpt>
      <trkpt lat="46.23277" lon="6.7648">
        <ele>1566</ele>
        <time>2000-01-01T04:08:54.000Z</time>
      </trkpt>
      <trkpt lat="46.23304" lon="6.76503">
        <ele>1562</ele>
        <time>2000-01-01T04:09:04.000Z</time>
      </trkpt>
      <trkpt lat="46.23319" lon="6.76509">
        <ele>1560.7</ele>
        <time>2000-01-01T04:09:14.000Z</time>
      </trkpt>
      <trkpt lat="46.23352" lon="6.76511">
        <ele>1557</ele>
        <time>2000-01-01T04:09:24.000Z</time>
      </trkpt>
      <trkpt lat="46.23367" lon="6.76505">
        <ele>1555.2</ele>
        <time>2000-01-01T04:09:34.000Z</time>
      </trkpt>
      <trkpt lat="46.23385" lon="6.76481">
        <ele>1554</ele>
        <time>2000-01-01T04:09:44.000Z</time>
      </trkpt>
      <trkpt lat="46.23389" lon="6.76481">
        <ele>1553.3</ele>
        <time>2000-01-01T04:09:54.000Z</time>
      </trkpt>
      <trkpt lat="46.23395" lon="6.76485">
        <ele>1550.8</ele>
        <time>2000-01-01T04:10:04.000Z</time>
      </trkpt>
      <trkpt lat="46.23396" lon="6.76495">
        <ele>1549.8</ele>
        <time>2000-01-01T04:10:14.000Z</time>
      </trkpt>
      <trkpt lat="46.23395" lon="6.765">
        <ele>1552</ele>
        <time>2000-01-01T04:10:24.000Z</time>
      </trkpt>
      <trkpt lat="46.23368" lon="6.76544">
        <ele>1550</ele>
        <time>2000-01-01T04:10:34.000Z</time>
      </trkpt>
      <trkpt lat="46.23335" lon="6.76588">
        <ele>1545</ele>
        <time>2000-01-01T04:10:44.000Z</time>
      </trkpt>
      <trkpt lat="46.23305" lon="6.76613">
        <ele>1542</ele>
        <time>2000-01-01T04:10:54.000Z</time>
      </trkpt>
      <trkpt lat="46.233" lon="6.76623">
        <ele>1541.1</ele>
        <time>2000-01-01T04:11:04.000Z</time>
      </trkpt>
      <trkpt lat="46.23299" lon="6.76629">
        <ele>1540.8</ele>
        <time>2000-01-01T04:11:14.000Z</time>
      </trkpt>
      <trkpt lat="46.23303" lon="6.7664">
        <ele>1540</ele>
        <time>2000-01-01T04:11:24.000Z</time>
      </trkpt>
      <trkpt lat="46.23311" lon="6.76644">
        <ele>1539.2</ele>
        <time>2000-01-01T04:11:34.000Z</time>
      </trkpt>
      <trkpt lat="46.23352" lon="6.76638">
        <ele>1536</ele>
        <time>2000-01-01T04:11:44.000Z</time>
      </trkpt>
      <trkpt lat="46.23382" lon="6.76629">
        <ele>1533</ele>
        <time>2000-01-01T04:11:54.000Z</time>
      </trkpt>
      <trkpt lat="46.23406" lon="6.76604">
        <ele>1530</ele>
        <time>2000-01-01T04:12:04.000Z</time>
      </trkpt>
      <trkpt lat="46.23427" lon="6.76583">
        <ele>1530</ele>
        <time>2000-01-01T04:12:14.000Z</time>
      </trkpt>
      <trkpt lat="46.23451" lon="6.76558">
        <ele>1525</ele>
        <time>2000-01-01T04:12:24.000Z</time>
      </trkpt>
      <trkpt lat="46.23476" lon="6.76517">
        <ele>1521</ele>
        <time>2000-01-01T04:12:34.000Z</time>
      </trkpt>
      <trkpt lat="46.23483" lon="6.76511">
        <ele>1519.2</ele>
        <time>2000-01-01T04:12:44.000Z</time>
      </trkpt>
      <trkpt lat="46.23497" lon="6.76505">
        <ele>1518</ele>
        <time>2000-01-01T04:12:54.000Z</time>
      </trkpt>
      <trkpt lat="46.235" lon="6.765">
        <ele>1518</ele>
        <time>2000-01-01T04:13:04.000Z</time>
      </trkpt>
      <trkpt lat="46.23502" lon="6.76493">
        <ele>1516.9</ele>
        <time>2000-01-01T04:13:14.000Z</time>
      </trkpt>
      <trkpt lat="46.235" lon="6.76482">
        <ele>1516.1</ele>
        <time>2000-01-01T04:13:24.000Z</time>
      </trkpt>
      <trkpt lat="46.23482" lon="6.76454">
        <ele>1514</ele>
        <time>2000-01-01T04:13:34.000Z</time>
      </trkpt>
      <trkpt lat="46.23481" lon="6.76443">
        <ele>1513.4</ele>
        <time>2000-01-01T04:13:44.000Z</time>
      </trkpt>
      <trkpt lat="46.23484" lon="6.76436">
        <ele>1514.6</ele>
        <time>2000-01-01T04:13:54.000Z</time>
      </trkpt>
      <trkpt lat="46.23521" lon="6.76429">
        <ele>1514</ele>
        <time>2000-01-01T04:14:04.000Z</time>
      </trkpt>
      <trkpt lat="46.23555" lon="6.76434">
        <ele>1507</ele>
        <time>2000-01-01T04:14:14.000Z</time>
      </trkpt>
      <trkpt lat="46.23589" lon="6.76425">
        <ele>1505</ele>
        <time>2000-01-01T04:14:24.000Z</time>
      </trkpt>
      <trkpt lat="46.23593" lon="6.76432">
        <ele>1500.4</ele>
        <time>2000-01-01T04:14:34.000Z</time>
      </trkpt>
      <trkpt lat="46.23592" lon="6.7644">
        <ele>1499.1</ele>
        <time>2000-01-01T04:14:44.000Z</time>
      </trkpt>
      <trkpt lat="46.2358" lon="6.76446">
        <ele>1504</ele>
        <time>2000-01-01T04:14:54.000Z</time>
      </trkpt>
      <trkpt lat="46.23577" lon="6.76451">
        <ele>1499.8</ele>
        <time>2000-01-01T04:15:04.000Z</time>
      </trkpt>
      <trkpt lat="46.23577" lon="6.76458">
        <ele>1498.4</ele>
        <time>2000-01-01T04:15:14.000Z</time>
      </trkpt>
      <trkpt lat="46.23582" lon="6.76463">
        <ele>1496.8</ele>
        <time>2000-01-01T04:15:24.000Z</time>
      </trkpt>
      <trkpt lat="46.23601" lon="6.76453">
        <ele>1496</ele>
        <time>2000-01-01T04:15:34.000Z</time>
      </trkpt>
      <trkpt lat="46.23609" lon="6.76445">
        <ele>1494.3</ele>
        <time>2000-01-01T04:15:44.000Z</time>
      </trkpt>
      <trkpt lat="46.23612" lon="6.76436">
        <ele>1493.5</ele>
        <time>2000-01-01T04:15:54.000Z</time>
      </trkpt>
      <trkpt lat="46.23614" lon="6.76415">
        <ele>1495</ele>
        <time>2000-01-01T04:16:04.000Z</time>
      </trkpt>
      <trkpt lat="46.23625" lon="6.76381">
        <ele>1495</ele>
        <time>2000-01-01T04:16:14.000Z</time>
      </trkpt>
      <trkpt lat="46.23641" lon="6.76337">
        <ele>1492</ele>
        <time>2000-01-01T04:16:24.000Z</time>
      </trkpt>
      <trkpt lat="46.23649" lon="6.76293">
        <ele>1490</ele>
        <time>2000-01-01T04:16:34.000Z</time>
      </trkpt>
      <trkpt lat="46.23656" lon="6.7627">
        <ele>1486.9</ele>
        <time>2000-01-01T04:16:44.000Z</time>
      </trkpt>
      <trkpt lat="46.2369" lon="6.76227">
        <ele>1484</ele>
        <time>2000-01-01T04:16:54.000Z</time>
      </trkpt>
      <trkpt lat="46.2371" lon="6.7621">
        <ele>1481</ele>
        <time>2000-01-01T04:17:04.000Z</time>
      </trkpt>
      <trkpt lat="46.2373" lon="6.76192">
        <ele>1478</ele>
        <time>2000-01-01T04:17:14.000Z</time>
      </trkpt>
      <trkpt lat="46.23754" lon="6.76181">
        <ele>1469</ele>
        <time>2000-01-01T04:17:24.000Z</time>
      </trkpt>
      <trkpt lat="46.23785" lon="6.76184">
        <ele>1466</ele>
        <time>2000-01-01T04:17:34.000Z</time>
      </trkpt>
      <trkpt lat="46.23819" lon="6.76211">
        <ele>1458</ele>
        <time>2000-01-01T04:17:44.000Z</time>
      </trkpt>
      <trkpt lat="46.23845" lon="6.76223">
        <ele>1458</ele>
        <time>2000-01-01T04:17:54.000Z</time>
      </trkpt>
      <trkpt lat="46.23875" lon="6.76245">
        <ele>1455</ele>
        <time>2000-01-01T04:18:04.000Z</time>
      </trkpt>
      <trkpt lat="46.23918" lon="6.76257">
        <ele>1452</ele>
        <time>2000-01-01T04:18:14.000Z</time>
      </trkpt>
      <trkpt lat="46.23943" lon="6.76275">
        <ele>1448</ele>
        <time>2000-01-01T04:18:24.000Z</time>
      </trkpt>
      <trkpt lat="46.2398" lon="6.76302">
        <ele>1449</ele>
        <time>2000-01-01T04:18:34.000Z</time>
      </trkpt>
      <trkpt lat="46.23989" lon="6.76305">
        <ele>1440.8</ele>
        <time>2000-01-01T04:18:44.000Z</time>
      </trkpt>
      <trkpt lat="46.23996" lon="6.763">
        <ele>1442.8</ele>
        <time>2000-01-01T04:18:54.000Z</time>
      </trkpt>
      <trkpt lat="46.24019" lon="6.7627">
        <ele>1443</ele>
        <time>2000-01-01T04:19:04.000Z</time>
      </trkpt>
      <trkpt lat="46.24035" lon="6.76259">
        <ele>1441.4</ele>
        <time>2000-01-01T04:19:14.000Z</time>
      </trkpt>
      <trkpt lat="46.24053" lon="6.76256">
        <ele>1438</ele>
        <time>2000-01-01T04:19:24.000Z</time>
      </trkpt>
      <trkpt lat="46.24076" lon="6.76249">
        <ele>1438</ele>
        <time>2000-01-01T04:19:34.000Z</time>
      </trkpt>
      <trkpt lat="46.241" lon="6.76257">
        <ele>1432</ele>
        <time>2000-01-01T04:19:44.000Z</time>
      </trkpt>
      <trkpt lat="46.24107" lon="6.76255">
        <ele>1425.8</ele>
        <time>2000-01-01T04:19:54.000Z</time>
      </trkpt>
      <trkpt lat="46.24124" lon="6.76238">
        <ele>1427</ele>
        <time>2000-01-01T04:20:04.000Z</time>
      </trkpt>
      <trkpt lat="46.24132" lon="6.76234">
        <ele>1427.8</ele>
        <time>2000-01-01T04:20:14.000Z</time>
      </trkpt>
      <trkpt lat="46.24162" lon="6.76232">
        <ele>1422</ele>
        <time>2000-01-01T04:20:24.000Z</time>
      </trkpt>
      <trkpt lat="46.2419" lon="6.76224">
        <ele>1421</ele>
        <time>2000-01-01T04:20:34.000Z</time>
      </trkpt>
      <trkpt lat="46.24198" lon="6.76227">
        <ele>1418.9</ele>
        <time>2000-01-01T04:20:44.000Z</time>
      </trkpt>
      <trkpt lat="46.24203" lon="6.76233">
        <ele>1418.8</ele>
        <time>2000-01-01T04:20:54.000Z</time>
      </trkpt>
      <trkpt lat="46.24207" lon="6.76252">
        <ele>1413</ele>
        <time>2000-01-01T04:21:04.000Z</time>
      </trkpt>
      <trkpt lat="46.24205" lon="6.76263">
        <ele>1413.5</ele>
        <time>2000-01-01T04:21:14.000Z</time>
      </trkpt>
      <trkpt lat="46.24199" lon="6.76271">
        <ele>1411.4</ele>
        <time>2000-01-01T04:21:24.000Z</time>
      </trkpt>
      <trkpt lat="46.24176" lon="6.76275">
        <ele>1409</ele>
        <time>2000-01-01T04:21:34.000Z</time>
      </trkpt>
      <trkpt lat="46.24144" lon="6.76294">
        <ele>1407</ele>
        <time>2000-01-01T04:21:44.000Z</time>
      </trkpt>
      <trkpt lat="46.24118" lon="6.76293">
        <ele>1406</ele>
        <time>2000-01-01T04:21:54.000Z</time>
      </trkpt>
      <trkpt lat="46.24112" lon="6.76304">
        <ele>1401.6</ele>
        <time>2000-01-01T04:22:04.000Z</time>
      </trkpt>
      <trkpt lat="46.24113" lon="6.76312">
        <ele>1399.1</ele>
        <time>2000-01-01T04:22:14.000Z</time>
      </trkpt>
      <trkpt lat="46.2412" lon="6.76317">
        <ele>1400</ele>
        <time>2000-01-01T04:22:24.000Z</time>
      </trkpt>
      <trkpt lat="46.24147" lon="6.76318">
        <ele>1399</ele>
        <time>2000-01-01T04:22:34.000Z</time>
      </trkpt>
      <trkpt lat="46.24187" lon="6.76321">
        <ele>1393</ele>
        <time>2000-01-01T04:22:44.000Z</time>
      </trkpt>
      <trkpt lat="46.24194" lon="6.76332">
        <ele>1392.4</ele>
        <time>2000-01-01T04:22:54.000Z</time>
      </trkpt>
      <trkpt lat="46.24194" lon="6.76346">
        <ele>1390</ele>
        <time>2000-01-01T04:23:04.000Z</time>
      </trkpt>
      <trkpt lat="46.24192" lon="6.7635">
        <ele>1388.4</ele>
        <time>2000-01-01T04:23:14.000Z</time>
      </trkpt>
      <trkpt lat="46.2415" lon="6.76369">
        <ele>1384</ele>
        <time>2000-01-01T04:23:24.000Z</time>
      </trkpt>
      <trkpt lat="46.24126" lon="6.76372">
        <ele>1380</ele>
        <time>2000-01-01T04:23:34.000Z</time>
      </trkpt>
      <trkpt lat="46.24101" lon="6.76376">
        <ele>1379</ele>
        <time>2000-01-01T04:23:44.000Z</time>
      </trkpt>
      <trkpt lat="46.24096" lon="6.76379">
        <ele>1380.3</ele>
        <time>2000-01-01T04:23:54.000Z</time>
      </trkpt>
      <trkpt lat="46.24093" lon="6.76387">
        <ele>1378.2</ele>
        <time>2000-01-01T04:24:04.000Z</time>
      </trkpt>
      <trkpt lat="46.24093" lon="6.76398">
        <ele>1376</ele>
        <time>2000-01-01T04:24:14.000Z</time>
      </trkpt>
      <trkpt lat="46.24098" lon="6.76404">
        <ele>1375</ele>
        <time>2000-01-01T04:24:24.000Z</time>
      </trkpt>
      <trkpt lat="46.24118" lon="6.76407">
        <ele>1374</ele>
        <time>2000-01-01T04:24:34.000Z</time>
      </trkpt>
      <trkpt lat="46.24155" lon="6.76426">
        <ele>1369</ele>
        <time>2000-01-01T04:24:44.000Z</time>
      </trkpt>
      <trkpt lat="46.24184" lon="6.76444">
        <ele>1365</ele>
        <time>2000-01-01T04:24:54.000Z</time>
      </trkpt>
      <trkpt lat="46.24212" lon="6.76462">
        <ele>1361</ele>
        <time>2000-01-01T04:25:04.000Z</time>
      </trkpt>
      <trkpt lat="46.24242" lon="6.76481">
        <ele>1358</ele>
        <time>2000-01-01T04:25:14.000Z</time>
      </trkpt>
      <trkpt lat="46.24268" lon="6.76489">
        <ele>1356</ele>
        <time>2000-01-01T04:25:24.000Z</time>
      </trkpt>
      <trkpt lat="46.24302" lon="6.76499">
        <ele>1353</ele>
        <time>2000-01-01T04:25:34.000Z</time>
      </trkpt>
      <trkpt lat="46.24321" lon="6.76499">
        <ele>1352</ele>
        <time>2000-01-01T04:25:44.000Z</time>
      </trkpt>
      <trkpt lat="46.2435" lon="6.76494">
        <ele>1349</ele>
        <time>2000-01-01T04:25:54.000Z</time>
      </trkpt>
      <trkpt lat="46.24379" lon="6.76493">
        <ele>1346</ele>
        <time>2000-01-01T04:26:04.000Z</time>
      </trkpt>
      <trkpt lat="46.24423" lon="6.7649">
        <ele>1343</ele>
        <time>2000-01-01T04:26:14.000Z</time>
      </trkpt>
      <trkpt lat="46.24434" lon="6.76484">
        <ele>1338.1</ele>
        <time>2000-01-01T04:26:24.000Z</time>
      </trkpt>
      <trkpt lat="46.24446" lon="6.76463">
        <ele>1340</ele>
        <time>2000-01-01T04:26:34.000Z</time>
      </trkpt>
      <trkpt lat="46.24451" lon="6.7644">
        <ele>1335.6</ele>
        <time>2000-01-01T04:26:44.000Z</time>
      </trkpt>
      <trkpt lat="46.24451" lon="6.76426">
        <ele>1336</ele>
        <time>2000-01-01T04:26:54.000Z</time>
      </trkpt>
      <trkpt lat="46.24447" lon="6.76414">
        <ele>1336.1</ele>
        <time>2000-01-01T04:27:04.000Z</time>
      </trkpt>
      <trkpt lat="46.24423" lon="6.7638">
        <ele>1332</ele>
        <time>2000-01-01T04:27:14.000Z</time>
      </trkpt>
      <trkpt lat="46.24411" lon="6.76358">
        <ele>1332</ele>
        <time>2000-01-01T04:27:24.000Z</time>
      </trkpt>
      <trkpt lat="46.24407" lon="6.7634">
        <ele>1333</ele>
        <time>2000-01-01T04:27:34.000Z</time>
      </trkpt>
      <trkpt lat="46.24407" lon="6.76322">
        <ele>1332</ele>
        <time>2000-01-01T04:27:44.000Z</time>
      </trkpt>
      <trkpt lat="46.24412" lon="6.76298">
        <ele>1329.6</ele>
        <time>2000-01-01T04:27:54.000Z</time>
      </trkpt>
      <trkpt lat="46.24461" lon="6.76173">
        <ele>1317</ele>
        <time>2000-01-01T04:28:04.000Z</time>
      </trkpt>
      <trkpt lat="46.24467" lon="6.76153">
        <ele>1315.8</ele>
        <time>2000-01-01T04:28:14.000Z</time>
      </trkpt>
      <trkpt lat="46.24472" lon="6.76124">
        <ele>1313</ele>
        <time>2000-01-01T04:28:24.000Z</time>
      </trkpt>
      <trkpt lat="46.24473" lon="6.76103">
        <ele>1313.5</ele>
        <time>2000-01-01T04:28:34.000Z</time>
      </trkpt>
      <trkpt lat="46.24459" lon="6.75961">
        <ele>1304</ele>
        <time>2000-01-01T04:28:44.000Z</time>
      </trkpt>
      <trkpt lat="46.24459" lon="6.75901">
        <ele>1304</ele>
        <time>2000-01-01T04:28:54.000Z</time>
      </trkpt>
      <trkpt lat="46.2445" lon="6.75852">
        <ele>1297</ele>
        <time>2000-01-01T04:29:04.000Z</time>
      </trkpt>
      <trkpt lat="46.24449" lon="6.75829">
        <ele>1293.1</ele>
        <time>2000-01-01T04:29:14.000Z</time>
      </trkpt>
      <trkpt lat="46.24451" lon="6.75823">
        <ele>1292</ele>
        <time>2000-01-01T04:29:24.000Z</time>
      </trkpt>
      <trkpt lat="46.24455" lon="6.75818">
        <ele>1291.5</ele>
        <time>2000-01-01T04:29:34.000Z</time>
      </trkpt>
      <trkpt lat="46.24464" lon="6.75819">
        <ele>1288.1</ele>
        <time>2000-01-01T04:29:44.000Z</time>
      </trkpt>
      <trkpt lat="46.24477" lon="6.75855">
        <ele>1286</ele>
        <time>2000-01-01T04:29:54.000Z</time>
      </trkpt>
      <trkpt lat="46.24488" lon="6.75866">
        <ele>1283.5</ele>
        <time>2000-01-01T04:30:04.000Z</time>
      </trkpt>
      <trkpt lat="46.24499" lon="6.75864">
        <ele>1282</ele>
        <time>2000-01-01T04:30:14.000Z</time>
      </trkpt>
      <trkpt lat="46.24505" lon="6.75857">
        <ele>1280.2</ele>
        <time>2000-01-01T04:30:24.000Z</time>
      </trkpt>
      <trkpt lat="46.24509" lon="6.75833">
        <ele>1279</ele>
        <time>2000-01-01T04:30:34.000Z</time>
      </trkpt>
      <trkpt lat="46.24505" lon="6.75796">
        <ele>1276</ele>
        <time>2000-01-01T04:30:44.000Z</time>
      </trkpt>
      <trkpt lat="46.24496" lon="6.75764">
        <ele>1275</ele>
        <time>2000-01-01T04:30:54.000Z</time>
      </trkpt>
      <trkpt lat="46.24487" lon="6.75731">
        <ele>1273</ele>
        <time>2000-01-01T04:31:04.000Z</time>
      </trkpt>
      <trkpt lat="46.24479" lon="6.7572">
        <ele>1271.4</ele>
        <time>2000-01-01T04:31:14.000Z</time>
      </trkpt>
      <trkpt lat="46.24452" lon="6.75695">
        <ele>1271</ele>
        <time>2000-01-01T04:31:24.000Z</time>
      </trkpt>
      <trkpt lat="46.24444" lon="6.75682">
        <ele>1268.6</ele>
        <time>2000-01-01T04:31:34.000Z</time>
      </trkpt>
      <trkpt lat="46.24438" lon="6.75659">
        <ele>1269</ele>
        <time>2000-01-01T04:31:44.000Z</time>
      </trkpt>
      <trkpt lat="46.24441" lon="6.75615">
        <ele>1263</ele>
        <time>2000-01-01T04:31:54.000Z</time>
      </trkpt>
      <trkpt lat="46.24439" lon="6.75602">
        <ele>1262.7</ele>
        <time>2000-01-01T04:32:04.000Z</time>
      </trkpt>
      <trkpt lat="46.24412" lon="6.75543">
        <ele>1258</ele>
        <time>2000-01-01T04:32:14.000Z</time>
      </trkpt>
      <trkpt lat="46.24401" lon="6.75508">
        <ele>1257</ele>
        <time>2000-01-01T04:32:24.000Z</time>
      </trkpt>
      <trkpt lat="46.24389" lon="6.75481">
        <ele>1256</ele>
        <time>2000-01-01T04:32:34.000Z</time>
      </trkpt>
      <trkpt lat="46.24389" lon="6.75472">
        <ele>1253.9</ele>
        <time>2000-01-01T04:32:44.000Z</time>
      </trkpt>
      <trkpt lat="46.24394" lon="6.75465">
        <ele>1250.4</ele>
        <time>2000-01-01T04:32:54.000Z</time>
      </trkpt>
      <trkpt lat="46.24402" lon="6.75466">
        <ele>1251</ele>
        <time>2000-01-01T04:33:04.000Z</time>
      </trkpt>
      <trkpt lat="46.24406" lon="6.75472">
        <ele>1249</ele>
        <time>2000-01-01T04:33:14.000Z</time>
      </trkpt>
      <trkpt lat="46.24418" lon="6.75507">
        <ele>1251</ele>
        <time>2000-01-01T04:33:24.000Z</time>
      </trkpt>
      <trkpt lat="46.2443" lon="6.75529">
        <ele>1248</ele>
        <time>2000-01-01T04:33:34.000Z</time>
      </trkpt>
      <trkpt lat="46.24444" lon="6.75542">
        <ele>1244.2</ele>
        <time>2000-01-01T04:33:44.000Z</time>
      </trkpt>
      <trkpt lat="46.24476" lon="6.75559">
        <ele>1239</ele>
        <time>2000-01-01T04:33:54.000Z</time>
      </trkpt>
      <trkpt lat="46.24505" lon="6.75565">
        <ele>1235</ele>
        <time>2000-01-01T04:34:04.000Z</time>
      </trkpt>
      <trkpt lat="46.24528" lon="6.7557">
        <ele>1231</ele>
        <time>2000-01-01T04:34:14.000Z</time>
      </trkpt>
      <trkpt lat="46.24553" lon="6.75575">
        <ele>1229</ele>
        <time>2000-01-01T04:34:24.000Z</time>
      </trkpt>
      <trkpt lat="46.24586" lon="6.75577">
        <ele>1224</ele>
        <time>2000-01-01T04:34:34.000Z</time>
      </trkpt>
      <trkpt lat="46.24602" lon="6.75576">
        <ele>1224.7</ele>
        <time>2000-01-01T04:34:44.000Z</time>
      </trkpt>
      <trkpt lat="46.24638" lon="6.75566">
        <ele>1214</ele>
        <time>2000-01-01T04:34:54.000Z</time>
      </trkpt>
      <trkpt lat="46.24661" lon="6.75554">
        <ele>1214</ele>
        <time>2000-01-01T04:35:04.000Z</time>
      </trkpt>
      <trkpt lat="46.24692" lon="6.75534">
        <ele>1211</ele>
        <time>2000-01-01T04:35:14.000Z</time>
      </trkpt>
      <trkpt lat="46.2473" lon="6.7553">
        <ele>1204</ele>
        <time>2000-01-01T04:35:24.000Z</time>
      </trkpt>
      <trkpt lat="46.24752" lon="6.75518">
        <ele>1202</ele>
        <time>2000-01-01T04:35:34.000Z</time>
      </trkpt>
      <trkpt lat="46.24777" lon="6.75503">
        <ele>1200</ele>
        <time>2000-01-01T04:35:44.000Z</time>
      </trkpt>
      <trkpt lat="46.24812" lon="6.75482">
        <ele>1198</ele>
        <time>2000-01-01T04:35:54.000Z</time>
      </trkpt>
      <trkpt lat="46.2485" lon="6.7546">
        <ele>1192</ele>
        <time>2000-01-01T04:36:04.000Z</time>
      </trkpt>
      <trkpt lat="46.24867" lon="6.75446">
        <ele>1189</ele>
        <time>2000-01-01T04:36:14.000Z</time>
      </trkpt>
      <trkpt lat="46.24885" lon="6.75423">
        <ele>1188</ele>
        <time>2000-01-01T04:36:24.000Z</time>
      </trkpt>
      <trkpt lat="46.24904" lon="6.754">
        <ele>1185</ele>
        <time>2000-01-01T04:36:34.000Z</time>
      </trkpt>
      <trkpt lat="46.24943" lon="6.75364">
        <ele>1185</ele>
        <time>2000-01-01T04:36:44.000Z</time>
      </trkpt>
      <trkpt lat="46.24981" lon="6.75338">
        <ele>1183</ele>
        <time>2000-01-01T04:36:54.000Z</time>
      </trkpt>
      <trkpt lat="46.25003" lon="6.75317">
        <ele>1182</ele>
        <time>2000-01-01T04:37:04.000Z</time>
      </trkpt>
      <trkpt lat="46.25032" lon="6.75288">
        <ele>1182</ele>
        <time>2000-01-01T04:37:14.000Z</time>
      </trkpt>
      <trkpt lat="46.25054" lon="6.75271">
        <ele>1181</ele>
        <time>2000-01-01T04:37:24.000Z</time>
      </trkpt>
      <trkpt lat="46.25098" lon="6.7525">
        <ele>1180</ele>
        <time>2000-01-01T04:37:34.000Z</time>
      </trkpt>
      <trkpt lat="46.25122" lon="6.7524">
        <ele>1180</ele>
        <time>2000-01-01T04:37:44.000Z</time>
      </trkpt>
      <trkpt lat="46.25164" lon="6.75237">
        <ele>1179</ele>
        <time>2000-01-01T04:37:54.000Z</time>
      </trkpt>
      <trkpt lat="46.25175" lon="6.7523">
        <ele>1179.9</ele>
        <time>2000-01-01T04:38:04.000Z</time>
      </trkpt>
      <trkpt lat="46.25223" lon="6.7517">
        <ele>1179</ele>
        <time>2000-01-01T04:38:14.000Z</time>
      </trkpt>
      <trkpt lat="46.2524" lon="6.75147">
        <ele>1179</ele>
        <time>2000-01-01T04:38:24.000Z</time>
      </trkpt>
      <trkpt lat="46.25257" lon="6.75123">
        <ele>1179</ele>
        <time>2000-01-01T04:38:34.000Z</time>
      </trkpt>
      <trkpt lat="46.2527" lon="6.75087">
        <ele>1179</ele>
        <time>2000-01-01T04:38:44.000Z</time>
      </trkpt>
      <trkpt lat="46.25279" lon="6.75046">
        <ele>1179</ele>
        <time>2000-01-01T04:38:54.000Z</time>
      </trkpt>
      <trkpt lat="46.25285" lon="6.75012">
        <ele>1179</ele>
        <time>2000-01-01T04:39:04.000Z</time>
      </trkpt>
      <trkpt lat="46.25293" lon="6.74975">
        <ele>1179</ele>
        <time>2000-01-01T04:39:14.000Z</time>
      </trkpt>
      <trkpt lat="46.25309" lon="6.74927">
        <ele>1179</ele>
        <time>2000-01-01T04:39:24.000Z</time>
      </trkpt>
      <trkpt lat="46.25331" lon="6.74891">
        <ele>1179</ele>
        <time>2000-01-01T04:39:34.000Z</time>
      </trkpt>
      <trkpt lat="46.25353" lon="6.74856">
        <ele>1180</ele>
        <time>2000-01-01T04:39:44.000Z</time>
      </trkpt>
      <trkpt lat="46.25369" lon="6.7483">
        <ele>1180</ele>
        <time>2000-01-01T04:39:54.000Z</time>
      </trkpt>
      <trkpt lat="46.25386" lon="6.74804">
        <ele>1180</ele>
        <time>2000-01-01T04:40:04.000Z</time>
      </trkpt>
      <trkpt lat="46.25406" lon="6.74781">
        <ele>1180</ele>
        <time>2000-01-01T04:40:14.000Z</time>
      </trkpt>
      <trkpt lat="46.2543" lon="6.74754">
        <ele>1180</ele>
        <time>2000-01-01T04:40:24.000Z</time>
      </trkpt>
      <trkpt lat="46.2546" lon="6.7474">
        <ele>1181</ele>
        <time>2000-01-01T04:40:34.000Z</time>
      </trkpt>
      <trkpt lat="46.25489" lon="6.74726">
        <ele>1181</ele>
        <time>2000-01-01T04:40:44.000Z</time>
      </trkpt>
      <trkpt lat="46.2552" lon="6.74712">
        <ele>1182</ele>
        <time>2000-01-01T04:40:54.000Z</time>
      </trkpt>
      <trkpt lat="46.25541" lon="6.74704">
        <ele>1182</ele>
        <time>2000-01-01T04:41:04.000Z</time>
      </trkpt>
      <trkpt lat="46.25571" lon="6.747">
        <ele>1184</ele>
        <time>2000-01-01T04:41:14.000Z</time>
      </trkpt>
      <trkpt lat="46.25596" lon="6.74696">
        <ele>1184</ele>
        <time>2000-01-01T04:41:24.000Z</time>
      </trkpt>
      <trkpt lat="46.25625" lon="6.74692">
        <ele>1184</ele>
        <time>2000-01-01T04:41:34.000Z</time>
      </trkpt>
      <trkpt lat="46.25634" lon="6.74689">
        <ele>1183.6</ele>
        <time>2000-01-01T04:41:44.000Z</time>
      </trkpt>
      <trkpt lat="46.25642" lon="6.74683">
        <ele>1184.5</ele>
        <time>2000-01-01T04:41:54.000Z</time>
      </trkpt>
      <trkpt lat="46.2565" lon="6.74671">
        <ele>1182</ele>
        <time>2000-01-01T04:42:04.000Z</time>
      </trkpt>
      <trkpt lat="46.25663" lon="6.74637">
        <ele>1179</ele>
        <time>2000-01-01T04:42:14.000Z</time>
      </trkpt>
      <trkpt lat="46.25678" lon="6.74582">
        <ele>1179</ele>
        <time>2000-01-01T04:42:24.000Z</time>
      </trkpt>
      <trkpt lat="46.25686" lon="6.74563">
        <ele>1183.8</ele>
        <time>2000-01-01T04:42:34.000Z</time>
      </trkpt>
      <trkpt lat="46.25702" lon="6.7453">
        <ele>1178</ele>
        <time>2000-01-01T04:42:44.000Z</time>
      </trkpt>
      <trkpt lat="46.25719" lon="6.74507">
        <ele>1178</ele>
        <time>2000-01-01T04:42:54.000Z</time>
      </trkpt>
      <trkpt lat="46.2574" lon="6.74489">
        <ele>1179</ele>
        <time>2000-01-01T04:43:04.000Z</time>
      </trkpt>
      <trkpt lat="46.25776" lon="6.74467">
        <ele>1180</ele>
        <time>2000-01-01T04:43:14.000Z</time>
      </trkpt>
      <trkpt lat="46.25795" lon="6.74463">
        <ele>1178</ele>
        <time>2000-01-01T04:43:24.000Z</time>
      </trkpt>
      <trkpt lat="46.25834" lon="6.74467">
        <ele>1176</ele>
        <time>2000-01-01T04:43:34.000Z</time>
      </trkpt>
      <trkpt lat="46.25871" lon="6.74448">
        <ele>1172</ele>
        <time>2000-01-01T04:43:44.000Z</time>
      </trkpt>
      <trkpt lat="46.25892" lon="6.74445">
        <ele>1172</ele>
        <time>2000-01-01T04:43:54.000Z</time>
      </trkpt>
      <trkpt lat="46.25921" lon="6.74458">
        <ele>1170</ele>
        <time>2000-01-01T04:44:04.000Z</time>
      </trkpt>
      <trkpt lat="46.25947" lon="6.74468">
        <ele>1167</ele>
        <time>2000-01-01T04:44:14.000Z</time>
      </trkpt>
      <trkpt lat="46.25979" lon="6.74482">
        <ele>1166</ele>
        <time>2000-01-01T04:44:24.000Z</time>
      </trkpt>
      <trkpt lat="46.25989" lon="6.74491">
        <ele>1164.8</ele>
        <time>2000-01-01T04:44:34.000Z</time>
      </trkpt>
      <trkpt lat="46.26017" lon="6.74525">
        <ele>1162</ele>
        <time>2000-01-01T04:44:44.000Z</time>
      </trkpt>
      <trkpt lat="46.26026" lon="6.74531">
        <ele>1161.3</ele>
        <time>2000-01-01T04:44:54.000Z</time>
      </trkpt>
      <trkpt lat="46.26052" lon="6.74533">
        <ele>1157</ele>
        <time>2000-01-01T04:45:04.000Z</time>
      </trkpt>
      <trkpt lat="46.26066" lon="6.74529">
        <ele>1157.2</ele>
        <time>2000-01-01T04:45:14.000Z</time>
      </trkpt>
      <trkpt lat="46.2607" lon="6.74526">
        <ele>1154</ele>
        <time>2000-01-01T04:45:24.000Z</time>
      </trkpt>
      <trkpt lat="46.26076" lon="6.74519">
        <ele>1155.9</ele>
        <time>2000-01-01T04:45:34.000Z</time>
      </trkpt>
      <trkpt lat="46.26153" lon="6.74343">
        <ele>1138</ele>
        <time>2000-01-01T04:45:44.000Z</time>
      </trkpt>
      <trkpt lat="46.26158" lon="6.74309">
        <ele>1133</ele>
        <time>2000-01-01T04:45:54.000Z</time>
      </trkpt>
      <trkpt lat="46.26164" lon="6.74274">
        <ele>1133</ele>
        <time>2000-01-01T04:46:04.000Z</time>
      </trkpt>
      <trkpt lat="46.26169" lon="6.74257">
        <ele>1132.3</ele>
        <time>2000-01-01T04:46:14.000Z</time>
      </trkpt>
      <trkpt lat="46.26214" lon="6.74174">
        <ele>1123</ele>
        <time>2000-01-01T04:46:24.000Z</time>
      </trkpt>
      <trkpt lat="46.26223" lon="6.74115">
        <ele>1119</ele>
        <time>2000-01-01T04:46:34.000Z</time>
      </trkpt>
      <trkpt lat="46.26233" lon="6.74096">
        <ele>1116.3</ele>
        <time>2000-01-01T04:46:44.000Z</time>
      </trkpt>
      <trkpt lat="46.26278" lon="6.74057">
        <ele>1111</ele>
        <time>2000-01-01T04:46:54.000Z</time>
      </trkpt>
      <trkpt lat="46.26311" lon="6.74045">
        <ele>1110</ele>
        <time>2000-01-01T04:47:04.000Z</time>
      </trkpt>
      <trkpt lat="46.26335" lon="6.74026">
        <ele>1108</ele>
        <time>2000-01-01T04:47:14.000Z</time>
      </trkpt>
      <trkpt lat="46.26369" lon="6.73998">
        <ele>1105</ele>
        <time>2000-01-01T04:47:24.000Z</time>
      </trkpt>
      <trkpt lat="46.26374" lon="6.73988">
        <ele>1108.2</ele>
        <time>2000-01-01T04:47:34.000Z</time>
      </trkpt>
      <trkpt lat="46.26374" lon="6.73972">
        <ele>1105</ele>
        <time>2000-01-01T04:47:44.000Z</time>
      </trkpt>
      <trkpt lat="46.26367" lon="6.73946">
        <ele>1103</ele>
        <time>2000-01-01T04:47:54.000Z</time>
      </trkpt>
      <trkpt lat="46.2637" lon="6.73926">
        <ele>1102.5</ele>
        <time>2000-01-01T04:48:04.000Z</time>
      </trkpt>
      <trkpt lat="46.26376" lon="6.73915">
        <ele>1098</ele>
        <time>2000-01-01T04:48:14.000Z</time>
      </trkpt>
      <trkpt lat="46.264" lon="6.73895">
        <ele>1096</ele>
        <time>2000-01-01T04:48:24.000Z</time>
      </trkpt>
      <trkpt lat="46.26407" lon="6.73885">
        <ele>1099.4</ele>
        <time>2000-01-01T04:48:34.000Z</time>
      </trkpt>
      <trkpt lat="46.26413" lon="6.73869">
        <ele>1096</ele>
        <time>2000-01-01T04:48:44.000Z</time>
      </trkpt>
      <trkpt lat="46.26417" lon="6.73851">
        <ele>1099</ele>
        <time>2000-01-01T04:48:54.000Z</time>
      </trkpt>
      <trkpt lat="46.26435" lon="6.73695">
        <ele>1089</ele>
        <time>2000-01-01T04:49:04.000Z</time>
      </trkpt>
      <trkpt lat="46.2644" lon="6.73671">
        <ele>1088.5</ele>
        <time>2000-01-01T04:49:14.000Z</time>
      </trkpt>
      <trkpt lat="46.26457" lon="6.7361">
        <ele>1082</ele>
        <time>2000-01-01T04:49:24.000Z</time>
      </trkpt>
      <trkpt lat="46.26468" lon="6.73578">
        <ele>1081</ele>
        <time>2000-01-01T04:49:34.000Z</time>
      </trkpt>
      <trkpt lat="46.26482" lon="6.7354">
        <ele>1080</ele>
        <time>2000-01-01T04:49:44.000Z</time>
      </trkpt>
      <trkpt lat="46.26492" lon="6.73502">
        <ele>1079</ele>
        <time>2000-01-01T04:49:54.000Z</time>
      </trkpt>
      <trkpt lat="46.26506" lon="6.73445">
        <ele>1073</ele>
        <time>2000-01-01T04:50:04.000Z</time>
      </trkpt>
      <trkpt lat="46.26516" lon="6.73408">
        <ele>1071</ele>
        <time>2000-01-01T04:50:14.000Z</time>
      </trkpt>
      <trkpt lat="46.26529" lon="6.73353">
        <ele>1068</ele>
        <time>2000-01-01T04:50:24.000Z</time>
      </trkpt>
      <trkpt lat="46.26543" lon="6.73319">
        <ele>1066</ele>
        <time>2000-01-01T04:50:34.000Z</time>
      </trkpt>
      <trkpt lat="46.26565" lon="6.7329">
        <ele>1064</ele>
        <time>2000-01-01T04:50:44.000Z</time>
      </trkpt>
      <trkpt lat="46.26584" lon="6.73265">
        <ele>1063</ele>
        <time>2000-01-01T04:50:54.000Z</time>
      </trkpt>
      <trkpt lat="46.26606" lon="6.73236">
        <ele>1061</ele>
        <time>2000-01-01T04:51:04.000Z</time>
      </trkpt>
      <trkpt lat="46.26632" lon="6.73203">
        <ele>1060</ele>
        <time>2000-01-01T04:51:14.000Z</time>
      </trkpt>
      <trkpt lat="46.26653" lon="6.73178">
        <ele>1057</ele>
        <time>2000-01-01T04:51:24.000Z</time>
      </trkpt>
      <trkpt lat="46.26681" lon="6.73144">
        <ele>1054</ele>
        <time>2000-01-01T04:51:34.000Z</time>
      </trkpt>
      <trkpt lat="46.26693" lon="6.73133">
        <ele>1054.1</ele>
        <time>2000-01-01T04:51:44.000Z</time>
      </trkpt>
      <trkpt lat="46.26719" lon="6.73117">
        <ele>1047</ele>
        <time>2000-01-01T04:51:54.000Z</time>
      </trkpt>
      <trkpt lat="46.2673" lon="6.73094">
        <ele>1047</ele>
        <time>2000-01-01T04:52:04.000Z</time>
      </trkpt>
      <trkpt lat="46.26746" lon="6.73042">
        <ele>1047</ele>
        <time>2000-01-01T04:52:14.000Z</time>
      </trkpt>
      <trkpt lat="46.26754" lon="6.73028">
        <ele>1048.5</ele>
        <time>2000-01-01T04:52:24.000Z</time>
      </trkpt>
      <trkpt lat="46.26769" lon="6.73019">
        <ele>1046</ele>
        <time>2000-01-01T04:52:34.000Z</time>
      </trkpt>
      <trkpt lat="46.26797" lon="6.7301">
        <ele>1043</ele>
        <time>2000-01-01T04:52:44.000Z</time>
      </trkpt>
      <trkpt lat="46.26809" lon="6.72999">
        <ele>1046.1</ele>
        <time>2000-01-01T04:52:54.000Z</time>
      </trkpt>
      <trkpt lat="46.26816" lon="6.72987">
        <ele>1039</ele>
        <time>2000-01-01T04:53:04.000Z</time>
      </trkpt>
      <trkpt lat="46.26827" lon="6.72951">
        <ele>1038</ele>
        <time>2000-01-01T04:53:14.000Z</time>
      </trkpt>
      <trkpt lat="46.26835" lon="6.72935">
        <ele>1041.2</ele>
        <time>2000-01-01T04:53:24.000Z</time>
      </trkpt>
      <trkpt lat="46.26856" lon="6.72916">
        <ele>1038</ele>
        <time>2000-01-01T04:53:34.000Z</time>
      </trkpt>
      <trkpt lat="46.26882" lon="6.72887">
        <ele>1036</ele>
        <time>2000-01-01T04:53:44.000Z</time>
      </trkpt>
      <trkpt lat="46.26908" lon="6.72858">
        <ele>1029</ele>
        <time>2000-01-01T04:53:54.000Z</time>
      </trkpt>
      <trkpt lat="46.26927" lon="6.72838">
        <ele>1024</ele>
        <time>2000-01-01T04:54:04.000Z</time>
      </trkpt>
      <trkpt lat="46.26946" lon="6.72817">
        <ele>1024</ele>
        <time>2000-01-01T04:54:14.000Z</time>
      </trkpt>
      <trkpt lat="46.26977" lon="6.72785">
        <ele>1022</ele>
        <time>2000-01-01T04:54:24.000Z</time>
      </trkpt>
      <trkpt lat="46.26996" lon="6.72764">
        <ele>1019</ele>
        <time>2000-01-01T04:54:34.000Z</time>
      </trkpt>
      <trkpt lat="46.27015" lon="6.72743">
        <ele>1018</ele>
        <time>2000-01-01T04:54:44.000Z</time>
      </trkpt>
      <trkpt lat="46.2704" lon="6.72726">
        <ele>1015</ele>
        <time>2000-01-01T04:54:54.000Z</time>
      </trkpt>
      <trkpt lat="46.27075" lon="6.72703">
        <ele>1013</ele>
        <time>2000-01-01T04:55:04.000Z</time>
      </trkpt>
      <trkpt lat="46.27096" lon="6.72688">
        <ele>1011</ele>
        <time>2000-01-01T04:55:14.000Z</time>
      </trkpt>
      <trkpt lat="46.27117" lon="6.72674">
        <ele>1010</ele>
        <time>2000-01-01T04:55:24.000Z</time>
      </trkpt>
      <trkpt lat="46.27137" lon="6.72656">
        <ele>1005</ele>
        <time>2000-01-01T04:55:34.000Z</time>
      </trkpt>
      <trkpt lat="46.27159" lon="6.72638">
        <ele>1002</ele>
        <time>2000-01-01T04:55:44.000Z</time>
      </trkpt>
      <trkpt lat="46.27171" lon="6.72624">
        <ele>1006.3</ele>
        <time>2000-01-01T04:55:54.000Z</time>
      </trkpt>
      <trkpt lat="46.27201" lon="6.72575">
        <ele>1002</ele>
        <time>2000-01-01T04:56:04.000Z</time>
      </trkpt>
      <trkpt lat="46.27217" lon="6.72531">
        <ele>1000</ele>
        <time>2000-01-01T04:56:14.000Z</time>
      </trkpt>
      <trkpt lat="46.27233" lon="6.725">
        <ele>997</ele>
        <time>2000-01-01T04:56:24.000Z</time>
      </trkpt>
      <trkpt lat="46.27255" lon="6.72472">
        <ele>997</ele>
        <time>2000-01-01T04:56:34.000Z</time>
      </trkpt>
      <trkpt lat="46.27272" lon="6.72448">
        <ele>995</ele>
        <time>2000-01-01T04:56:44.000Z</time>
      </trkpt>
      <trkpt lat="46.2729" lon="6.72424">
        <ele>995</ele>
        <time>2000-01-01T04:56:54.000Z</time>
      </trkpt>
      <trkpt lat="46.27306" lon="6.72409">
        <ele>994</ele>
        <time>2000-01-01T04:57:04.000Z</time>
      </trkpt>
      <trkpt lat="46.27343" lon="6.72385">
        <ele>992</ele>
        <time>2000-01-01T04:57:14.000Z</time>
      </trkpt>
      <trkpt lat="46.27368" lon="6.7237">
        <ele>991</ele>
        <time>2000-01-01T04:57:24.000Z</time>
      </trkpt>
      <trkpt lat="46.27403" lon="6.72349">
        <ele>988</ele>
        <time>2000-01-01T04:57:34.000Z</time>
      </trkpt>
      <trkpt lat="46.27439" lon="6.72347">
        <ele>984</ele>
        <time>2000-01-01T04:57:44.000Z</time>
      </trkpt>
      <trkpt lat="46.27466" lon="6.72335">
        <ele>984</ele>
        <time>2000-01-01T04:57:54.000Z</time>
      </trkpt>
      <trkpt lat="46.27509" lon="6.72317">
        <ele>979</ele>
        <time>2000-01-01T04:58:04.000Z</time>
      </trkpt>
      <trkpt lat="46.27534" lon="6.72308">
        <ele>978</ele>
        <time>2000-01-01T04:58:14.000Z</time>
      </trkpt>
      <trkpt lat="46.27564" lon="6.72311">
        <ele>977</ele>
        <time>2000-01-01T04:58:24.000Z</time>
      </trkpt>
      <trkpt lat="46.27573" lon="6.7231">
        <ele>978</ele>
        <time>2000-01-01T04:58:34.000Z</time>
      </trkpt>
      <trkpt lat="46.27584" lon="6.72298">
        <ele>974</ele>
        <time>2000-01-01T04:58:44.000Z</time>
      </trkpt>
      <trkpt lat="46.27602" lon="6.7227">
        <ele>972</ele>
        <time>2000-01-01T04:58:54.000Z</time>
      </trkpt>
      <trkpt lat="46.27613" lon="6.72257">
        <ele>971.4</ele>
        <time>2000-01-01T04:59:04.000Z</time>
      </trkpt>
      <trkpt lat="46.27623" lon="6.72251">
        <ele>971</ele>
        <time>2000-01-01T04:59:14.000Z</time>
      </trkpt>
      <trkpt lat="46.27669" lon="6.7225">
        <ele>965</ele>
        <time>2000-01-01T04:59:24.000Z</time>
      </trkpt>
      <trkpt lat="46.27708" lon="6.72234">
        <ele>963</ele>
        <time>2000-01-01T04:59:34.000Z</time>
      </trkpt>
      <trkpt lat="46.27724" lon="6.72233">
        <ele>962.7</ele>
        <time>2000-01-01T04:59:44.000Z</time>
      </trkpt>
      <trkpt lat="46.27738" lon="6.72242">
        <ele>962</ele>
        <time>2000-01-01T04:59:54.000Z</time>
      </trkpt>
      <trkpt lat="46.27758" lon="6.72264">
        <ele>960</ele>
        <time>2000-01-01T05:00:04.000Z</time>
      </trkpt>
      <trkpt lat="46.27779" lon="6.72289">
        <ele>957</ele>
        <time>2000-01-01T05:00:14.000Z</time>
      </trkpt>
      <trkpt lat="46.27804" lon="6.72302">
        <ele>954</ele>
        <time>2000-01-01T05:00:24.000Z</time>
      </trkpt>
      <trkpt lat="46.27837" lon="6.7232">
        <ele>950</ele>
        <time>2000-01-01T05:00:34.000Z</time>
      </trkpt>
      <trkpt lat="46.27853" lon="6.72334">
        <ele>948</ele>
        <time>2000-01-01T05:00:44.000Z</time>
      </trkpt>
      <trkpt lat="46.27873" lon="6.72361">
        <ele>946</ele>
        <time>2000-01-01T05:00:54.000Z</time>
      </trkpt>
      <trkpt lat="46.2788" lon="6.72368">
        <ele>946.9</ele>
        <time>2000-01-01T05:01:04.000Z</time>
      </trkpt>
      <trkpt lat="46.27887" lon="6.7237">
        <ele>945.4</ele>
        <time>2000-01-01T05:01:14.000Z</time>
      </trkpt>
      <trkpt lat="46.27893" lon="6.72367">
        <ele>943</ele>
        <time>2000-01-01T05:01:24.000Z</time>
      </trkpt>
      <trkpt lat="46.27897" lon="6.72358">
        <ele>941.2</ele>
        <time>2000-01-01T05:01:34.000Z</time>
      </trkpt>
      <trkpt lat="46.27897" lon="6.72342">
        <ele>939.4</ele>
        <time>2000-01-01T05:01:44.000Z</time>
      </trkpt>
      <trkpt lat="46.27892" lon="6.72334">
        <ele>940</ele>
        <time>2000-01-01T05:01:54.000Z</time>
      </trkpt>
      <trkpt lat="46.27873" lon="6.72316">
        <ele>939</ele>
        <time>2000-01-01T05:02:04.000Z</time>
      </trkpt>
      <trkpt lat="46.27866" lon="6.72292">
        <ele>938.5</ele>
        <time>2000-01-01T05:02:14.000Z</time>
      </trkpt>
      <trkpt lat="46.27848" lon="6.72187">
        <ele>933</ele>
        <time>2000-01-01T05:02:24.000Z</time>
      </trkpt>
      <trkpt lat="46.27848" lon="6.72153">
        <ele>929</ele>
        <time>2000-01-01T05:02:34.000Z</time>
      </trkpt>
      <trkpt lat="46.27857" lon="6.72171">
        <ele>928.1</ele>
        <time>2000-01-01T05:02:44.000Z</time>
      </trkpt>
      <trkpt lat="46.27878" lon="6.72186">
        <ele>925</ele>
        <time>2000-01-01T05:02:54.000Z</time>
      </trkpt>
      <trkpt lat="46.27884" lon="6.72194">
        <ele>924.7</ele>
        <time>2000-01-01T05:03:04.000Z</time>
      </trkpt>
      <trkpt lat="46.27897" lon="6.72188">
        <ele>923</ele>
        <time>2000-01-01T05:03:14.000Z</time>
      </trkpt>
      <trkpt lat="46.27905" lon="6.72193">
        <ele>923.4</ele>
        <time>2000-01-01T05:03:24.000Z</time>
      </trkpt>
      <trkpt lat="46.27914" lon="6.72217">
        <ele>922</ele>
        <time>2000-01-01T05:03:34.000Z</time>
      </trkpt>
      <trkpt lat="46.27919" lon="6.72222">
        <ele>922.9</ele>
        <time>2000-01-01T05:03:44.000Z</time>
      </trkpt>
      <trkpt lat="46.2794" lon="6.72222">
        <ele>922</ele>
        <time>2000-01-01T05:03:54.000Z</time>
      </trkpt>
      <trkpt lat="46.27952" lon="6.72226">
        <ele>922</ele>
        <time>2000-01-01T05:04:04.000Z</time>
      </trkpt>
      <trkpt lat="46.27956" lon="6.72239">
        <ele>921</ele>
        <time>2000-01-01T05:04:14.000Z</time>
      </trkpt>
      <trkpt lat="46.27964" lon="6.72251">
        <ele>921.3</ele>
        <time>2000-01-01T05:04:24.000Z</time>
      </trkpt>
      <trkpt lat="46.27957" lon="6.72268">
        <ele>921</ele>
        <time>2000-01-01T05:04:34.000Z</time>
      </trkpt>
      <trkpt lat="46.27956" lon="6.72281">
        <ele>921.1</ele>
        <time>2000-01-01T05:04:44.000Z</time>
      </trkpt>
      <trkpt lat="46.27957" lon="6.72293">
        <ele>921.5</ele>
        <time>2000-01-01T05:04:54.000Z</time>
      </trkpt>
      <trkpt lat="46.27972" lon="6.72336">
        <ele>921</ele>
        <time>2000-01-01T05:05:04.000Z</time>
      </trkpt>
      <trkpt lat="46.27985" lon="6.7238">
        <ele>922</ele>
        <time>2000-01-01T05:05:14.000Z</time>
      </trkpt>
      <trkpt lat="46.28006" lon="6.72438">
        <ele>922</ele>
        <time>2000-01-01T05:05:24.000Z</time>
      </trkpt>
      <trkpt lat="46.2802" lon="6.72463">
        <ele>922</ele>
        <time>2000-01-01T05:05:34.000Z</time>
      </trkpt>
      <trkpt lat="46.28034" lon="6.72502">
        <ele>923</ele>
        <time>2000-01-01T05:05:44.000Z</time>
      </trkpt>
      <trkpt lat="46.28045" lon="6.72535">
        <ele>923</ele>
        <time>2000-01-01T05:05:54.000Z</time>
      </trkpt>
      <trkpt lat="46.28059" lon="6.72575">
        <ele>923</ele>
        <time>2000-01-01T05:06:04.000Z</time>
      </trkpt>
      <trkpt lat="46.28065" lon="6.72583">
        <ele>924.3</ele>
        <time>2000-01-01T05:06:14.000Z</time>
      </trkpt>
      <trkpt lat="46.28073" lon="6.72589">
        <ele>924.6</ele>
        <time>2000-01-01T05:06:24.000Z</time>
      </trkpt>
      <trkpt lat="46.28081" lon="6.72587">
        <ele>924</ele>
        <time>2000-01-01T05:06:34.000Z</time>
      </trkpt>
      <trkpt lat="46.28108" lon="6.72572">
        <ele>924</ele>
        <time>2000-01-01T05:06:44.000Z</time>
      </trkpt>
      <trkpt lat="46.28131" lon="6.7256">
        <ele>924</ele>
        <time>2000-01-01T05:06:54.000Z</time>
      </trkpt>
      <trkpt lat="46.28154" lon="6.72547">
        <ele>925</ele>
        <time>2000-01-01T05:07:04.000Z</time>
      </trkpt>
      <trkpt lat="46.28162" lon="6.72549">
        <ele>925.7</ele>
        <time>2000-01-01T05:07:14.000Z</time>
      </trkpt>
      <trkpt lat="46.28168" lon="6.7256">
        <ele>926</ele>
        <time>2000-01-01T05:07:24.000Z</time>
      </trkpt>
      <trkpt lat="46.28161" lon="6.72631">
        <ele>925</ele>
        <time>2000-01-01T05:07:34.000Z</time>
      </trkpt>
      <trkpt lat="46.28162" lon="6.72667">
        <ele>925</ele>
        <time>2000-01-01T05:07:44.000Z</time>
      </trkpt>
      <trkpt lat="46.28166" lon="6.72702">
        <ele>924</ele>
        <time>2000-01-01T05:07:54.000Z</time>
      </trkpt>
      <trkpt lat="46.28177" lon="6.72741">
        <ele>924</ele>
        <time>2000-01-01T05:08:04.000Z</time>
      </trkpt>
      <trkpt lat="46.2818" lon="6.72763">
        <ele>925.5</ele>
        <time>2000-01-01T05:08:14.000Z</time>
      </trkpt>
      <trkpt lat="46.28179" lon="6.72789">
        <ele>925</ele>
        <time>2000-01-01T05:08:24.000Z</time>
      </trkpt>
      <trkpt lat="46.28166" lon="6.72818">
        <ele>925</ele>
        <time>2000-01-01T05:08:34.000Z</time>
      </trkpt>
      <trkpt lat="46.28151" lon="6.7285">
        <ele>925</ele>
        <time>2000-01-01T05:08:44.000Z</time>
      </trkpt>
      <trkpt lat="46.28141" lon="6.72893">
        <ele>926</ele>
        <time>2000-01-01T05:08:54.000Z</time>
      </trkpt>
      <trkpt lat="46.2814" lon="6.72919">
        <ele>926.2</ele>
        <time>2000-01-01T05:09:04.000Z</time>
      </trkpt>
      <trkpt lat="46.28155" lon="6.73021">
        <ele>928</ele>
        <time>2000-01-01T05:09:14.000Z</time>
      </trkpt>
      <trkpt lat="46.28158" lon="6.73058">
        <ele>929</ele>
        <time>2000-01-01T05:09:24.000Z</time>
      </trkpt>
      <trkpt lat="46.28157" lon="6.73081">
        <ele>928.1</ele>
        <time>2000-01-01T05:09:34.000Z</time>
      </trkpt>
      <trkpt lat="46.28168" lon="6.73164">
        <ele>931</ele>
        <time>2000-01-01T05:09:44.000Z</time>
      </trkpt>
      <trkpt lat="46.28169" lon="6.73198">
        <ele>934</ele>
        <time>2000-01-01T05:09:54.000Z</time>
      </trkpt>
      <trkpt lat="46.28169" lon="6.73233">
        <ele>934</ele>
        <time>2000-01-01T05:10:04.000Z</time>
      </trkpt>
      <trkpt lat="46.28172" lon="6.73253">
        <ele>933.5</ele>
        <time>2000-01-01T05:10:14.000Z</time>
      </trkpt>
      <trkpt lat="46.28185" lon="6.73294">
        <ele>931</ele>
        <time>2000-01-01T05:10:24.000Z</time>
      </trkpt>
      <trkpt lat="46.28198" lon="6.73312">
        <ele>930.6</ele>
        <time>2000-01-01T05:10:34.000Z</time>
      </trkpt>
      <trkpt lat="46.28221" lon="6.73323">
        <ele>929</ele>
        <time>2000-01-01T05:10:44.000Z</time>
      </trkpt>
      <trkpt lat="46.2825" lon="6.73331">
        <ele>929</ele>
        <time>2000-01-01T05:10:54.000Z</time>
      </trkpt>
      <trkpt lat="46.28274" lon="6.73338">
        <ele>929</ele>
        <time>2000-01-01T05:11:04.000Z</time>
      </trkpt>
      <trkpt lat="46.283" lon="6.73346">
        <ele>930</ele>
        <time>2000-01-01T05:11:14.000Z</time>
      </trkpt>
      <trkpt lat="46.28315" lon="6.73358">
        <ele>930</ele>
        <time>2000-01-01T05:11:24.000Z</time>
      </trkpt>
      <trkpt lat="46.28323" lon="6.7337">
        <ele>930</ele>
        <time>2000-01-01T05:11:34.000Z</time>
      </trkpt>
      <trkpt lat="46.28337" lon="6.73398">
        <ele>931</ele>
        <time>2000-01-01T05:11:44.000Z</time>
      </trkpt>
      <trkpt lat="46.28353" lon="6.73428">
        <ele>931</ele>
        <time>2000-01-01T05:11:54.000Z</time>
      </trkpt>
      <trkpt lat="46.28367" lon="6.73467">
        <ele>931</ele>
        <time>2000-01-01T05:12:04.000Z</time>
      </trkpt>
      <trkpt lat="46.28378" lon="6.73499">
        <ele>931</ele>
        <time>2000-01-01T05:12:14.000Z</time>
      </trkpt>
      <trkpt lat="46.28392" lon="6.73538">
        <ele>932</ele>
        <time>2000-01-01T05:12:24.000Z</time>
      </trkpt>
      <trkpt lat="46.28399" lon="6.73546">
        <ele>933.2</ele>
        <time>2000-01-01T05:12:34.000Z</time>
      </trkpt>
      <trkpt lat="46.28413" lon="6.73593">
        <ele>935</ele>
        <time>2000-01-01T05:12:44.000Z</time>
      </trkpt>
      <trkpt lat="46.28416" lon="6.73643">
        <ele>937</ele>
        <time>2000-01-01T05:12:54.000Z</time>
      </trkpt>
      <trkpt lat="46.28419" lon="6.73678">
        <ele>938</ele>
        <time>2000-01-01T05:13:04.000Z</time>
      </trkpt>
      <trkpt lat="46.28423" lon="6.73718">
        <ele>938</ele>
        <time>2000-01-01T05:13:14.000Z</time>
      </trkpt>
      <trkpt lat="46.28427" lon="6.73754">
        <ele>937</ele>
        <time>2000-01-01T05:13:24.000Z</time>
      </trkpt>
      <trkpt lat="46.28433" lon="6.73769">
        <ele>937.8</ele>
        <time>2000-01-01T05:13:34.000Z</time>
      </trkpt>
      <trkpt lat="46.28472" lon="6.73834">
        <ele>937</ele>
        <time>2000-01-01T05:13:44.000Z</time>
      </trkpt>
      <trkpt lat="46.28493" lon="6.73876">
        <ele>937</ele>
        <time>2000-01-01T05:13:54.000Z</time>
      </trkpt>
      <trkpt lat="46.28504" lon="6.73922">
        <ele>940</ele>
        <time>2000-01-01T05:14:04.000Z</time>
      </trkpt>
      <trkpt lat="46.28515" lon="6.73968">
        <ele>941</ele>
        <time>2000-01-01T05:14:14.000Z</time>
      </trkpt>
      <trkpt lat="46.28523" lon="6.74003">
        <ele>941</ele>
        <time>2000-01-01T05:14:24.000Z</time>
      </trkpt>
      <trkpt lat="46.28533" lon="6.74045">
        <ele>941</ele>
        <time>2000-01-01T05:14:34.000Z</time>
      </trkpt>
      <trkpt lat="46.28532" lon="6.74066">
        <ele>940.9</ele>
        <time>2000-01-01T05:14:44.000Z</time>
      </trkpt>
      <trkpt lat="46.28528" lon="6.74085">
        <ele>942</ele>
        <time>2000-01-01T05:14:54.000Z</time>
      </trkpt>
      <trkpt lat="46.28529" lon="6.74098">
        <ele>940.9</ele>
        <time>2000-01-01T05:15:04.000Z</time>
      </trkpt>
      <trkpt lat="46.28558" lon="6.74162">
        <ele>942</ele>
        <time>2000-01-01T05:15:14.000Z</time>
      </trkpt>
      <trkpt lat="46.28562" lon="6.74176">
        <ele>941.8</ele>
        <time>2000-01-01T05:15:24.000Z</time>
      </trkpt>
      <trkpt lat="46.28562" lon="6.74189">
        <ele>942</ele>
        <time>2000-01-01T05:15:34.000Z</time>
      </trkpt>
      <trkpt lat="46.28555" lon="6.74216">
        <ele>942</ele>
        <time>2000-01-01T05:15:44.000Z</time>
      </trkpt>
      <trkpt lat="46.28556" lon="6.74236">
        <ele>941.5</ele>
        <time>2000-01-01T05:15:54.000Z</time>
      </trkpt>
      <trkpt lat="46.28597" lon="6.74375">
        <ele>941</ele>
        <time>2000-01-01T05:16:04.000Z</time>
      </trkpt>
      <trkpt lat="46.28604" lon="6.74411">
        <ele>941</ele>
        <time>2000-01-01T05:16:14.000Z</time>
      </trkpt>
      <trkpt lat="46.28606" lon="6.74457">
        <ele>941</ele>
        <time>2000-01-01T05:16:24.000Z</time>
      </trkpt>
      <trkpt lat="46.28614" lon="6.74499">
        <ele>942</ele>
        <time>2000-01-01T05:16:34.000Z</time>
      </trkpt>
      <trkpt lat="46.2862" lon="6.74515">
        <ele>944.7</ele>
        <time>2000-01-01T05:16:44.000Z</time>
      </trkpt>
      <trkpt lat="46.28642" lon="6.74551">
        <ele>942</ele>
        <time>2000-01-01T05:16:54.000Z</time>
      </trkpt>
      <trkpt lat="46.28676" lon="6.74562">
        <ele>942</ele>
        <time>2000-01-01T05:17:04.000Z</time>
      </trkpt>
      <trkpt lat="46.28688" lon="6.74562">
        <ele>942.5</ele>
        <time>2000-01-01T05:17:14.000Z</time>
      </trkpt>
      <trkpt lat="46.28757" lon="6.74547">
        <ele>943</ele>
        <time>2000-01-01T05:17:24.000Z</time>
      </trkpt>
      <trkpt lat="46.28778" lon="6.7455">
        <ele>943</ele>
        <time>2000-01-01T05:17:34.000Z</time>
      </trkpt>
      <trkpt lat="46.28789" lon="6.74558">
        <ele>944.5</ele>
        <time>2000-01-01T05:17:44.000Z</time>
      </trkpt>
      <trkpt lat="46.28798" lon="6.74577">
        <ele>945</ele>
        <time>2000-01-01T05:17:54.000Z</time>
      </trkpt>
      <trkpt lat="46.28806" lon="6.74623">
        <ele>945</ele>
        <time>2000-01-01T05:18:04.000Z</time>
      </trkpt>
      <trkpt lat="46.28807" lon="6.7464">
        <ele>946.2</ele>
        <time>2000-01-01T05:18:14.000Z</time>
      </trkpt>
      <trkpt lat="46.28802" lon="6.7472">
        <ele>947</ele>
        <time>2000-01-01T05:18:24.000Z</time>
      </trkpt>
      <trkpt lat="46.28803" lon="6.74739">
        <ele>949.2</ele>
        <time>2000-01-01T05:18:34.000Z</time>
      </trkpt>
      <trkpt lat="46.28807" lon="6.74756">
        <ele>947</ele>
        <time>2000-01-01T05:18:44.000Z</time>
      </trkpt>
      <trkpt lat="46.28832" lon="6.74788">
        <ele>948</ele>
        <time>2000-01-01T05:18:54.000Z</time>
      </trkpt>
      <trkpt lat="46.28844" lon="6.74795">
        <ele>951.3</ele>
        <time>2000-01-01T05:19:04.000Z</time>
      </trkpt>
      <trkpt lat="46.28886" lon="6.7481">
        <ele>949</ele>
        <time>2000-01-01T05:19:14.000Z</time>
      </trkpt>
      <trkpt lat="46.28915" lon="6.74833">
        <ele>950</ele>
        <time>2000-01-01T05:19:24.000Z</time>
      </trkpt>
      <trkpt lat="46.28924" lon="6.74851">
        <ele>952.4</ele>
        <time>2000-01-01T05:19:34.000Z</time>
      </trkpt>
      <trkpt lat="46.28928" lon="6.74867">
        <ele>953</ele>
        <time>2000-01-01T05:19:44.000Z</time>
      </trkpt>
      <trkpt lat="46.28927" lon="6.7488">
        <ele>953.5</ele>
        <time>2000-01-01T05:19:54.000Z</time>
      </trkpt>
      <trkpt lat="46.28915" lon="6.74918">
        <ele>955</ele>
        <time>2000-01-01T05:20:04.000Z</time>
      </trkpt>
      <trkpt lat="46.28911" lon="6.74942">
        <ele>955.8</ele>
        <time>2000-01-01T05:20:14.000Z</time>
      </trkpt>
      <trkpt lat="46.28911" lon="6.74958">
        <ele>955</ele>
        <time>2000-01-01T05:20:24.000Z</time>
      </trkpt>
      <trkpt lat="46.28916" lon="6.75006">
        <ele>954</ele>
        <time>2000-01-01T05:20:34.000Z</time>
      </trkpt>
      <trkpt lat="46.28921" lon="6.75027">
        <ele>955.6</ele>
        <time>2000-01-01T05:20:44.000Z</time>
      </trkpt>
      <trkpt lat="46.28931" lon="6.75044">
        <ele>954</ele>
        <time>2000-01-01T05:20:54.000Z</time>
      </trkpt>
      <trkpt lat="46.2896" lon="6.75071">
        <ele>957</ele>
        <time>2000-01-01T05:21:04.000Z</time>
      </trkpt>
      <trkpt lat="46.28963" lon="6.75081">
        <ele>959.8</ele>
        <time>2000-01-01T05:21:14.000Z</time>
      </trkpt>
      <trkpt lat="46.28958" lon="6.75096">
        <ele>962</ele>
        <time>2000-01-01T05:21:24.000Z</time>
      </trkpt>
      <trkpt lat="46.28945" lon="6.75109">
        <ele>961.1</ele>
        <time>2000-01-01T05:21:34.000Z</time>
      </trkpt>
      <trkpt lat="46.28933" lon="6.75127">
        <ele>965</ele>
        <time>2000-01-01T05:21:44.000Z</time>
      </trkpt>
      <trkpt lat="46.28929" lon="6.7514">
        <ele>962.6</ele>
        <time>2000-01-01T05:21:54.000Z</time>
      </trkpt>
      <trkpt lat="46.28929" lon="6.75154">
        <ele>962</ele>
        <time>2000-01-01T05:22:04.000Z</time>
      </trkpt>
      <trkpt lat="46.28934" lon="6.75167">
        <ele>961.6</ele>
        <time>2000-01-01T05:22:14.000Z</time>
      </trkpt>
      <trkpt lat="46.28942" lon="6.75176">
        <ele>960</ele>
        <time>2000-01-01T05:22:24.000Z</time>
      </trkpt>
      <trkpt lat="46.28968" lon="6.75191">
        <ele>959</ele>
        <time>2000-01-01T05:22:34.000Z</time>
      </trkpt>
      <trkpt lat="46.29007" lon="6.75215">
        <ele>959</ele>
        <time>2000-01-01T05:22:44.000Z</time>
      </trkpt>
      <trkpt lat="46.29016" lon="6.75237">
        <ele>959.7</ele>
        <time>2000-01-01T05:22:54.000Z</time>
      </trkpt>
      <trkpt lat="46.29017" lon="6.75262">
        <ele>960</ele>
        <time>2000-01-01T05:23:04.000Z</time>
      </trkpt>
      <trkpt lat="46.29013" lon="6.7529">
        <ele>960</ele>
        <time>2000-01-01T05:23:14.000Z</time>
      </trkpt>
      <trkpt lat="46.28998" lon="6.75348">
        <ele>962</ele>
        <time>2000-01-01T05:23:24.000Z</time>
      </trkpt>
      <trkpt lat="46.28993" lon="6.75387">
        <ele>962</ele>
        <time>2000-01-01T05:23:34.000Z</time>
      </trkpt>
      <trkpt lat="46.28993" lon="6.75414">
        <ele>962</ele>
        <time>2000-01-01T05:23:44.000Z</time>
      </trkpt>
      <trkpt lat="46.28997" lon="6.75436">
        <ele>963</ele>
        <time>2000-01-01T05:23:54.000Z</time>
      </trkpt>
      <trkpt lat="46.29008" lon="6.75463">
        <ele>962</ele>
        <time>2000-01-01T05:24:04.000Z</time>
      </trkpt>
      <trkpt lat="46.29033" lon="6.7549">
        <ele>962</ele>
        <time>2000-01-01T05:24:14.000Z</time>
      </trkpt>
      <trkpt lat="46.29053" lon="6.75513">
        <ele>962</ele>
        <time>2000-01-01T05:24:24.000Z</time>
      </trkpt>
      <trkpt lat="46.29079" lon="6.75542">
        <ele>963</ele>
        <time>2000-01-01T05:24:34.000Z</time>
      </trkpt>
      <trkpt lat="46.29097" lon="6.75567">
        <ele>963</ele>
        <time>2000-01-01T05:24:44.000Z</time>
      </trkpt>
      <trkpt lat="46.2911" lon="6.75598">
        <ele>964</ele>
        <time>2000-01-01T05:24:54.000Z</time>
      </trkpt>
      <trkpt lat="46.29124" lon="6.75632">
        <ele>966</ele>
        <time>2000-01-01T05:25:04.000Z</time>
      </trkpt>
      <trkpt lat="46.29136" lon="6.75663">
        <ele>966</ele>
        <time>2000-01-01T05:25:14.000Z</time>
      </trkpt>
      <trkpt lat="46.29157" lon="6.7569">
        <ele>966</ele>
        <time>2000-01-01T05:25:24.000Z</time>
      </trkpt>
      <trkpt lat="46.29193" lon="6.75718">
        <ele>964</ele>
        <time>2000-01-01T05:25:34.000Z</time>
      </trkpt>
      <trkpt lat="46.29213" lon="6.7574">
        <ele>964</ele>
        <time>2000-01-01T05:25:44.000Z</time>
      </trkpt>
      <trkpt lat="46.29234" lon="6.75765">
        <ele>968</ele>
        <time>2000-01-01T05:25:54.000Z</time>
      </trkpt>
      <trkpt lat="46.29252" lon="6.75811">
        <ele>969</ele>
        <time>2000-01-01T05:26:04.000Z</time>
      </trkpt>
      <trkpt lat="46.29248" lon="6.7584">
        <ele>969</ele>
        <time>2000-01-01T05:26:14.000Z</time>
      </trkpt>
      <trkpt lat="46.29242" lon="6.75848">
        <ele>967.9</ele>
        <time>2000-01-01T05:26:24.000Z</time>
      </trkpt>
      <trkpt lat="46.29226" lon="6.75862">
        <ele>969</ele>
        <time>2000-01-01T05:26:34.000Z</time>
      </trkpt>
      <trkpt lat="46.29222" lon="6.75876">
        <ele>970.1</ele>
        <time>2000-01-01T05:26:44.000Z</time>
      </trkpt>
      <trkpt lat="46.29215" lon="6.7592">
        <ele>973</ele>
        <time>2000-01-01T05:26:54.000Z</time>
      </trkpt>
      <trkpt lat="46.29216" lon="6.75936">
        <ele>973</ele>
        <time>2000-01-01T05:27:04.000Z</time>
      </trkpt>
      <trkpt lat="46.2922" lon="6.75953">
        <ele>974</ele>
        <time>2000-01-01T05:27:14.000Z</time>
      </trkpt>
      <trkpt lat="46.29234" lon="6.75982">
        <ele>970</ele>
        <time>2000-01-01T05:27:24.000Z</time>
      </trkpt>
      <trkpt lat="46.29239" lon="6.75988">
        <ele>973.5</ele>
        <time>2000-01-01T05:27:34.000Z</time>
      </trkpt>
      <trkpt lat="46.29251" lon="6.7599">
        <ele>972</ele>
        <time>2000-01-01T05:27:44.000Z</time>
      </trkpt>
      <trkpt lat="46.29257" lon="6.75988">
        <ele>969</ele>
        <time>2000-01-01T05:27:54.000Z</time>
      </trkpt>
      <trkpt lat="46.29281" lon="6.75967">
        <ele>968</ele>
        <time>2000-01-01T05:28:04.000Z</time>
      </trkpt>
      <trkpt lat="46.29305" lon="6.75933">
        <ele>968</ele>
        <time>2000-01-01T05:28:14.000Z</time>
      </trkpt>
      <trkpt lat="46.29311" lon="6.75934">
        <ele>969</ele>
        <time>2000-01-01T05:28:24.000Z</time>
      </trkpt>
      <trkpt lat="46.29318" lon="6.75941">
        <ele>969.2</ele>
        <time>2000-01-01T05:28:34.000Z</time>
      </trkpt>
      <trkpt lat="46.29334" lon="6.75991">
        <ele>969</ele>
        <time>2000-01-01T05:28:44.000Z</time>
      </trkpt>
      <trkpt lat="46.29339" lon="6.76013">
        <ele>970.8</ele>
        <time>2000-01-01T05:28:54.000Z</time>
      </trkpt>
      <trkpt lat="46.29343" lon="6.76058">
        <ele>970</ele>
        <time>2000-01-01T05:29:04.000Z</time>
      </trkpt>
      <trkpt lat="46.29338" lon="6.76106">
        <ele>973</ele>
        <time>2000-01-01T05:29:14.000Z</time>
      </trkpt>
      <trkpt lat="46.29339" lon="6.76121">
        <ele>973</ele>
        <time>2000-01-01T05:29:24.000Z</time>
      </trkpt>
      <trkpt lat="46.2936" lon="6.76207">
        <ele>972</ele>
        <time>2000-01-01T05:29:34.000Z</time>
      </trkpt>
      <trkpt lat="46.29377" lon="6.76201">
        <ele>973.4</ele>
        <time>2000-01-01T05:29:44.000Z</time>
      </trkpt>
      <trkpt lat="46.29398" lon="6.76188">
        <ele>972</ele>
        <time>2000-01-01T05:29:54.000Z</time>
      </trkpt>
      <trkpt lat="46.29403" lon="6.76223">
        <ele>972</ele>
        <time>2000-01-01T05:30:04.000Z</time>
      </trkpt>
      <trkpt lat="46.2941" lon="6.76265">
        <ele>972</ele>
        <time>2000-01-01T05:30:14.000Z</time>
      </trkpt>
      <trkpt lat="46.29413" lon="6.76323">
        <ele>972</ele>
        <time>2000-01-01T05:30:24.000Z</time>
      </trkpt>
      <trkpt lat="46.29409" lon="6.76359">
        <ele>972</ele>
        <time>2000-01-01T05:30:34.000Z</time>
      </trkpt>
      <trkpt lat="46.29405" lon="6.76404">
        <ele>973</ele>
        <time>2000-01-01T05:30:44.000Z</time>
      </trkpt>
      <trkpt lat="46.29399" lon="6.76431">
        <ele>973</ele>
        <time>2000-01-01T05:30:54.000Z</time>
      </trkpt>
      <trkpt lat="46.29393" lon="6.76445">
        <ele>973.7</ele>
        <time>2000-01-01T05:31:04.000Z</time>
      </trkpt>
      <trkpt lat="46.29377" lon="6.76473">
        <ele>973</ele>
        <time>2000-01-01T05:31:14.000Z</time>
      </trkpt>
      <trkpt lat="46.29373" lon="6.76487">
        <ele>974.6</ele>
        <time>2000-01-01T05:31:24.000Z</time>
      </trkpt>
      <trkpt lat="46.29374" lon="6.76565">
        <ele>974</ele>
        <time>2000-01-01T05:31:34.000Z</time>
      </trkpt>
      <trkpt lat="46.29373" lon="6.76627">
        <ele>974</ele>
        <time>2000-01-01T05:31:44.000Z</time>
      </trkpt>
      <trkpt lat="46.29359" lon="6.76666">
        <ele>975</ele>
        <time>2000-01-01T05:31:54.000Z</time>
      </trkpt>
      <trkpt lat="46.29348" lon="6.76699">
        <ele>976</ele>
        <time>2000-01-01T05:32:04.000Z</time>
      </trkpt>
      <trkpt lat="46.29335" lon="6.76737">
        <ele>978</ele>
        <time>2000-01-01T05:32:14.000Z</time>
      </trkpt>
      <trkpt lat="46.29323" lon="6.7679">
        <ele>978</ele>
        <time>2000-01-01T05:32:24.000Z</time>
      </trkpt>
      <trkpt lat="46.29318" lon="6.76843">
        <ele>978</ele>
        <time>2000-01-01T05:32:34.000Z</time>
      </trkpt>
      <trkpt lat="46.29313" lon="6.76852">
        <ele>977.7</ele>
        <time>2000-01-01T05:32:44.000Z</time>
      </trkpt>
      <trkpt lat="46.29293" lon="6.76863">
        <ele>977</ele>
        <time>2000-01-01T05:32:54.000Z</time>
      </trkpt>
      <trkpt lat="46.29289" lon="6.76869">
        <ele>977.9</ele>
        <time>2000-01-01T05:33:04.000Z</time>
      </trkpt>
      <trkpt lat="46.2929" lon="6.76879">
        <ele>977.7</ele>
        <time>2000-01-01T05:33:14.000Z</time>
      </trkpt>
      <trkpt lat="46.29311" lon="6.76906">
        <ele>977</ele>
        <time>2000-01-01T05:33:24.000Z</time>
      </trkpt>
      <trkpt lat="46.29319" lon="6.76909">
        <ele>977.6</ele>
        <time>2000-01-01T05:33:34.000Z</time>
      </trkpt>
      <trkpt lat="46.29322" lon="6.76909">
        <ele>977.6</ele>
        <time>2000-01-01T05:33:44.000Z</time>
      </trkpt>
      <trkpt lat="46.2932" lon="6.76934">
        <ele>977</ele>
        <time>2000-01-01T05:33:54.000Z</time>
      </trkpt>
      <trkpt lat="46.29317" lon="6.76946">
        <ele>978</ele>
        <time>2000-01-01T05:34:04.000Z</time>
      </trkpt>
      <trkpt lat="46.29274" lon="6.77045">
        <ele>978</ele>
        <time>2000-01-01T05:34:14.000Z</time>
      </trkpt>
      <trkpt lat="46.29271" lon="6.77102">
        <ele>979</ele>
        <time>2000-01-01T05:34:24.000Z</time>
      </trkpt>
      <trkpt lat="46.29274" lon="6.77112">
        <ele>979.8</ele>
        <time>2000-01-01T05:34:34.000Z</time>
      </trkpt>
      <trkpt lat="46.29309" lon="6.77143">
        <ele>980</ele>
        <time>2000-01-01T05:34:44.000Z</time>
      </trkpt>
      <trkpt lat="46.29325" lon="6.77162">
        <ele>980</ele>
        <time>2000-01-01T05:34:54.000Z</time>
      </trkpt>
      <trkpt lat="46.29343" lon="6.77195">
        <ele>980</ele>
        <time>2000-01-01T05:35:04.000Z</time>
      </trkpt>
      <trkpt lat="46.29352" lon="6.77221">
        <ele>980</ele>
        <time>2000-01-01T05:35:14.000Z</time>
      </trkpt>
      <trkpt lat="46.2936" lon="6.77266">
        <ele>980</ele>
        <time>2000-01-01T05:35:24.000Z</time>
      </trkpt>
      <trkpt lat="46.29364" lon="6.77309">
        <ele>981</ele>
        <time>2000-01-01T05:35:34.000Z</time>
      </trkpt>
      <trkpt lat="46.29367" lon="6.77346">
        <ele>981</ele>
        <time>2000-01-01T05:35:44.000Z</time>
      </trkpt>
      <trkpt lat="46.29371" lon="6.7739">
        <ele>981</ele>
        <time>2000-01-01T05:35:54.000Z</time>
      </trkpt>
      <trkpt lat="46.2937" lon="6.77433">
        <ele>981</ele>
        <time>2000-01-01T05:36:04.000Z</time>
      </trkpt>
      <trkpt lat="46.29362" lon="6.77458">
        <ele>982</ele>
        <time>2000-01-01T05:36:14.000Z</time>
      </trkpt>
      <trkpt lat="46.29345" lon="6.77502">
        <ele>983</ele>
        <time>2000-01-01T05:36:24.000Z</time>
      </trkpt>
      <trkpt lat="46.29343" lon="6.77542">
        <ele>983</ele>
        <time>2000-01-01T05:36:34.000Z</time>
      </trkpt>
      <trkpt lat="46.29341" lon="6.77599">
        <ele>983</ele>
        <time>2000-01-01T05:36:44.000Z</time>
      </trkpt>
      <trkpt lat="46.29339" lon="6.77634">
        <ele>984</ele>
        <time>2000-01-01T05:36:54.000Z</time>
      </trkpt>
      <trkpt lat="46.29337" lon="6.77672">
        <ele>984</ele>
        <time>2000-01-01T05:37:04.000Z</time>
      </trkpt>
      <trkpt lat="46.29326" lon="6.77736">
        <ele>984</ele>
        <time>2000-01-01T05:37:14.000Z</time>
      </trkpt>
      <trkpt lat="46.29328" lon="6.77743">
        <ele>985</ele>
        <time>2000-01-01T05:37:24.000Z</time>
      </trkpt>
      <trkpt lat="46.29357" lon="6.77798">
        <ele>986</ele>
        <time>2000-01-01T05:37:34.000Z</time>
      </trkpt>
      <trkpt lat="46.29363" lon="6.77818">
        <ele>987.7</ele>
        <time>2000-01-01T05:37:44.000Z</time>
      </trkpt>
      <trkpt lat="46.29367" lon="6.77858">
        <ele>986</ele>
        <time>2000-01-01T05:37:54.000Z</time>
      </trkpt>
      <trkpt lat="46.29367" lon="6.77902">
        <ele>987</ele>
        <time>2000-01-01T05:38:04.000Z</time>
      </trkpt>
      <trkpt lat="46.29367" lon="6.77938">
        <ele>987</ele>
        <time>2000-01-01T05:38:14.000Z</time>
      </trkpt>
      <trkpt lat="46.29367" lon="6.77982">
        <ele>989</ele>
        <time>2000-01-01T05:38:24.000Z</time>
      </trkpt>
      <trkpt lat="46.2936" lon="6.78022">
        <ele>989</ele>
        <time>2000-01-01T05:38:34.000Z</time>
      </trkpt>
      <trkpt lat="46.2935" lon="6.78085">
        <ele>990</ele>
        <time>2000-01-01T05:38:44.000Z</time>
      </trkpt>
      <trkpt lat="46.29341" lon="6.78084">
        <ele>990.6</ele>
        <time>2000-01-01T05:38:54.000Z</time>
      </trkpt>
      <trkpt lat="46.29332" lon="6.78118">
        <ele>991</ele>
        <time>2000-01-01T05:39:04.000Z</time>
      </trkpt>
      <trkpt lat="46.29315" lon="6.78151">
        <ele>991</ele>
        <time>2000-01-01T05:39:14.000Z</time>
      </trkpt>
      <trkpt lat="46.29306" lon="6.78163">
        <ele>991</ele>
        <time>2000-01-01T05:39:24.000Z</time>
      </trkpt>
      <trkpt lat="46.29306" lon="6.78168">
        <ele>991</ele>
        <time>2000-01-01T05:39:34.000Z</time>
      </trkpt>
      <trkpt lat="46.29323" lon="6.7822">
        <ele>991</ele>
        <time>2000-01-01T05:39:44.000Z</time>
      </trkpt>
      <trkpt lat="46.29326" lon="6.78264">
        <ele>991</ele>
        <time>2000-01-01T05:39:54.000Z</time>
      </trkpt>
      <trkpt lat="46.29323" lon="6.7828">
        <ele>993.6</ele>
        <time>2000-01-01T05:40:04.000Z</time>
      </trkpt>
      <trkpt lat="46.29314" lon="6.78303">
        <ele>991</ele>
        <time>2000-01-01T05:40:14.000Z</time>
      </trkpt>
      <trkpt lat="46.29308" lon="6.78314">
        <ele>992.6</ele>
        <time>2000-01-01T05:40:24.000Z</time>
      </trkpt>
      <trkpt lat="46.29303" lon="6.7832">
        <ele>992.5</ele>
        <time>2000-01-01T05:40:34.000Z</time>
      </trkpt>
      <trkpt lat="46.29288" lon="6.78321">
        <ele>992</ele>
        <time>2000-01-01T05:40:44.000Z</time>
      </trkpt>
      <trkpt lat="46.29264" lon="6.78331">
        <ele>992</ele>
        <time>2000-01-01T05:40:54.000Z</time>
      </trkpt>
      <trkpt lat="46.29236" lon="6.78344">
        <ele>991</ele>
        <time>2000-01-01T05:41:04.000Z</time>
      </trkpt>
      <trkpt lat="46.29216" lon="6.78359">
        <ele>991</ele>
        <time>2000-01-01T05:41:14.000Z</time>
      </trkpt>
      <trkpt lat="46.29193" lon="6.78388">
        <ele>991</ele>
        <time>2000-01-01T05:41:24.000Z</time>
      </trkpt>
      <trkpt lat="46.29192" lon="6.7839">
        <ele>993.1</ele>
        <time>2000-01-01T05:41:34.000Z</time>
      </trkpt>
      <trkpt lat="46.29193" lon="6.78388">
        <ele>993.1</ele>
        <time>2000-01-01T05:41:44.000Z</time>
      </trkpt>
      <trkpt lat="46.29216" lon="6.78359">
        <ele>991</ele>
        <time>2000-01-01T05:41:54.000Z</time>
      </trkpt>
      <trkpt lat="46.29213" lon="6.78357">
        <ele>993.6</ele>
        <time>2000-01-01T05:42:04.000Z</time>
      </trkpt>
      <trkpt lat="46.29201" lon="6.78334">
        <ele>994</ele>
        <time>2000-01-01T05:42:14.000Z</time>
      </trkpt>
      <trkpt lat="46.29187" lon="6.78352">
        <ele>994</ele>
        <time>2000-01-01T05:42:24.000Z</time>
      </trkpt>
      <trkpt lat="46.29174" lon="6.78378">
        <ele>994</ele>
        <time>2000-01-01T05:42:34.000Z</time>
      </trkpt>
      <trkpt lat="46.29155" lon="6.78427">
        <ele>994</ele>
        <time>2000-01-01T05:42:44.000Z</time>
      </trkpt>
      <trkpt lat="46.29146" lon="6.78467">
        <ele>994</ele>
        <time>2000-01-01T05:42:54.000Z</time>
      </trkpt>
      <trkpt lat="46.29144" lon="6.78488">
        <ele>996.1</ele>
        <time>2000-01-01T05:43:04.000Z</time>
      </trkpt>
      <trkpt lat="46.29144" lon="6.7854">
        <ele>994</ele>
        <time>2000-01-01T05:43:14.000Z</time>
      </trkpt>
      <trkpt lat="46.29151" lon="6.78575">
        <ele>994</ele>
        <time>2000-01-01T05:43:24.000Z</time>
      </trkpt>
      <trkpt lat="46.2916" lon="6.78616">
        <ele>995</ele>
        <time>2000-01-01T05:43:34.000Z</time>
      </trkpt>
      <trkpt lat="46.29162" lon="6.78647">
        <ele>995</ele>
        <time>2000-01-01T05:43:44.000Z</time>
      </trkpt>
      <trkpt lat="46.29162" lon="6.78681">
        <ele>995</ele>
        <time>2000-01-01T05:43:54.000Z</time>
      </trkpt>
      <trkpt lat="46.29179" lon="6.78689">
        <ele>996</ele>
        <time>2000-01-01T05:44:04.000Z</time>
      </trkpt>
      <trkpt lat="46.29173" lon="6.78727">
        <ele>995</ele>
        <time>2000-01-01T05:44:14.000Z</time>
      </trkpt>
      <trkpt lat="46.2917" lon="6.78764">
        <ele>995</ele>
        <time>2000-01-01T05:44:24.000Z</time>
      </trkpt>
      <trkpt lat="46.29173" lon="6.78798">
        <ele>995</ele>
        <time>2000-01-01T05:44:34.000Z</time>
      </trkpt>
      <trkpt lat="46.29176" lon="6.78834">
        <ele>996</ele>
        <time>2000-01-01T05:44:44.000Z</time>
      </trkpt>
      <trkpt lat="46.29182" lon="6.78875">
        <ele>996</ele>
        <time>2000-01-01T05:44:54.000Z</time>
      </trkpt>
      <trkpt lat="46.2919" lon="6.78912">
        <ele>996</ele>
        <time>2000-01-01T05:45:04.000Z</time>
      </trkpt>
      <trkpt lat="46.2919" lon="6.78921">
        <ele>998.7</ele>
        <time>2000-01-01T05:45:14.000Z</time>
      </trkpt>
      <trkpt lat="46.29184" lon="6.78963">
        <ele>996</ele>
        <time>2000-01-01T05:45:24.000Z</time>
      </trkpt>
      <trkpt lat="46.29185" lon="6.78983">
        <ele>998.5</ele>
        <time>2000-01-01T05:45:34.000Z</time>
      </trkpt>
      <trkpt lat="46.29188" lon="6.79004">
        <ele>997</ele>
        <time>2000-01-01T05:45:44.000Z</time>
      </trkpt>
      <trkpt lat="46.29204" lon="6.79055">
        <ele>998</ele>
        <time>2000-01-01T05:45:54.000Z</time>
      </trkpt>
      <trkpt lat="46.29208" lon="6.79096">
        <ele>999</ele>
        <time>2000-01-01T05:46:04.000Z</time>
      </trkpt>
      <trkpt lat="46.29214" lon="6.79163">
        <ele>999</ele>
        <time>2000-01-01T05:46:14.000Z</time>
      </trkpt>
      <trkpt lat="46.29213" lon="6.79171">
        <ele>1002.2</ele>
        <time>2000-01-01T05:46:24.000Z</time>
      </trkpt>
      <trkpt lat="46.29205" lon="6.79185">
        <ele>1001.3</ele>
        <time>2000-01-01T05:46:34.000Z</time>
      </trkpt>
      <trkpt lat="46.29177" lon="6.79221">
        <ele>999</ele>
        <time>2000-01-01T05:46:44.000Z</time>
      </trkpt>
      <trkpt lat="46.29154" lon="6.79237">
        <ele>999</ele>
        <time>2000-01-01T05:46:54.000Z</time>
      </trkpt>
      <trkpt lat="46.29127" lon="6.79257">
        <ele>999</ele>
        <time>2000-01-01T05:47:04.000Z</time>
      </trkpt>
      <trkpt lat="46.29125" lon="6.7928">
        <ele>1002</ele>
        <time>2000-01-01T05:47:14.000Z</time>
      </trkpt>
      <trkpt lat="46.2911" lon="6.793">
        <ele>1001</ele>
        <time>2000-01-01T05:47:24.000Z</time>
      </trkpt>
      <trkpt lat="46.29108" lon="6.7931">
        <ele>1001.9</ele>
        <time>2000-01-01T05:47:34.000Z</time>
      </trkpt>
      <trkpt lat="46.29109" lon="6.79315">
        <ele>1001.7</ele>
        <time>2000-01-01T05:47:44.000Z</time>
      </trkpt>
      <trkpt lat="46.29105" lon="6.79323">
        <ele>1001.5</ele>
        <time>2000-01-01T05:47:54.000Z</time>
      </trkpt>
      <trkpt lat="46.29107" lon="6.79342">
        <ele>1001</ele>
        <time>2000-01-01T05:48:04.000Z</time>
      </trkpt>
      <trkpt lat="46.29111" lon="6.79363">
        <ele>1001.9</ele>
        <time>2000-01-01T05:48:14.000Z</time>
      </trkpt>
      <trkpt lat="46.29121" lon="6.79393">
        <ele>1002</ele>
        <time>2000-01-01T05:48:24.000Z</time>
      </trkpt>
      <trkpt lat="46.29122" lon="6.79417">
        <ele>1001.4</ele>
        <time>2000-01-01T05:48:34.000Z</time>
      </trkpt>
      <trkpt lat="46.29097" lon="6.79487">
        <ele>1002</ele>
        <time>2000-01-01T05:48:44.000Z</time>
      </trkpt>
      <trkpt lat="46.29071" lon="6.79537">
        <ele>1002</ele>
        <time>2000-01-01T05:48:54.000Z</time>
      </trkpt>
      <trkpt lat="46.29061" lon="6.79571">
        <ele>1003</ele>
        <time>2000-01-01T05:49:04.000Z</time>
      </trkpt>
      <trkpt lat="46.29047" lon="6.79613">
        <ele>1003</ele>
        <time>2000-01-01T05:49:14.000Z</time>
      </trkpt>
      <trkpt lat="46.29033" lon="6.79626">
        <ele>1004</ele>
        <time>2000-01-01T05:49:24.000Z</time>
      </trkpt>
      <trkpt lat="46.28977" lon="6.79643">
        <ele>1004</ele>
        <time>2000-01-01T05:49:34.000Z</time>
      </trkpt>
      <trkpt lat="46.28961" lon="6.79654">
        <ele>1005.2</ele>
        <time>2000-01-01T05:49:44.000Z</time>
      </trkpt>
      <trkpt lat="46.28949" lon="6.79678">
        <ele>1004</ele>
        <time>2000-01-01T05:49:54.000Z</time>
      </trkpt>
      <trkpt lat="46.28938" lon="6.79743">
        <ele>1004</ele>
        <time>2000-01-01T05:50:04.000Z</time>
      </trkpt>
      <trkpt lat="46.2893" lon="6.79764">
        <ele>1006.2</ele>
        <time>2000-01-01T05:50:14.000Z</time>
      </trkpt>
      <trkpt lat="46.28912" lon="6.79791">
        <ele>1004</ele>
        <time>2000-01-01T05:50:24.000Z</time>
      </trkpt>
      <trkpt lat="46.28882" lon="6.79808">
        <ele>1005</ele>
        <time>2000-01-01T05:50:34.000Z</time>
      </trkpt>
      <trkpt lat="46.28853" lon="6.79817">
        <ele>1006</ele>
        <time>2000-01-01T05:50:44.000Z</time>
      </trkpt>
      <trkpt lat="46.28837" lon="6.79825">
        <ele>1008.1</ele>
        <time>2000-01-01T05:50:54.000Z</time>
      </trkpt>
      <trkpt lat="46.28827" lon="6.79839">
        <ele>1006</ele>
        <time>2000-01-01T05:51:04.000Z</time>
      </trkpt>
      <trkpt lat="46.28823" lon="6.79855">
        <ele>1009.5</ele>
        <time>2000-01-01T05:51:14.000Z</time>
      </trkpt>
      <trkpt lat="46.28837" lon="6.79897">
        <ele>1008</ele>
        <time>2000-01-01T05:51:24.000Z</time>
      </trkpt>
      <trkpt lat="46.28842" lon="6.79919">
        <ele>1008.4</ele>
        <time>2000-01-01T05:51:34.000Z</time>
      </trkpt>
      <trkpt lat="46.28862" lon="6.79973">
        <ele>1008</ele>
        <time>2000-01-01T05:51:44.000Z</time>
      </trkpt>
      <trkpt lat="46.28868" lon="6.80001">
        <ele>1008</ele>
        <time>2000-01-01T05:51:54.000Z</time>
      </trkpt>
      <trkpt lat="46.28867" lon="6.80041">
        <ele>1009</ele>
        <time>2000-01-01T05:52:04.000Z</time>
      </trkpt>
      <trkpt lat="46.28853" lon="6.80105">
        <ele>1009</ele>
        <time>2000-01-01T05:52:14.000Z</time>
      </trkpt>
      <trkpt lat="46.28847" lon="6.80147">
        <ele>1009</ele>
        <time>2000-01-01T05:52:24.000Z</time>
      </trkpt>
      <trkpt lat="46.28848" lon="6.80187">
        <ele>1009</ele>
        <time>2000-01-01T05:52:34.000Z</time>
      </trkpt>
      <trkpt lat="46.28849" lon="6.80244">
        <ele>1011</ele>
        <time>2000-01-01T05:52:44.000Z</time>
      </trkpt>
      <trkpt lat="46.28849" lon="6.80279">
        <ele>1011</ele>
        <time>2000-01-01T05:52:54.000Z</time>
      </trkpt>
      <trkpt lat="46.2885" lon="6.80317">
        <ele>1011</ele>
        <time>2000-01-01T05:53:04.000Z</time>
      </trkpt>
      <trkpt lat="46.28855" lon="6.80357">
        <ele>1012</ele>
        <time>2000-01-01T05:53:14.000Z</time>
      </trkpt>
      <trkpt lat="46.28853" lon="6.80393">
        <ele>1012</ele>
        <time>2000-01-01T05:53:24.000Z</time>
      </trkpt>
      <trkpt lat="46.28851" lon="6.80436">
        <ele>1012</ele>
        <time>2000-01-01T05:53:34.000Z</time>
      </trkpt>
      <trkpt lat="46.28849" lon="6.80441">
        <ele>1014.9</ele>
        <time>2000-01-01T05:53:44.000Z</time>
      </trkpt>
      <trkpt lat="46.28838" lon="6.80448">
        <ele>1014.7</ele>
        <time>2000-01-01T05:53:54.000Z</time>
      </trkpt>
      <trkpt lat="46.28806" lon="6.80457">
        <ele>1013</ele>
        <time>2000-01-01T05:54:04.000Z</time>
      </trkpt>
      <trkpt lat="46.28766" lon="6.80474">
        <ele>1014</ele>
        <time>2000-01-01T05:54:14.000Z</time>
      </trkpt>
      <trkpt lat="46.28762" lon="6.80522">
        <ele>1015</ele>
        <time>2000-01-01T05:54:24.000Z</time>
      </trkpt>
      <trkpt lat="46.28769" lon="6.80561">
        <ele>1016</ele>
        <time>2000-01-01T05:54:34.000Z</time>
      </trkpt>
      <trkpt lat="46.28779" lon="6.80621">
        <ele>1016</ele>
        <time>2000-01-01T05:54:44.000Z</time>
      </trkpt>
      <trkpt lat="46.28769" lon="6.80648">
        <ele>1017</ele>
        <time>2000-01-01T05:54:54.000Z</time>
      </trkpt>
      <trkpt lat="46.28765" lon="6.80656">
        <ele>1018.1</ele>
        <time>2000-01-01T05:55:04.000Z</time>
      </trkpt>
      <trkpt lat="46.2873" lon="6.80708">
        <ele>1018</ele>
        <time>2000-01-01T05:55:14.000Z</time>
      </trkpt>
      <trkpt lat="46.28716" lon="6.80701">
        <ele>1017.8</ele>
        <time>2000-01-01T05:55:24.000Z</time>
      </trkpt>
      <trkpt lat="46.28678" lon="6.80727">
        <ele>1018</ele>
        <time>2000-01-01T05:55:34.000Z</time>
      </trkpt>
      <trkpt lat="46.28653" lon="6.80728">
        <ele>1017</ele>
        <time>2000-01-01T05:55:44.000Z</time>
      </trkpt>
      <trkpt lat="46.28625" lon="6.8072">
        <ele>1017</ele>
        <time>2000-01-01T05:55:54.000Z</time>
      </trkpt>
      <trkpt lat="46.28609" lon="6.80728">
        <ele>1018.4</ele>
        <time>2000-01-01T05:56:04.000Z</time>
      </trkpt>
      <trkpt lat="46.28587" lon="6.8076">
        <ele>1018</ele>
        <time>2000-01-01T05:56:14.000Z</time>
      </trkpt>
      <trkpt lat="46.28575" lon="6.80789">
        <ele>1018</ele>
        <time>2000-01-01T05:56:24.000Z</time>
      </trkpt>
      <trkpt lat="46.28565" lon="6.8084">
        <ele>1019</ele>
        <time>2000-01-01T05:56:34.000Z</time>
      </trkpt>
      <trkpt lat="46.28562" lon="6.80878">
        <ele>1020</ele>
        <time>2000-01-01T05:56:44.000Z</time>
      </trkpt>
      <trkpt lat="46.28554" lon="6.80905">
        <ele>1020</ele>
        <time>2000-01-01T05:56:54.000Z</time>
      </trkpt>
      <trkpt lat="46.28542" lon="6.80922">
        <ele>1023.8</ele>
        <time>2000-01-01T05:57:04.000Z</time>
      </trkpt>
      <trkpt lat="46.28495" lon="6.80958">
        <ele>1021</ele>
        <time>2000-01-01T05:57:14.000Z</time>
      </trkpt>
      <trkpt lat="46.28481" lon="6.80991">
        <ele>1022</ele>
        <time>2000-01-01T05:57:24.000Z</time>
      </trkpt>
      <trkpt lat="46.28461" lon="6.81033">
        <ele>1023</ele>
        <time>2000-01-01T05:57:34.000Z</time>
      </trkpt>
      <trkpt lat="46.28447" lon="6.81052">
        <ele>1023</ele>
        <time>2000-01-01T05:57:44.000Z</time>
      </trkpt>
      <trkpt lat="46.28429" lon="6.81062">
        <ele>1024</ele>
        <time>2000-01-01T05:57:54.000Z</time>
      </trkpt>
      <trkpt lat="46.28386" lon="6.81061">
        <ele>1024</ele>
        <time>2000-01-01T05:58:04.000Z</time>
      </trkpt>
      <trkpt lat="46.28371" lon="6.8107">
        <ele>1024.4</ele>
        <time>2000-01-01T05:58:14.000Z</time>
      </trkpt>
      <trkpt lat="46.28361" lon="6.81087">
        <ele>1024</ele>
        <time>2000-01-01T05:58:24.000Z</time>
      </trkpt>
      <trkpt lat="46.28355" lon="6.81112">
        <ele>1025</ele>
        <time>2000-01-01T05:58:34.000Z</time>
      </trkpt>
      <trkpt lat="46.28353" lon="6.8114">
        <ele>1024</ele>
        <time>2000-01-01T05:58:44.000Z</time>
      </trkpt>
      <trkpt lat="46.28339" lon="6.81184">
        <ele>1024</ele>
        <time>2000-01-01T05:58:54.000Z</time>
      </trkpt>
      <trkpt lat="46.28326" lon="6.81228">
        <ele>1025</ele>
        <time>2000-01-01T05:59:04.000Z</time>
      </trkpt>
      <trkpt lat="46.28315" lon="6.8126">
        <ele>1025</ele>
        <time>2000-01-01T05:59:14.000Z</time>
      </trkpt>
      <trkpt lat="46.28304" lon="6.81296">
        <ele>1025</ele>
        <time>2000-01-01T05:59:24.000Z</time>
      </trkpt>
      <trkpt lat="46.28295" lon="6.81318">
        <ele>1026.2</ele>
        <time>2000-01-01T05:59:34.000Z</time>
      </trkpt>
      <trkpt lat="46.28281" lon="6.81334">
        <ele>1027</ele>
        <time>2000-01-01T05:59:44.000Z</time>
      </trkpt>
      <trkpt lat="46.28256" lon="6.81335">
        <ele>1027</ele>
        <time>2000-01-01T05:59:54.000Z</time>
      </trkpt>
      <trkpt lat="46.28224" lon="6.81335">
        <ele>1027</ele>
        <time>2000-01-01T06:00:04.000Z</time>
      </trkpt>
      <trkpt lat="46.28204" lon="6.81354">
        <ele>1027</ele>
        <time>2000-01-01T06:00:14.000Z</time>
      </trkpt>
      <trkpt lat="46.28193" lon="6.81385">
        <ele>1028</ele>
        <time>2000-01-01T06:00:24.000Z</time>
      </trkpt>
      <trkpt lat="46.2818" lon="6.81418">
        <ele>1028</ele>
        <time>2000-01-01T06:00:34.000Z</time>
      </trkpt>
      <trkpt lat="46.28176" lon="6.81456">
        <ele>1028</ele>
        <time>2000-01-01T06:00:44.000Z</time>
      </trkpt>
      <trkpt lat="46.28171" lon="6.81507">
        <ele>1029</ele>
        <time>2000-01-01T06:00:54.000Z</time>
      </trkpt>
      <trkpt lat="46.28163" lon="6.81538">
        <ele>1029</ele>
        <time>2000-01-01T06:01:04.000Z</time>
      </trkpt>
      <trkpt lat="46.28152" lon="6.81548">
        <ele>1030.5</ele>
        <time>2000-01-01T06:01:14.000Z</time>
      </trkpt>
      <trkpt lat="46.28139" lon="6.81552">
        <ele>1029</ele>
        <time>2000-01-01T06:01:24.000Z</time>
      </trkpt>
      <trkpt lat="46.28121" lon="6.81568">
        <ele>1030</ele>
        <time>2000-01-01T06:01:34.000Z</time>
      </trkpt>
      <trkpt lat="46.28104" lon="6.81592">
        <ele>1030</ele>
        <time>2000-01-01T06:01:44.000Z</time>
      </trkpt>
      <trkpt lat="46.28086" lon="6.81617">
        <ele>1030</ele>
        <time>2000-01-01T06:01:54.000Z</time>
      </trkpt>
      <trkpt lat="46.28059" lon="6.81632">
        <ele>1031</ele>
        <time>2000-01-01T06:02:04.000Z</time>
      </trkpt>
      <trkpt lat="46.28046" lon="6.81636">
        <ele>1032.3</ele>
        <time>2000-01-01T06:02:14.000Z</time>
      </trkpt>
      <trkpt lat="46.28035" lon="6.81646">
        <ele>1031</ele>
        <time>2000-01-01T06:02:24.000Z</time>
      </trkpt>
      <trkpt lat="46.28018" lon="6.81706">
        <ele>1032</ele>
        <time>2000-01-01T06:02:34.000Z</time>
      </trkpt>
      <trkpt lat="46.28003" lon="6.81744">
        <ele>1032</ele>
        <time>2000-01-01T06:02:44.000Z</time>
      </trkpt>
      <trkpt lat="46.27991" lon="6.81777">
        <ele>1032</ele>
        <time>2000-01-01T06:02:54.000Z</time>
      </trkpt>
      <trkpt lat="46.27976" lon="6.81816">
        <ele>1034</ele>
        <time>2000-01-01T06:03:04.000Z</time>
      </trkpt>
      <trkpt lat="46.27961" lon="6.81839">
        <ele>1034</ele>
        <time>2000-01-01T06:03:14.000Z</time>
      </trkpt>
      <trkpt lat="46.2792" lon="6.81861">
        <ele>1034</ele>
        <time>2000-01-01T06:03:24.000Z</time>
      </trkpt>
      <trkpt lat="46.27903" lon="6.81884">
        <ele>1034</ele>
        <time>2000-01-01T06:03:34.000Z</time>
      </trkpt>
      <trkpt lat="46.27886" lon="6.81923">
        <ele>1035</ele>
        <time>2000-01-01T06:03:44.000Z</time>
      </trkpt>
      <trkpt lat="46.27871" lon="6.81956">
        <ele>1035</ele>
        <time>2000-01-01T06:03:54.000Z</time>
      </trkpt>
      <trkpt lat="46.2785" lon="6.82003">
        <ele>1036</ele>
        <time>2000-01-01T06:04:04.000Z</time>
      </trkpt>
      <trkpt lat="46.27822" lon="6.82046">
        <ele>1037</ele>
        <time>2000-01-01T06:04:14.000Z</time>
      </trkpt>
      <trkpt lat="46.27796" lon="6.82077">
        <ele>1037</ele>
        <time>2000-01-01T06:04:24.000Z</time>
      </trkpt>
      <trkpt lat="46.27783" lon="6.82072">
        <ele>1038.6</ele>
        <time>2000-01-01T06:04:34.000Z</time>
      </trkpt>
      <trkpt lat="46.27777" lon="6.82074">
        <ele>1039</ele>
        <time>2000-01-01T06:04:44.000Z</time>
      </trkpt>
      <trkpt lat="46.27769" lon="6.82085">
        <ele>1038.9</ele>
        <time>2000-01-01T06:04:54.000Z</time>
      </trkpt>
      <trkpt lat="46.2775" lon="6.8217">
        <ele>1039</ele>
        <time>2000-01-01T06:05:04.000Z</time>
      </trkpt>
      <trkpt lat="46.27736" lon="6.82199">
        <ele>1039</ele>
        <time>2000-01-01T06:05:14.000Z</time>
      </trkpt>
      <trkpt lat="46.27718" lon="6.82222">
        <ele>1040</ele>
        <time>2000-01-01T06:05:24.000Z</time>
      </trkpt>
      <trkpt lat="46.27699" lon="6.82246">
        <ele>1040</ele>
        <time>2000-01-01T06:05:34.000Z</time>
      </trkpt>
      <trkpt lat="46.27678" lon="6.82261">
        <ele>1041</ele>
        <time>2000-01-01T06:05:44.000Z</time>
      </trkpt>
      <trkpt lat="46.27656" lon="6.82276">
        <ele>1041</ele>
        <time>2000-01-01T06:05:54.000Z</time>
      </trkpt>
      <trkpt lat="46.27644" lon="6.82307">
        <ele>1042</ele>
        <time>2000-01-01T06:06:04.000Z</time>
      </trkpt>
      <trkpt lat="46.27628" lon="6.82338">
        <ele>1043</ele>
        <time>2000-01-01T06:06:14.000Z</time>
      </trkpt>
      <trkpt lat="46.27605" lon="6.82382">
        <ele>1043</ele>
        <time>2000-01-01T06:06:24.000Z</time>
      </trkpt>
      <trkpt lat="46.27567" lon="6.8241">
        <ele>1044</ele>
        <time>2000-01-01T06:06:34.000Z</time>
      </trkpt>
      <trkpt lat="46.27548" lon="6.82406">
        <ele>1046</ele>
        <time>2000-01-01T06:06:44.000Z</time>
      </trkpt>
      <trkpt lat="46.27531" lon="6.82432">
        <ele>1046</ele>
        <time>2000-01-01T06:06:54.000Z</time>
      </trkpt>
      <trkpt lat="46.27517" lon="6.82458">
        <ele>1047</ele>
        <time>2000-01-01T06:07:04.000Z</time>
      </trkpt>
      <trkpt lat="46.27502" lon="6.82485">
        <ele>1047</ele>
        <time>2000-01-01T06:07:14.000Z</time>
      </trkpt>
      <trkpt lat="46.27495" lon="6.82522">
        <ele>1048</ele>
        <time>2000-01-01T06:07:24.000Z</time>
      </trkpt>
      <trkpt lat="46.27486" lon="6.82573">
        <ele>1048</ele>
        <time>2000-01-01T06:07:34.000Z</time>
      </trkpt>
      <trkpt lat="46.27479" lon="6.82596">
        <ele>1048.2</ele>
        <time>2000-01-01T06:07:44.000Z</time>
      </trkpt>
      <trkpt lat="46.27457" lon="6.82643">
        <ele>1049</ele>
        <time>2000-01-01T06:07:54.000Z</time>
      </trkpt>
      <trkpt lat="46.27433" lon="6.82648">
        <ele>1050</ele>
        <time>2000-01-01T06:08:04.000Z</time>
      </trkpt>
      <trkpt lat="46.27405" lon="6.82654">
        <ele>1052</ele>
        <time>2000-01-01T06:08:14.000Z</time>
      </trkpt>
      <trkpt lat="46.27381" lon="6.8266">
        <ele>1056</ele>
        <time>2000-01-01T06:08:24.000Z</time>
      </trkpt>
      <trkpt lat="46.27358" lon="6.82673">
        <ele>1062</ele>
        <time>2000-01-01T06:08:34.000Z</time>
      </trkpt>
      <trkpt lat="46.27334" lon="6.82687">
        <ele>1066</ele>
        <time>2000-01-01T06:08:44.000Z</time>
      </trkpt>
      <trkpt lat="46.27314" lon="6.82707">
        <ele>1070</ele>
        <time>2000-01-01T06:08:54.000Z</time>
      </trkpt>
      <trkpt lat="46.27292" lon="6.82729">
        <ele>1071</ele>
        <time>2000-01-01T06:09:04.000Z</time>
      </trkpt>
      <trkpt lat="46.27272" lon="6.82741">
        <ele>1073</ele>
        <time>2000-01-01T06:09:14.000Z</time>
      </trkpt>
      <trkpt lat="46.27248" lon="6.82787">
        <ele>1079</ele>
        <time>2000-01-01T06:09:24.000Z</time>
      </trkpt>
      <trkpt lat="46.27222" lon="6.82825">
        <ele>1079</ele>
        <time>2000-01-01T06:09:34.000Z</time>
      </trkpt>
      <trkpt lat="46.27202" lon="6.8285">
        <ele>1082</ele>
        <time>2000-01-01T06:09:44.000Z</time>
      </trkpt>
      <trkpt lat="46.27174" lon="6.82884">
        <ele>1086</ele>
        <time>2000-01-01T06:09:54.000Z</time>
      </trkpt>
      <trkpt lat="46.27146" lon="6.82912">
        <ele>1086</ele>
        <time>2000-01-01T06:10:04.000Z</time>
      </trkpt>
      <trkpt lat="46.27124" lon="6.82954">
        <ele>1086</ele>
        <time>2000-01-01T06:10:14.000Z</time>
      </trkpt>
      <trkpt lat="46.27106" lon="6.82974">
        <ele>1087</ele>
        <time>2000-01-01T06:10:24.000Z</time>
      </trkpt>
      <trkpt lat="46.27071" lon="6.83005">
        <ele>1088</ele>
        <time>2000-01-01T06:10:34.000Z</time>
      </trkpt>
      <trkpt lat="46.27054" lon="6.83029">
        <ele>1088</ele>
        <time>2000-01-01T06:10:44.000Z</time>
      </trkpt>
      <trkpt lat="46.27036" lon="6.83055">
        <ele>1089</ele>
        <time>2000-01-01T06:10:54.000Z</time>
      </trkpt>
      <trkpt lat="46.27013" lon="6.83073">
        <ele>1090</ele>
        <time>2000-01-01T06:11:04.000Z</time>
      </trkpt>
      <trkpt lat="46.26983" lon="6.83098">
        <ele>1091</ele>
        <time>2000-01-01T06:11:14.000Z</time>
      </trkpt>
      <trkpt lat="46.26962" lon="6.83122">
        <ele>1092</ele>
        <time>2000-01-01T06:11:24.000Z</time>
      </trkpt>
      <trkpt lat="46.26933" lon="6.83154">
        <ele>1097</ele>
        <time>2000-01-01T06:11:34.000Z</time>
      </trkpt>
      <trkpt lat="46.26917" lon="6.83167">
        <ele>1096.9</ele>
        <time>2000-01-01T06:11:44.000Z</time>
      </trkpt>
      <trkpt lat="46.26901" lon="6.83174">
        <ele>1097</ele>
        <time>2000-01-01T06:11:54.000Z</time>
      </trkpt>
      <trkpt lat="46.26873" lon="6.83176">
        <ele>1102</ele>
        <time>2000-01-01T06:12:04.000Z</time>
      </trkpt>
      <trkpt lat="46.26848" lon="6.83183">
        <ele>1103</ele>
        <time>2000-01-01T06:12:14.000Z</time>
      </trkpt>
      <trkpt lat="46.26818" lon="6.83191">
        <ele>1104</ele>
        <time>2000-01-01T06:12:24.000Z</time>
      </trkpt>
      <trkpt lat="46.26793" lon="6.83205">
        <ele>1106</ele>
        <time>2000-01-01T06:12:34.000Z</time>
      </trkpt>
      <trkpt lat="46.26768" lon="6.83226">
        <ele>1109</ele>
        <time>2000-01-01T06:12:44.000Z</time>
      </trkpt>
      <trkpt lat="46.26747" lon="6.83242">
        <ele>1112</ele>
        <time>2000-01-01T06:12:54.000Z</time>
      </trkpt>
      <trkpt lat="46.26727" lon="6.8326">
        <ele>1111</ele>
        <time>2000-01-01T06:13:04.000Z</time>
      </trkpt>
      <trkpt lat="46.26716" lon="6.83262">
        <ele>1110.7</ele>
        <time>2000-01-01T06:13:14.000Z</time>
      </trkpt>
      <trkpt lat="46.26662" lon="6.83262">
        <ele>1111</ele>
        <time>2000-01-01T06:13:24.000Z</time>
      </trkpt>
      <trkpt lat="46.26639" lon="6.83275">
        <ele>1117</ele>
        <time>2000-01-01T06:13:34.000Z</time>
      </trkpt>
      <trkpt lat="46.26613" lon="6.83289">
        <ele>1117</ele>
        <time>2000-01-01T06:13:44.000Z</time>
      </trkpt>
      <trkpt lat="46.26606" lon="6.83289">
        <ele>1113.5</ele>
        <time>2000-01-01T06:13:54.000Z</time>
      </trkpt>
      <trkpt lat="46.26585" lon="6.8328">
        <ele>1115</ele>
        <time>2000-01-01T06:14:04.000Z</time>
      </trkpt>
      <trkpt lat="46.26576" lon="6.8328">
        <ele>1115.1</ele>
        <time>2000-01-01T06:14:14.000Z</time>
      </trkpt>
      <trkpt lat="46.26532" lon="6.83301">
        <ele>1117</ele>
        <time>2000-01-01T06:14:24.000Z</time>
      </trkpt>
      <trkpt lat="46.26522" lon="6.83303">
        <ele>1116.3</ele>
        <time>2000-01-01T06:14:34.000Z</time>
      </trkpt>
      <trkpt lat="46.26466" lon="6.83295">
        <ele>1119</ele>
        <time>2000-01-01T06:14:44.000Z</time>
      </trkpt>
      <trkpt lat="46.26429" lon="6.83299">
        <ele>1118</ele>
        <time>2000-01-01T06:14:54.000Z</time>
      </trkpt>
      <trkpt lat="46.26404" lon="6.83293">
        <ele>1118</ele>
        <time>2000-01-01T06:15:04.000Z</time>
      </trkpt>
      <trkpt lat="46.26373" lon="6.83285">
        <ele>1118</ele>
        <time>2000-01-01T06:15:14.000Z</time>
      </trkpt>
      <trkpt lat="46.26344" lon="6.83291">
        <ele>1112</ele>
        <time>2000-01-01T06:15:24.000Z</time>
      </trkpt>
      <trkpt lat="46.26321" lon="6.83296">
        <ele>1112</ele>
        <time>2000-01-01T06:15:34.000Z</time>
      </trkpt>
      <trkpt lat="46.26296" lon="6.83301">
        <ele>1107</ele>
        <time>2000-01-01T06:15:44.000Z</time>
      </trkpt>
      <trkpt lat="46.26271" lon="6.83304">
        <ele>1106</ele>
        <time>2000-01-01T06:15:54.000Z</time>
      </trkpt>
      <trkpt lat="46.26242" lon="6.83307">
        <ele>1104</ele>
        <time>2000-01-01T06:16:04.000Z</time>
      </trkpt>
      <trkpt lat="46.26214" lon="6.83311">
        <ele>1098</ele>
        <time>2000-01-01T06:16:14.000Z</time>
      </trkpt>
      <trkpt lat="46.26189" lon="6.83304">
        <ele>1095</ele>
        <time>2000-01-01T06:16:24.000Z</time>
      </trkpt>
      <trkpt lat="46.26158" lon="6.83296">
        <ele>1092</ele>
        <time>2000-01-01T06:16:34.000Z</time>
      </trkpt>
      <trkpt lat="46.26153" lon="6.83295">
        <ele>1094</ele>
        <time>2000-01-01T06:16:44.000Z</time>
      </trkpt>
      <trkpt lat="46.26158" lon="6.83296">
        <ele>1094.3</ele>
        <time>2000-01-01T06:16:54.000Z</time>
      </trkpt>
      <trkpt lat="46.26153" lon="6.83295">
        <ele>1094</ele>
        <time>2000-01-01T06:17:04.000Z</time>
      </trkpt>
      <trkpt lat="46.26137" lon="6.83294">
        <ele>1092</ele>
        <time>2000-01-01T06:17:14.000Z</time>
      </trkpt>
      <trkpt lat="46.26146" lon="6.83303">
        <ele>1092.5</ele>
        <time>2000-01-01T06:17:24.000Z</time>
      </trkpt>
      <trkpt lat="46.26216" lon="6.83351">
        <ele>1093</ele>
        <time>2000-01-01T06:17:34.000Z</time>
      </trkpt>
      <trkpt lat="46.26193" lon="6.83329">
        <ele>1092</ele>
        <time>2000-01-01T06:17:44.000Z</time>
      </trkpt>
      <trkpt lat="46.26158" lon="6.83296">
        <ele>1092</ele>
        <time>2000-01-01T06:17:54.000Z</time>
      </trkpt>
      <trkpt lat="46.26153" lon="6.83295">
        <ele>1094</ele>
        <time>2000-01-01T06:18:04.000Z</time>
      </trkpt>
      <trkpt lat="46.26137" lon="6.83294">
        <ele>1092</ele>
        <time>2000-01-01T06:18:14.000Z</time>
      </trkpt>
      <trkpt lat="46.26146" lon="6.83303">
        <ele>1092.5</ele>
        <time>2000-01-01T06:18:24.000Z</time>
      </trkpt>
      <trkpt lat="46.26163" lon="6.83315">
        <ele>1092</ele>
        <time>2000-01-01T06:18:34.000Z</time>
      </trkpt>
      <trkpt lat="46.26186" lon="6.83331">
        <ele>1092</ele>
        <time>2000-01-01T06:18:44.000Z</time>
      </trkpt>
      <trkpt lat="46.26216" lon="6.83351">
        <ele>1091</ele>
        <time>2000-01-01T06:18:54.000Z</time>
      </trkpt>
      <trkpt lat="46.2624" lon="6.83365">
        <ele>1090</ele>
        <time>2000-01-01T06:19:04.000Z</time>
      </trkpt>
      <trkpt lat="46.26257" lon="6.83371">
        <ele>1089.9</ele>
        <time>2000-01-01T06:19:14.000Z</time>
      </trkpt>
      <trkpt lat="46.26268" lon="6.83374">
        <ele>1089</ele>
        <time>2000-01-01T06:19:24.000Z</time>
      </trkpt>
      <trkpt lat="46.26291" lon="6.83372">
        <ele>1088</ele>
        <time>2000-01-01T06:19:34.000Z</time>
      </trkpt>
      <trkpt lat="46.26299" lon="6.83373">
        <ele>1088.6</ele>
        <time>2000-01-01T06:19:44.000Z</time>
      </trkpt>
      <trkpt lat="46.26309" lon="6.83377">
        <ele>1087.7</ele>
        <time>2000-01-01T06:19:54.000Z</time>
      </trkpt>
      <trkpt lat="46.26333" lon="6.83389">
        <ele>1087</ele>
        <time>2000-01-01T06:20:04.000Z</time>
      </trkpt>
      <trkpt lat="46.26357" lon="6.834">
        <ele>1087</ele>
        <time>2000-01-01T06:20:14.000Z</time>
      </trkpt>
      <trkpt lat="46.26385" lon="6.83413">
        <ele>1085</ele>
        <time>2000-01-01T06:20:24.000Z</time>
      </trkpt>
      <trkpt lat="46.26406" lon="6.83422">
        <ele>1084</ele>
        <time>2000-01-01T06:20:34.000Z</time>
      </trkpt>
      <trkpt lat="46.26439" lon="6.83433">
        <ele>1083</ele>
        <time>2000-01-01T06:20:44.000Z</time>
      </trkpt>
      <trkpt lat="46.26471" lon="6.83444">
        <ele>1081</ele>
        <time>2000-01-01T06:20:54.000Z</time>
      </trkpt>
      <trkpt lat="46.26495" lon="6.83453">
        <ele>1080</ele>
        <time>2000-01-01T06:21:04.000Z</time>
      </trkpt>
      <trkpt lat="46.26522" lon="6.83462">
        <ele>1079</ele>
        <time>2000-01-01T06:21:14.000Z</time>
      </trkpt>
      <trkpt lat="46.26545" lon="6.83468">
        <ele>1078</ele>
        <time>2000-01-01T06:21:24.000Z</time>
      </trkpt>
      <trkpt lat="46.26568" lon="6.83475">
        <ele>1078</ele>
        <time>2000-01-01T06:21:34.000Z</time>
      </trkpt>
      <trkpt lat="46.26579" lon="6.83477">
        <ele>1077</ele>
        <time>2000-01-01T06:21:44.000Z</time>
      </trkpt>
      <trkpt lat="46.26591" lon="6.83477">
        <ele>1076</ele>
        <time>2000-01-01T06:21:54.000Z</time>
      </trkpt>
      <trkpt lat="46.26609" lon="6.83474">
        <ele>1076</ele>
        <time>2000-01-01T06:22:04.000Z</time>
      </trkpt>
      <trkpt lat="46.2664" lon="6.83467">
        <ele>1075</ele>
        <time>2000-01-01T06:22:14.000Z</time>
      </trkpt>
      <trkpt lat="46.26666" lon="6.8346">
        <ele>1075</ele>
        <time>2000-01-01T06:22:24.000Z</time>
      </trkpt>
      <trkpt lat="46.26701" lon="6.83451">
        <ele>1074</ele>
        <time>2000-01-01T06:22:34.000Z</time>
      </trkpt>
      <trkpt lat="46.26723" lon="6.83446">
        <ele>1073</ele>
        <time>2000-01-01T06:22:44.000Z</time>
      </trkpt>
      <trkpt lat="46.2674" lon="6.83443">
        <ele>1073.6</ele>
        <time>2000-01-01T06:22:54.000Z</time>
      </trkpt>
      <trkpt lat="46.26744" lon="6.83441">
        <ele>1073</ele>
        <time>2000-01-01T06:23:04.000Z</time>
      </trkpt>
      <trkpt lat="46.26754" lon="6.83497">
        <ele>1073</ele>
        <time>2000-01-01T06:23:14.000Z</time>
      </trkpt>
      <trkpt lat="46.2676" lon="6.83517">
        <ele>1076.5</ele>
        <time>2000-01-01T06:23:24.000Z</time>
      </trkpt>
      <trkpt lat="46.26765" lon="6.83531">
        <ele>1076</ele>
        <time>2000-01-01T06:23:34.000Z</time>
      </trkpt>
      <trkpt lat="46.26783" lon="6.83561">
        <ele>1077</ele>
        <time>2000-01-01T06:23:44.000Z</time>
      </trkpt>
      <trkpt lat="46.26795" lon="6.83577">
        <ele>1081.7</ele>
        <time>2000-01-01T06:23:54.000Z</time>
      </trkpt>
      <trkpt lat="46.26803" lon="6.83584">
        <ele>1079</ele>
        <time>2000-01-01T06:24:04.000Z</time>
      </trkpt>
      <trkpt lat="46.26816" lon="6.83592">
        <ele>1082.7</ele>
        <time>2000-01-01T06:24:14.000Z</time>
      </trkpt>
      <trkpt lat="46.26826" lon="6.83594">
        <ele>1080</ele>
        <time>2000-01-01T06:24:24.000Z</time>
      </trkpt>
      <trkpt lat="46.26837" lon="6.83592">
        <ele>1084.2</ele>
        <time>2000-01-01T06:24:34.000Z</time>
      </trkpt>
      <trkpt lat="46.2685" lon="6.83587">
        <ele>1081</ele>
        <time>2000-01-01T06:24:44.000Z</time>
      </trkpt>
      <trkpt lat="46.26873" lon="6.83573">
        <ele>1087</ele>
        <time>2000-01-01T06:24:54.000Z</time>
      </trkpt>
      <trkpt lat="46.26898" lon="6.83558">
        <ele>1088</ele>
        <time>2000-01-01T06:25:04.000Z</time>
      </trkpt>
      <trkpt lat="46.26909" lon="6.83553">
        <ele>1091.8</ele>
        <time>2000-01-01T06:25:14.000Z</time>
      </trkpt>
      <trkpt lat="46.26919" lon="6.83551">
        <ele>1092</ele>
        <time>2000-01-01T06:25:24.000Z</time>
      </trkpt>
      <trkpt lat="46.26933" lon="6.8355">
        <ele>1092.9</ele>
        <time>2000-01-01T06:25:34.000Z</time>
      </trkpt>
      <trkpt lat="46.26941" lon="6.83552">
        <ele>1093</ele>
        <time>2000-01-01T06:25:44.000Z</time>
      </trkpt>
      <trkpt lat="46.26944" lon="6.83555">
        <ele>1093.9</ele>
        <time>2000-01-01T06:25:54.000Z</time>
      </trkpt>
      <trkpt lat="46.26946" lon="6.8356">
        <ele>1094.1</ele>
        <time>2000-01-01T06:26:04.000Z</time>
      </trkpt>
      <trkpt lat="46.26946" lon="6.83565">
        <ele>1094.4</ele>
        <time>2000-01-01T06:26:14.000Z</time>
      </trkpt>
      <trkpt lat="46.26947" lon="6.83566">
        <ele>1094.4</ele>
        <time>2000-01-01T06:26:24.000Z</time>
      </trkpt>
      <trkpt lat="46.2694" lon="6.83575">
        <ele>1095</ele>
        <time>2000-01-01T06:26:34.000Z</time>
      </trkpt>
      <trkpt lat="46.2693" lon="6.83583">
        <ele>1096.5</ele>
        <time>2000-01-01T06:26:44.000Z</time>
      </trkpt>
      <trkpt lat="46.26923" lon="6.83592">
        <ele>1095</ele>
        <time>2000-01-01T06:26:54.000Z</time>
      </trkpt>
      <trkpt lat="46.26907" lon="6.83619">
        <ele>1096</ele>
        <time>2000-01-01T06:27:04.000Z</time>
      </trkpt>
      <trkpt lat="46.2689" lon="6.83648">
        <ele>1098</ele>
        <time>2000-01-01T06:27:14.000Z</time>
      </trkpt>
      <trkpt lat="46.26862" lon="6.837">
        <ele>1104</ele>
        <time>2000-01-01T06:27:24.000Z</time>
      </trkpt>
      <trkpt lat="46.26847" lon="6.83724">
        <ele>1104</ele>
        <time>2000-01-01T06:27:34.000Z</time>
      </trkpt>
      <trkpt lat="46.26831" lon="6.83746">
        <ele>1108</ele>
        <time>2000-01-01T06:27:44.000Z</time>
      </trkpt>
      <trkpt lat="46.26825" lon="6.83756">
        <ele>1109</ele>
        <time>2000-01-01T06:27:54.000Z</time>
      </trkpt>
      <trkpt lat="46.26824" lon="6.83762">
        <ele>1109.5</ele>
        <time>2000-01-01T06:28:04.000Z</time>
      </trkpt>
      <trkpt lat="46.26824" lon="6.83765">
        <ele>1109.8</ele>
        <time>2000-01-01T06:28:14.000Z</time>
      </trkpt>
      <trkpt lat="46.26828" lon="6.83771">
        <ele>1109</ele>
        <time>2000-01-01T06:28:24.000Z</time>
      </trkpt>
      <trkpt lat="46.26834" lon="6.83771">
        <ele>1110.6</ele>
        <time>2000-01-01T06:28:34.000Z</time>
      </trkpt>
      <trkpt lat="46.26842" lon="6.83769">
        <ele>1111.2</ele>
        <time>2000-01-01T06:28:44.000Z</time>
      </trkpt>
      <trkpt lat="46.26851" lon="6.83764">
        <ele>1111</ele>
        <time>2000-01-01T06:28:54.000Z</time>
      </trkpt>
      <trkpt lat="46.26863" lon="6.83763">
        <ele>1112.6</ele>
        <time>2000-01-01T06:29:04.000Z</time>
      </trkpt>
      <trkpt lat="46.2692" lon="6.83763">
        <ele>1117</ele>
        <time>2000-01-01T06:29:14.000Z</time>
      </trkpt>
      <trkpt lat="46.26943" lon="6.83764">
        <ele>1119</ele>
        <time>2000-01-01T06:29:24.000Z</time>
      </trkpt>
      <trkpt lat="46.26963" lon="6.83768">
        <ele>1120</ele>
        <time>2000-01-01T06:29:34.000Z</time>
      </trkpt>
      <trkpt lat="46.26991" lon="6.83775">
        <ele>1122</ele>
        <time>2000-01-01T06:29:44.000Z</time>
      </trkpt>
      <trkpt lat="46.27015" lon="6.83783">
        <ele>1124</ele>
        <time>2000-01-01T06:29:54.000Z</time>
      </trkpt>
      <trkpt lat="46.27041" lon="6.83791">
        <ele>1127</ele>
        <time>2000-01-01T06:30:04.000Z</time>
      </trkpt>
      <trkpt lat="46.27056" lon="6.83794">
        <ele>1126.6</ele>
        <time>2000-01-01T06:30:14.000Z</time>
      </trkpt>
      <trkpt lat="46.27061" lon="6.83794">
        <ele>1128</ele>
        <time>2000-01-01T06:30:24.000Z</time>
      </trkpt>
      <trkpt lat="46.27063" lon="6.83795">
        <ele>1127.8</ele>
        <time>2000-01-01T06:30:34.000Z</time>
      </trkpt>
      <trkpt lat="46.27073" lon="6.83794">
        <ele>1129.2</ele>
        <time>2000-01-01T06:30:44.000Z</time>
      </trkpt>
      <trkpt lat="46.27083" lon="6.83791">
        <ele>1130</ele>
        <time>2000-01-01T06:30:54.000Z</time>
      </trkpt>
      <trkpt lat="46.27091" lon="6.83787">
        <ele>1130.7</ele>
        <time>2000-01-01T06:31:04.000Z</time>
      </trkpt>
      <trkpt lat="46.27099" lon="6.83784">
        <ele>1131.2</ele>
        <time>2000-01-01T06:31:14.000Z</time>
      </trkpt>
      <trkpt lat="46.27105" lon="6.83783">
        <ele>1131</ele>
        <time>2000-01-01T06:31:24.000Z</time>
      </trkpt>
      <trkpt lat="46.27109" lon="6.83787">
        <ele>1132.5</ele>
        <time>2000-01-01T06:31:34.000Z</time>
      </trkpt>
      <trkpt lat="46.27109" lon="6.83789">
        <ele>1132.6</ele>
        <time>2000-01-01T06:31:44.000Z</time>
      </trkpt>
      <trkpt lat="46.2711" lon="6.83793">
        <ele>1133</ele>
        <time>2000-01-01T06:31:54.000Z</time>
      </trkpt>
      <trkpt lat="46.27108" lon="6.83801">
        <ele>1133.4</ele>
        <time>2000-01-01T06:32:04.000Z</time>
      </trkpt>
      <trkpt lat="46.27102" lon="6.8381">
        <ele>1131</ele>
        <time>2000-01-01T06:32:14.000Z</time>
      </trkpt>
      <trkpt lat="46.27077" lon="6.83834">
        <ele>1132</ele>
        <time>2000-01-01T06:32:24.000Z</time>
      </trkpt>
      <trkpt lat="46.27064" lon="6.83847">
        <ele>1136.6</ele>
        <time>2000-01-01T06:32:34.000Z</time>
      </trkpt>
      <trkpt lat="46.2706" lon="6.83852">
        <ele>1137</ele>
        <time>2000-01-01T06:32:44.000Z</time>
      </trkpt>
      <trkpt lat="46.27051" lon="6.83858">
        <ele>1138.6</ele>
        <time>2000-01-01T06:32:54.000Z</time>
      </trkpt>
      <trkpt lat="46.27037" lon="6.83865">
        <ele>1139</ele>
        <time>2000-01-01T06:33:04.000Z</time>
      </trkpt>
      <trkpt lat="46.27016" lon="6.83873">
        <ele>1142</ele>
        <time>2000-01-01T06:33:14.000Z</time>
      </trkpt>
      <trkpt lat="46.26999" lon="6.83881">
        <ele>1143.6</ele>
        <time>2000-01-01T06:33:24.000Z</time>
      </trkpt>
      <trkpt lat="46.2698" lon="6.83892">
        <ele>1145</ele>
        <time>2000-01-01T06:33:34.000Z</time>
      </trkpt>
      <trkpt lat="46.26951" lon="6.83912">
        <ele>1149</ele>
        <time>2000-01-01T06:33:44.000Z</time>
      </trkpt>
      <trkpt lat="46.26916" lon="6.83938">
        <ele>1153</ele>
        <time>2000-01-01T06:33:54.000Z</time>
      </trkpt>
      <trkpt lat="46.26895" lon="6.83952">
        <ele>1155</ele>
        <time>2000-01-01T06:34:04.000Z</time>
      </trkpt>
      <trkpt lat="46.26873" lon="6.83966">
        <ele>1157</ele>
        <time>2000-01-01T06:34:14.000Z</time>
      </trkpt>
      <trkpt lat="46.26858" lon="6.83972">
        <ele>1159.3</ele>
        <time>2000-01-01T06:34:24.000Z</time>
      </trkpt>
      <trkpt lat="46.26844" lon="6.83975">
        <ele>1158</ele>
        <time>2000-01-01T06:34:34.000Z</time>
      </trkpt>
      <trkpt lat="46.26803" lon="6.8398">
        <ele>1160</ele>
        <time>2000-01-01T06:34:44.000Z</time>
      </trkpt>
      <trkpt lat="46.26797" lon="6.83982">
        <ele>1163</ele>
        <time>2000-01-01T06:34:54.000Z</time>
      </trkpt>
      <trkpt lat="46.26795" lon="6.83987">
        <ele>1164.1</ele>
        <time>2000-01-01T06:35:04.000Z</time>
      </trkpt>
      <trkpt lat="46.26794" lon="6.83992">
        <ele>1165.2</ele>
        <time>2000-01-01T06:35:14.000Z</time>
      </trkpt>
      <trkpt lat="46.26796" lon="6.83995">
        <ele>1165.7</ele>
        <time>2000-01-01T06:35:24.000Z</time>
      </trkpt>
      <trkpt lat="46.26794" lon="6.83992">
        <ele>1165</ele>
        <time>2000-01-01T06:35:34.000Z</time>
      </trkpt>
      <trkpt lat="46.2677" lon="6.83995">
        <ele>1165</ele>
        <time>2000-01-01T06:35:44.000Z</time>
      </trkpt>
      <trkpt lat="46.26756" lon="6.83996">
        <ele>1167.4</ele>
        <time>2000-01-01T06:35:54.000Z</time>
      </trkpt>
      <trkpt lat="46.26746" lon="6.83999">
        <ele>1165</ele>
        <time>2000-01-01T06:36:04.000Z</time>
      </trkpt>
      <trkpt lat="46.26726" lon="6.8401">
        <ele>1165</ele>
        <time>2000-01-01T06:36:14.000Z</time>
      </trkpt>
      <trkpt lat="46.26702" lon="6.84022">
        <ele>1172</ele>
        <time>2000-01-01T06:36:24.000Z</time>
      </trkpt>
      <trkpt lat="46.26693" lon="6.84025">
        <ele>1172.8</ele>
        <time>2000-01-01T06:36:34.000Z</time>
      </trkpt>
      <trkpt lat="46.26687" lon="6.84026">
        <ele>1173.1</ele>
        <time>2000-01-01T06:36:44.000Z</time>
      </trkpt>
      <trkpt lat="46.2668" lon="6.8403">
        <ele>1172</ele>
        <time>2000-01-01T06:36:54.000Z</time>
      </trkpt>
      <trkpt lat="46.26674" lon="6.84035">
        <ele>1174.6</ele>
        <time>2000-01-01T06:37:04.000Z</time>
      </trkpt>
      <trkpt lat="46.26669" lon="6.84042">
        <ele>1175.6</ele>
        <time>2000-01-01T06:37:14.000Z</time>
      </trkpt>
      <trkpt lat="46.26678" lon="6.8405">
        <ele>1174</ele>
        <time>2000-01-01T06:37:24.000Z</time>
      </trkpt>
      <trkpt lat="46.26691" lon="6.84067">
        <ele>1180.6</ele>
        <time>2000-01-01T06:37:34.000Z</time>
      </trkpt>
      <trkpt lat="46.26696" lon="6.84071">
        <ele>1178</ele>
        <time>2000-01-01T06:37:44.000Z</time>
      </trkpt>
      <trkpt lat="46.26703" lon="6.8407">
        <ele>1181.8</ele>
        <time>2000-01-01T06:37:54.000Z</time>
      </trkpt>
      <trkpt lat="46.2672" lon="6.84072">
        <ele>1180</ele>
        <time>2000-01-01T06:38:04.000Z</time>
      </trkpt>
      <trkpt lat="46.26727" lon="6.84075">
        <ele>1184</ele>
        <time>2000-01-01T06:38:14.000Z</time>
      </trkpt>
      <trkpt lat="46.26733" lon="6.8408">
        <ele>1184.3</ele>
        <time>2000-01-01T06:38:24.000Z</time>
      </trkpt>
      <trkpt lat="46.26737" lon="6.84088">
        <ele>1183</ele>
        <time>2000-01-01T06:38:34.000Z</time>
      </trkpt>
      <trkpt lat="46.2674" lon="6.841">
        <ele>1185.6</ele>
        <time>2000-01-01T06:38:44.000Z</time>
      </trkpt>
      <trkpt lat="46.26748" lon="6.84099">
        <ele>1185.2</ele>
        <time>2000-01-01T06:38:54.000Z</time>
      </trkpt>
      <trkpt lat="46.26779" lon="6.84092">
        <ele>1183</ele>
        <time>2000-01-01T06:39:04.000Z</time>
      </trkpt>
    </trkseg>
  </trk>
</gpx>